<?xml version="1.0" encoding="UTF-8" standalone="no" ?>
<gpx xmlns="http://www.topografix.com/GPX/1/1" xmlns:xsi="http://www.w3.org/2001/XMLSchema-instance" xsi:schemaLocation="http://www.topografix.com/GPX/1/1 http://www.topografix.com/GPX/1/1/gpx.xsd" version="1.1" creator="VisuGPX - https://www.visugpx.com">
  <metadata>
    <name>Capu di Melu</name>
    <desc><![CDATA[Voir : [url]https://les-randos-du-grand.eklablog.com/2026/05/escapade-en-corse-1-le-capu-di-melu.html[/url]]]></desc>
  </metadata>
  <trk>
    <name><![CDATA[Capu di Melu]]></name>
    <trkseg>
      <trkpt lat="42.2732" lon="8.87266">
        <ele>1322.91</ele>
        <time>2026-05-02T07:46:58Z</time>
      </trkpt>
      <trkpt lat="42.27322" lon="8.87264">
        <ele>1322.43</ele>
        <time>2026-05-02T07:47:29Z</time>
      </trkpt>
      <trkpt lat="42.27318" lon="8.8727">
        <ele>1322.43</ele>
        <time>2026-05-02T07:47:46Z</time>
      </trkpt>
      <trkpt lat="42.2732" lon="8.87278">
        <ele>1323.39</ele>
        <time>2026-05-02T07:48:02Z</time>
      </trkpt>
      <trkpt lat="42.27324" lon="8.87288">
        <ele>1325.31</ele>
        <time>2026-05-02T07:48:17Z</time>
      </trkpt>
      <trkpt lat="42.27329" lon="8.87301">
        <ele>1328.68</ele>
        <time>2026-05-02T07:48:33Z</time>
      </trkpt>
      <trkpt lat="42.2733" lon="8.87302">
        <ele>1329.16</ele>
        <time>2026-05-02T07:48:34Z</time>
      </trkpt>
      <trkpt lat="42.27343" lon="8.87318">
        <ele>1328.2</ele>
        <time>2026-05-02T07:48:52Z</time>
      </trkpt>
      <trkpt lat="42.27347" lon="8.87317">
        <ele>1329.64</ele>
        <time>2026-05-02T07:49:06Z</time>
      </trkpt>
      <trkpt lat="42.27345" lon="8.8731">
        <ele>1330.6</ele>
        <time>2026-05-02T07:49:23Z</time>
      </trkpt>
      <trkpt lat="42.27343" lon="8.87303">
        <ele>1333.97</ele>
        <time>2026-05-02T07:49:43Z</time>
      </trkpt>
      <trkpt lat="42.27337" lon="8.87302">
        <ele>1333.49</ele>
        <time>2026-05-02T07:50:02Z</time>
      </trkpt>
      <trkpt lat="42.27329" lon="8.87302">
        <ele>1337.33</ele>
        <time>2026-05-02T07:50:21Z</time>
      </trkpt>
      <trkpt lat="42.27312" lon="8.87304">
        <ele>1335.41</ele>
        <time>2026-05-02T07:50:36Z</time>
      </trkpt>
      <trkpt lat="42.27306" lon="8.87309">
        <ele>1337.81</ele>
        <time>2026-05-02T07:50:52Z</time>
      </trkpt>
      <trkpt lat="42.27298" lon="8.87309">
        <ele>1339.25</ele>
        <time>2026-05-02T07:51:08Z</time>
      </trkpt>
      <trkpt lat="42.2729" lon="8.87309">
        <ele>1339.25</ele>
        <time>2026-05-02T07:51:25Z</time>
      </trkpt>
      <trkpt lat="42.27279" lon="8.87303">
        <ele>1338.29</ele>
        <time>2026-05-02T07:51:42Z</time>
      </trkpt>
      <trkpt lat="42.27276" lon="8.87301">
        <ele>1337.81</ele>
        <time>2026-05-02T07:51:57Z</time>
      </trkpt>
      <trkpt lat="42.27268" lon="8.87302">
        <ele>1338.29</ele>
        <time>2026-05-02T07:52:11Z</time>
      </trkpt>
      <trkpt lat="42.27256" lon="8.873">
        <ele>1340.7</ele>
        <time>2026-05-02T07:52:27Z</time>
      </trkpt>
      <trkpt lat="42.27245" lon="8.87301">
        <ele>1339.25</ele>
        <time>2026-05-02T07:52:40Z</time>
      </trkpt>
      <trkpt lat="42.27236" lon="8.87298">
        <ele>1335.89</ele>
        <time>2026-05-02T07:52:56Z</time>
      </trkpt>
      <trkpt lat="42.27229" lon="8.8729">
        <ele>1336.85</ele>
        <time>2026-05-02T07:53:09Z</time>
      </trkpt>
      <trkpt lat="42.27225" lon="8.87285">
        <ele>1337.81</ele>
        <time>2026-05-02T07:53:22Z</time>
      </trkpt>
      <trkpt lat="42.27223" lon="8.87272">
        <ele>1342.62</ele>
        <time>2026-05-02T07:53:42Z</time>
      </trkpt>
      <trkpt lat="42.2722" lon="8.87258">
        <ele>1341.66</ele>
        <time>2026-05-02T07:53:54Z</time>
      </trkpt>
      <trkpt lat="42.2722" lon="8.87255">
        <ele>1340.7</ele>
        <time>2026-05-02T07:53:56Z</time>
      </trkpt>
      <trkpt lat="42.2722" lon="8.8724">
        <ele>1336.85</ele>
        <time>2026-05-02T07:54:08Z</time>
      </trkpt>
      <trkpt lat="42.27221" lon="8.87224">
        <ele>1334.45</ele>
        <time>2026-05-02T07:54:21Z</time>
      </trkpt>
      <trkpt lat="42.2722" lon="8.87211">
        <ele>1334.93</ele>
        <time>2026-05-02T07:54:33Z</time>
      </trkpt>
      <trkpt lat="42.27219" lon="8.87202">
        <ele>1336.37</ele>
        <time>2026-05-02T07:54:46Z</time>
      </trkpt>
      <trkpt lat="42.27222" lon="8.87189">
        <ele>1337.81</ele>
        <time>2026-05-02T07:54:59Z</time>
      </trkpt>
      <trkpt lat="42.27218" lon="8.87172">
        <ele>1335.89</ele>
        <time>2026-05-02T07:55:12Z</time>
      </trkpt>
      <trkpt lat="42.27211" lon="8.87162">
        <ele>1335.89</ele>
        <time>2026-05-02T07:55:25Z</time>
      </trkpt>
      <trkpt lat="42.27203" lon="8.87157">
        <ele>1334.45</ele>
        <time>2026-05-02T07:55:35Z</time>
      </trkpt>
      <trkpt lat="42.27194" lon="8.87151">
        <ele>1333.49</ele>
        <time>2026-05-02T07:55:47Z</time>
      </trkpt>
      <trkpt lat="42.27186" lon="8.87145">
        <ele>1335.41</ele>
        <time>2026-05-02T07:55:57Z</time>
      </trkpt>
      <trkpt lat="42.27178" lon="8.87143">
        <ele>1339.25</ele>
        <time>2026-05-02T07:56:10Z</time>
      </trkpt>
      <trkpt lat="42.2717" lon="8.87144">
        <ele>1341.66</ele>
        <time>2026-05-02T07:56:22Z</time>
      </trkpt>
      <trkpt lat="42.27163" lon="8.87143">
        <ele>1344.06</ele>
        <time>2026-05-02T07:56:34Z</time>
      </trkpt>
      <trkpt lat="42.27154" lon="8.87146">
        <ele>1341.66</ele>
        <time>2026-05-02T07:56:47Z</time>
      </trkpt>
      <trkpt lat="42.27144" lon="8.87143">
        <ele>1341.18</ele>
        <time>2026-05-02T07:57:01Z</time>
      </trkpt>
      <trkpt lat="42.27134" lon="8.87138">
        <ele>1346.46</ele>
        <time>2026-05-02T07:57:13Z</time>
      </trkpt>
      <trkpt lat="42.27127" lon="8.87136">
        <ele>1349.83</ele>
        <time>2026-05-02T07:57:24Z</time>
      </trkpt>
      <trkpt lat="42.27125" lon="8.87136">
        <ele>1350.31</ele>
        <time>2026-05-02T07:57:26Z</time>
      </trkpt>
      <trkpt lat="42.27117" lon="8.87139">
        <ele>1351.75</ele>
        <time>2026-05-02T07:57:37Z</time>
      </trkpt>
      <trkpt lat="42.27112" lon="8.87131">
        <ele>1354.15</ele>
        <time>2026-05-02T07:57:49Z</time>
      </trkpt>
      <trkpt lat="42.27111" lon="8.87129">
        <ele>1354.63</ele>
        <time>2026-05-02T07:58:03Z</time>
      </trkpt>
      <trkpt lat="42.27112" lon="8.87131">
        <ele>1353.67</ele>
        <time>2026-05-02T07:58:07Z</time>
      </trkpt>
      <trkpt lat="42.27121" lon="8.8712">
        <ele>1356.56</ele>
        <time>2026-05-02T07:58:20Z</time>
      </trkpt>
      <trkpt lat="42.27126" lon="8.8711">
        <ele>1359.92</ele>
        <time>2026-05-02T07:58:31Z</time>
      </trkpt>
      <trkpt lat="42.27131" lon="8.87101">
        <ele>1358</ele>
        <time>2026-05-02T07:58:43Z</time>
      </trkpt>
      <trkpt lat="42.27126" lon="8.87086">
        <ele>1356.56</ele>
        <time>2026-05-02T07:58:55Z</time>
      </trkpt>
      <trkpt lat="42.27125" lon="8.87071">
        <ele>1357.04</ele>
        <time>2026-05-02T07:59:07Z</time>
      </trkpt>
      <trkpt lat="42.27125" lon="8.87063">
        <ele>1358</ele>
        <time>2026-05-02T07:59:21Z</time>
      </trkpt>
      <trkpt lat="42.27128" lon="8.87062">
        <ele>1360.4</ele>
        <time>2026-05-02T07:59:42Z</time>
      </trkpt>
      <trkpt lat="42.27123" lon="8.87055">
        <ele>1359.92</ele>
        <time>2026-05-02T07:59:51Z</time>
      </trkpt>
      <trkpt lat="42.27113" lon="8.87046">
        <ele>1358.96</ele>
        <time>2026-05-02T08:00:05Z</time>
      </trkpt>
      <trkpt lat="42.27106" lon="8.87037">
        <ele>1358</ele>
        <time>2026-05-02T08:00:17Z</time>
      </trkpt>
      <trkpt lat="42.27099" lon="8.8703">
        <ele>1357.04</ele>
        <time>2026-05-02T08:00:28Z</time>
      </trkpt>
      <trkpt lat="42.27091" lon="8.8702">
        <ele>1358.48</ele>
        <time>2026-05-02T08:00:41Z</time>
      </trkpt>
      <trkpt lat="42.27085" lon="8.87012">
        <ele>1357.52</ele>
        <time>2026-05-02T08:00:54Z</time>
      </trkpt>
      <trkpt lat="42.27079" lon="8.87004">
        <ele>1358</ele>
        <time>2026-05-02T08:01:07Z</time>
      </trkpt>
      <trkpt lat="42.27078" lon="8.86998">
        <ele>1359.92</ele>
        <time>2026-05-02T08:01:20Z</time>
      </trkpt>
      <trkpt lat="42.27072" lon="8.86987">
        <ele>1360.88</ele>
        <time>2026-05-02T08:01:32Z</time>
      </trkpt>
      <trkpt lat="42.27065" lon="8.86977">
        <ele>1360.88</ele>
        <time>2026-05-02T08:01:43Z</time>
      </trkpt>
      <trkpt lat="42.27064" lon="8.86976">
        <ele>1360.88</ele>
        <time>2026-05-02T08:01:44Z</time>
      </trkpt>
      <trkpt lat="42.27059" lon="8.86968">
        <ele>1362.33</ele>
        <time>2026-05-02T08:01:55Z</time>
      </trkpt>
      <trkpt lat="42.27053" lon="8.86958">
        <ele>1362.33</ele>
        <time>2026-05-02T08:02:08Z</time>
      </trkpt>
      <trkpt lat="42.27045" lon="8.86949">
        <ele>1362.33</ele>
        <time>2026-05-02T08:02:20Z</time>
      </trkpt>
      <trkpt lat="42.27038" lon="8.86942">
        <ele>1361.84</ele>
        <time>2026-05-02T08:02:32Z</time>
      </trkpt>
      <trkpt lat="42.27036" lon="8.86929">
        <ele>1361.84</ele>
        <time>2026-05-02T08:02:51Z</time>
      </trkpt>
      <trkpt lat="42.2703" lon="8.86927">
        <ele>1362.33</ele>
        <time>2026-05-02T08:03:03Z</time>
      </trkpt>
      <trkpt lat="42.27024" lon="8.8692">
        <ele>1364.73</ele>
        <time>2026-05-02T08:03:15Z</time>
      </trkpt>
      <trkpt lat="42.27017" lon="8.86915">
        <ele>1370.02</ele>
        <time>2026-05-02T08:03:28Z</time>
      </trkpt>
      <trkpt lat="42.27012" lon="8.86907">
        <ele>1370.02</ele>
        <time>2026-05-02T08:03:41Z</time>
      </trkpt>
      <trkpt lat="42.27004" lon="8.869">
        <ele>1369.05</ele>
        <time>2026-05-02T08:03:52Z</time>
      </trkpt>
      <trkpt lat="42.26997" lon="8.86893">
        <ele>1370.98</ele>
        <time>2026-05-02T08:04:03Z</time>
      </trkpt>
      <trkpt lat="42.26989" lon="8.86887">
        <ele>1370.98</ele>
        <time>2026-05-02T08:04:15Z</time>
      </trkpt>
      <trkpt lat="42.26984" lon="8.86882">
        <ele>1371.46</ele>
        <time>2026-05-02T08:04:28Z</time>
      </trkpt>
      <trkpt lat="42.26977" lon="8.86872">
        <ele>1373.38</ele>
        <time>2026-05-02T08:04:40Z</time>
      </trkpt>
      <trkpt lat="42.26971" lon="8.86865">
        <ele>1373.86</ele>
        <time>2026-05-02T08:04:52Z</time>
      </trkpt>
      <trkpt lat="42.26966" lon="8.86854">
        <ele>1371.94</ele>
        <time>2026-05-02T08:05:05Z</time>
      </trkpt>
      <trkpt lat="42.26963" lon="8.86842">
        <ele>1370.02</ele>
        <time>2026-05-02T08:05:18Z</time>
      </trkpt>
      <trkpt lat="42.26964" lon="8.86838">
        <ele>1370.02</ele>
        <time>2026-05-02T08:05:23Z</time>
      </trkpt>
      <trkpt lat="42.2697" lon="8.86826">
        <ele>1370.5</ele>
        <time>2026-05-02T08:05:35Z</time>
      </trkpt>
      <trkpt lat="42.26967" lon="8.86817">
        <ele>1370.02</ele>
        <time>2026-05-02T08:05:50Z</time>
      </trkpt>
      <trkpt lat="42.26964" lon="8.86807">
        <ele>1369.54</ele>
        <time>2026-05-02T08:06:04Z</time>
      </trkpt>
      <trkpt lat="42.26961" lon="8.86803">
        <ele>1370.02</ele>
        <time>2026-05-02T08:06:20Z</time>
      </trkpt>
      <trkpt lat="42.26952" lon="8.86796">
        <ele>1369.05</ele>
        <time>2026-05-02T08:06:33Z</time>
      </trkpt>
      <trkpt lat="42.2695" lon="8.86797">
        <ele>1366.17</ele>
        <time>2026-05-02T08:06:49Z</time>
      </trkpt>
      <trkpt lat="42.26941" lon="8.86796">
        <ele>1361.36</ele>
        <time>2026-05-02T08:07:00Z</time>
      </trkpt>
      <trkpt lat="42.26933" lon="8.8679">
        <ele>1361.36</ele>
        <time>2026-05-02T08:07:12Z</time>
      </trkpt>
      <trkpt lat="42.26923" lon="8.86784">
        <ele>1359.44</ele>
        <time>2026-05-02T08:07:25Z</time>
      </trkpt>
      <trkpt lat="42.26911" lon="8.86783">
        <ele>1359.92</ele>
        <time>2026-05-02T08:07:37Z</time>
      </trkpt>
      <trkpt lat="42.269" lon="8.86781">
        <ele>1361.36</ele>
        <time>2026-05-02T08:07:48Z</time>
      </trkpt>
      <trkpt lat="42.26889" lon="8.86781">
        <ele>1364.73</ele>
        <time>2026-05-02T08:08:00Z</time>
      </trkpt>
      <trkpt lat="42.26879" lon="8.86784">
        <ele>1363.29</ele>
        <time>2026-05-02T08:08:12Z</time>
      </trkpt>
      <trkpt lat="42.26868" lon="8.86786">
        <ele>1364.25</ele>
        <time>2026-05-02T08:08:24Z</time>
      </trkpt>
      <trkpt lat="42.26859" lon="8.86787">
        <ele>1366.65</ele>
        <time>2026-05-02T08:08:36Z</time>
      </trkpt>
      <trkpt lat="42.26855" lon="8.86786">
        <ele>1367.61</ele>
        <time>2026-05-02T08:08:41Z</time>
      </trkpt>
      <trkpt lat="42.2685" lon="8.86778">
        <ele>1370.02</ele>
        <time>2026-05-02T08:08:55Z</time>
      </trkpt>
      <trkpt lat="42.2685" lon="8.8678">
        <ele>1370.98</ele>
        <time>2026-05-02T08:09:15Z</time>
      </trkpt>
      <trkpt lat="42.26849" lon="8.86772">
        <ele>1373.38</ele>
        <time>2026-05-02T08:09:40Z</time>
      </trkpt>
      <trkpt lat="42.26845" lon="8.8676">
        <ele>1373.38</ele>
        <time>2026-05-02T08:09:51Z</time>
      </trkpt>
      <trkpt lat="42.26846" lon="8.86754">
        <ele>1372.9</ele>
        <time>2026-05-02T08:09:58Z</time>
      </trkpt>
      <trkpt lat="42.26846" lon="8.8675">
        <ele>1372.42</ele>
        <time>2026-05-02T08:10:02Z</time>
      </trkpt>
      <trkpt lat="42.26846" lon="8.86735">
        <ele>1369.05</ele>
        <time>2026-05-02T08:10:14Z</time>
      </trkpt>
      <trkpt lat="42.26845" lon="8.86721">
        <ele>1366.65</ele>
        <time>2026-05-02T08:10:26Z</time>
      </trkpt>
      <trkpt lat="42.26843" lon="8.86709">
        <ele>1366.65</ele>
        <time>2026-05-02T08:10:37Z</time>
      </trkpt>
      <trkpt lat="42.26842" lon="8.86696">
        <ele>1364.73</ele>
        <time>2026-05-02T08:10:48Z</time>
      </trkpt>
      <trkpt lat="42.26841" lon="8.86684">
        <ele>1363.29</ele>
        <time>2026-05-02T08:10:59Z</time>
      </trkpt>
      <trkpt lat="42.2684" lon="8.86671">
        <ele>1363.29</ele>
        <time>2026-05-02T08:11:11Z</time>
      </trkpt>
      <trkpt lat="42.26837" lon="8.86664">
        <ele>1362.81</ele>
        <time>2026-05-02T08:11:18Z</time>
      </trkpt>
      <trkpt lat="42.26831" lon="8.86654">
        <ele>1360.4</ele>
        <time>2026-05-02T08:11:30Z</time>
      </trkpt>
      <trkpt lat="42.26823" lon="8.86639">
        <ele>1358.48</ele>
        <time>2026-05-02T08:11:44Z</time>
      </trkpt>
      <trkpt lat="42.26815" lon="8.86634">
        <ele>1357.04</ele>
        <time>2026-05-02T08:12:20Z</time>
      </trkpt>
      <trkpt lat="42.26815" lon="8.86633">
        <ele>1356.56</ele>
        <time>2026-05-02T08:12:21Z</time>
      </trkpt>
      <trkpt lat="42.26807" lon="8.86624">
        <ele>1358.48</ele>
        <time>2026-05-02T08:12:35Z</time>
      </trkpt>
      <trkpt lat="42.26803" lon="8.8662">
        <ele>1360.4</ele>
        <time>2026-05-02T08:12:44Z</time>
      </trkpt>
      <trkpt lat="42.26793" lon="8.86619">
        <ele>1359.92</ele>
        <time>2026-05-02T08:12:55Z</time>
      </trkpt>
      <trkpt lat="42.26789" lon="8.8662">
        <ele>1358.96</ele>
        <time>2026-05-02T08:12:59Z</time>
      </trkpt>
      <trkpt lat="42.26788" lon="8.86621">
        <ele>1358.96</ele>
        <time>2026-05-02T08:13:01Z</time>
      </trkpt>
      <trkpt lat="42.26778" lon="8.86618">
        <ele>1359.92</ele>
        <time>2026-05-02T08:13:13Z</time>
      </trkpt>
      <trkpt lat="42.26776" lon="8.86616">
        <ele>1360.4</ele>
        <time>2026-05-02T08:13:15Z</time>
      </trkpt>
      <trkpt lat="42.26769" lon="8.86613">
        <ele>1360.4</ele>
        <time>2026-05-02T08:13:23Z</time>
      </trkpt>
      <trkpt lat="42.26756" lon="8.86616">
        <ele>1358.96</ele>
        <time>2026-05-02T08:13:36Z</time>
      </trkpt>
      <trkpt lat="42.26744" lon="8.86615">
        <ele>1359.92</ele>
        <time>2026-05-02T08:13:48Z</time>
      </trkpt>
      <trkpt lat="42.26733" lon="8.86612">
        <ele>1360.88</ele>
        <time>2026-05-02T08:13:58Z</time>
      </trkpt>
      <trkpt lat="42.26727" lon="8.86612">
        <ele>1361.36</ele>
        <time>2026-05-02T08:14:03Z</time>
      </trkpt>
      <trkpt lat="42.26724" lon="8.86611">
        <ele>1360.88</ele>
        <time>2026-05-02T08:14:07Z</time>
      </trkpt>
      <trkpt lat="42.26714" lon="8.86608">
        <ele>1362.33</ele>
        <time>2026-05-02T08:14:20Z</time>
      </trkpt>
      <trkpt lat="42.2671" lon="8.86609">
        <ele>1362.81</ele>
        <time>2026-05-02T08:14:26Z</time>
      </trkpt>
      <trkpt lat="42.26699" lon="8.86607">
        <ele>1363.29</ele>
        <time>2026-05-02T08:14:38Z</time>
      </trkpt>
      <trkpt lat="42.26691" lon="8.86603">
        <ele>1364.25</ele>
        <time>2026-05-02T08:14:49Z</time>
      </trkpt>
      <trkpt lat="42.26685" lon="8.86597">
        <ele>1366.65</ele>
        <time>2026-05-02T08:14:59Z</time>
      </trkpt>
      <trkpt lat="42.26681" lon="8.86587">
        <ele>1364.25</ele>
        <time>2026-05-02T08:15:12Z</time>
      </trkpt>
      <trkpt lat="42.26674" lon="8.86579">
        <ele>1363.29</ele>
        <time>2026-05-02T08:15:24Z</time>
      </trkpt>
      <trkpt lat="42.26666" lon="8.86578">
        <ele>1364.25</ele>
        <time>2026-05-02T08:15:36Z</time>
      </trkpt>
      <trkpt lat="42.26655" lon="8.86577">
        <ele>1363.77</ele>
        <time>2026-05-02T08:15:52Z</time>
      </trkpt>
      <trkpt lat="42.26646" lon="8.86573">
        <ele>1364.25</ele>
        <time>2026-05-02T08:16:01Z</time>
      </trkpt>
      <trkpt lat="42.26638" lon="8.86567">
        <ele>1366.17</ele>
        <time>2026-05-02T08:16:15Z</time>
      </trkpt>
      <trkpt lat="42.26628" lon="8.86558">
        <ele>1366.65</ele>
        <time>2026-05-02T08:16:28Z</time>
      </trkpt>
      <trkpt lat="42.26619" lon="8.86548">
        <ele>1368.57</ele>
        <time>2026-05-02T08:16:40Z</time>
      </trkpt>
      <trkpt lat="42.26615" lon="8.86544">
        <ele>1370.02</ele>
        <time>2026-05-02T08:16:47Z</time>
      </trkpt>
      <trkpt lat="42.26611" lon="8.86537">
        <ele>1370.02</ele>
        <time>2026-05-02T08:17:01Z</time>
      </trkpt>
      <trkpt lat="42.26608" lon="8.8653">
        <ele>1369.54</ele>
        <time>2026-05-02T08:17:10Z</time>
      </trkpt>
      <trkpt lat="42.2661" lon="8.86516">
        <ele>1369.05</ele>
        <time>2026-05-02T08:17:22Z</time>
      </trkpt>
      <trkpt lat="42.26613" lon="8.865">
        <ele>1367.13</ele>
        <time>2026-05-02T08:17:36Z</time>
      </trkpt>
      <trkpt lat="42.26613" lon="8.86498">
        <ele>1367.13</ele>
        <time>2026-05-02T08:17:37Z</time>
      </trkpt>
      <trkpt lat="42.26617" lon="8.86488">
        <ele>1366.17</ele>
        <time>2026-05-02T08:17:48Z</time>
      </trkpt>
      <trkpt lat="42.26616" lon="8.86471">
        <ele>1365.21</ele>
        <time>2026-05-02T08:18:01Z</time>
      </trkpt>
      <trkpt lat="42.26614" lon="8.86464">
        <ele>1365.21</ele>
        <time>2026-05-02T08:18:14Z</time>
      </trkpt>
      <trkpt lat="42.26614" lon="8.86465">
        <ele>1368.09</ele>
        <time>2026-05-02T08:18:30Z</time>
      </trkpt>
      <trkpt lat="42.26613" lon="8.8646">
        <ele>1370.98</ele>
        <time>2026-05-02T08:18:49Z</time>
      </trkpt>
      <trkpt lat="42.26611" lon="8.86453">
        <ele>1374.82</ele>
        <time>2026-05-02T08:19:15Z</time>
      </trkpt>
      <trkpt lat="42.26604" lon="8.86441">
        <ele>1370.98</ele>
        <time>2026-05-02T08:19:33Z</time>
      </trkpt>
      <trkpt lat="42.26597" lon="8.86432">
        <ele>1370.5</ele>
        <time>2026-05-02T08:19:45Z</time>
      </trkpt>
      <trkpt lat="42.26592" lon="8.86422">
        <ele>1370.5</ele>
        <time>2026-05-02T08:19:57Z</time>
      </trkpt>
      <trkpt lat="42.26588" lon="8.86412">
        <ele>1370.98</ele>
        <time>2026-05-02T08:20:09Z</time>
      </trkpt>
      <trkpt lat="42.26582" lon="8.86407">
        <ele>1370.02</ele>
        <time>2026-05-02T08:20:20Z</time>
      </trkpt>
      <trkpt lat="42.26577" lon="8.86398">
        <ele>1369.05</ele>
        <time>2026-05-02T08:20:31Z</time>
      </trkpt>
      <trkpt lat="42.26573" lon="8.86386">
        <ele>1367.61</ele>
        <time>2026-05-02T08:20:44Z</time>
      </trkpt>
      <trkpt lat="42.26574" lon="8.86374">
        <ele>1370.5</ele>
        <time>2026-05-02T08:20:57Z</time>
      </trkpt>
      <trkpt lat="42.26582" lon="8.86364">
        <ele>1372.42</ele>
        <time>2026-05-02T08:21:09Z</time>
      </trkpt>
      <trkpt lat="42.26593" lon="8.86356">
        <ele>1373.38</ele>
        <time>2026-05-02T08:21:22Z</time>
      </trkpt>
      <trkpt lat="42.26598" lon="8.86349">
        <ele>1373.86</ele>
        <time>2026-05-02T08:21:33Z</time>
      </trkpt>
      <trkpt lat="42.266" lon="8.86343">
        <ele>1374.82</ele>
        <time>2026-05-02T08:21:43Z</time>
      </trkpt>
      <trkpt lat="42.26608" lon="8.86334">
        <ele>1378.19</ele>
        <time>2026-05-02T08:21:54Z</time>
      </trkpt>
      <trkpt lat="42.26613" lon="8.86326">
        <ele>1383.47</ele>
        <time>2026-05-02T08:22:07Z</time>
      </trkpt>
      <trkpt lat="42.26618" lon="8.86315">
        <ele>1383.96</ele>
        <time>2026-05-02T08:22:18Z</time>
      </trkpt>
      <trkpt lat="42.26616" lon="8.86306">
        <ele>1383.96</ele>
        <time>2026-05-02T08:22:29Z</time>
      </trkpt>
      <trkpt lat="42.26619" lon="8.86296">
        <ele>1383.96</ele>
        <time>2026-05-02T08:22:42Z</time>
      </trkpt>
      <trkpt lat="42.26625" lon="8.86285">
        <ele>1382.99</ele>
        <time>2026-05-02T08:22:55Z</time>
      </trkpt>
      <trkpt lat="42.26627" lon="8.86277">
        <ele>1383.47</ele>
        <time>2026-05-02T08:23:06Z</time>
      </trkpt>
      <trkpt lat="42.26628" lon="8.8627">
        <ele>1385.88</ele>
        <time>2026-05-02T08:23:17Z</time>
      </trkpt>
      <trkpt lat="42.26632" lon="8.86259">
        <ele>1387.32</ele>
        <time>2026-05-02T08:23:28Z</time>
      </trkpt>
      <trkpt lat="42.2664" lon="8.86246">
        <ele>1389.72</ele>
        <time>2026-05-02T08:23:40Z</time>
      </trkpt>
      <trkpt lat="42.26644" lon="8.86237">
        <ele>1393.09</ele>
        <time>2026-05-02T08:23:51Z</time>
      </trkpt>
      <trkpt lat="42.2665" lon="8.86226">
        <ele>1396.45</ele>
        <time>2026-05-02T08:24:02Z</time>
      </trkpt>
      <trkpt lat="42.26651" lon="8.86218">
        <ele>1396.93</ele>
        <time>2026-05-02T08:24:13Z</time>
      </trkpt>
      <trkpt lat="42.26654" lon="8.86205">
        <ele>1395.49</ele>
        <time>2026-05-02T08:24:26Z</time>
      </trkpt>
      <trkpt lat="42.2666" lon="8.86195">
        <ele>1395.01</ele>
        <time>2026-05-02T08:24:37Z</time>
      </trkpt>
      <trkpt lat="42.2666" lon="8.86193">
        <ele>1395.01</ele>
        <time>2026-05-02T08:24:38Z</time>
      </trkpt>
      <trkpt lat="42.26663" lon="8.86183">
        <ele>1394.53</ele>
        <time>2026-05-02T08:24:49Z</time>
      </trkpt>
      <trkpt lat="42.26669" lon="8.86176">
        <ele>1391.65</ele>
        <time>2026-05-02T08:25:00Z</time>
      </trkpt>
      <trkpt lat="42.26675" lon="8.86169">
        <ele>1386.84</ele>
        <time>2026-05-02T08:25:12Z</time>
      </trkpt>
      <trkpt lat="42.26678" lon="8.86159">
        <ele>1386.84</ele>
        <time>2026-05-02T08:25:26Z</time>
      </trkpt>
      <trkpt lat="42.26673" lon="8.86138">
        <ele>1386.36</ele>
        <time>2026-05-02T08:25:41Z</time>
      </trkpt>
      <trkpt lat="42.26667" lon="8.86122">
        <ele>1386.36</ele>
        <time>2026-05-02T08:25:53Z</time>
      </trkpt>
      <trkpt lat="42.26664" lon="8.86113">
        <ele>1386.36</ele>
        <time>2026-05-02T08:26:05Z</time>
      </trkpt>
      <trkpt lat="42.26659" lon="8.86101">
        <ele>1385.88</ele>
        <time>2026-05-02T08:26:17Z</time>
      </trkpt>
      <trkpt lat="42.26653" lon="8.86091">
        <ele>1387.8</ele>
        <time>2026-05-02T08:26:28Z</time>
      </trkpt>
      <trkpt lat="42.2665" lon="8.86081">
        <ele>1388.76</ele>
        <time>2026-05-02T08:26:41Z</time>
      </trkpt>
      <trkpt lat="42.26653" lon="8.86072">
        <ele>1387.8</ele>
        <time>2026-05-02T08:26:52Z</time>
      </trkpt>
      <trkpt lat="42.26654" lon="8.86066">
        <ele>1387.32</ele>
        <time>2026-05-02T08:26:58Z</time>
      </trkpt>
      <trkpt lat="42.26656" lon="8.86054">
        <ele>1387.32</ele>
        <time>2026-05-02T08:27:11Z</time>
      </trkpt>
      <trkpt lat="42.26653" lon="8.86051">
        <ele>1389.72</ele>
        <time>2026-05-02T08:27:35Z</time>
      </trkpt>
      <trkpt lat="42.26645" lon="8.86049">
        <ele>1391.17</ele>
        <time>2026-05-02T08:27:46Z</time>
      </trkpt>
      <trkpt lat="42.26641" lon="8.86048">
        <ele>1392.61</ele>
        <time>2026-05-02T08:28:02Z</time>
      </trkpt>
      <trkpt lat="42.26637" lon="8.86051">
        <ele>1392.13</ele>
        <time>2026-05-02T08:28:14Z</time>
      </trkpt>
      <trkpt lat="42.26628" lon="8.86053">
        <ele>1392.61</ele>
        <time>2026-05-02T08:28:27Z</time>
      </trkpt>
      <trkpt lat="42.26626" lon="8.86061">
        <ele>1393.09</ele>
        <time>2026-05-02T08:28:39Z</time>
      </trkpt>
      <trkpt lat="42.26624" lon="8.86062">
        <ele>1394.05</ele>
        <time>2026-05-02T08:28:57Z</time>
      </trkpt>
      <trkpt lat="42.26625" lon="8.86063">
        <ele>1396.45</ele>
        <time>2026-05-02T08:29:30Z</time>
      </trkpt>
      <trkpt lat="42.26627" lon="8.86063">
        <ele>1394.53</ele>
        <time>2026-05-02T08:30:03Z</time>
      </trkpt>
      <trkpt lat="42.26621" lon="8.86054">
        <ele>1393.57</ele>
        <time>2026-05-02T08:30:23Z</time>
      </trkpt>
      <trkpt lat="42.26616" lon="8.86049">
        <ele>1392.13</ele>
        <time>2026-05-02T08:30:37Z</time>
      </trkpt>
      <trkpt lat="42.26609" lon="8.86042">
        <ele>1392.61</ele>
        <time>2026-05-02T08:30:49Z</time>
      </trkpt>
      <trkpt lat="42.266" lon="8.86036">
        <ele>1392.13</ele>
        <time>2026-05-02T08:31:04Z</time>
      </trkpt>
      <trkpt lat="42.26593" lon="8.86029">
        <ele>1391.65</ele>
        <time>2026-05-02T08:31:13Z</time>
      </trkpt>
      <trkpt lat="42.26585" lon="8.86024">
        <ele>1390.2</ele>
        <time>2026-05-02T08:31:26Z</time>
      </trkpt>
      <trkpt lat="42.26577" lon="8.86019">
        <ele>1388.28</ele>
        <time>2026-05-02T08:31:38Z</time>
      </trkpt>
      <trkpt lat="42.26566" lon="8.86019">
        <ele>1389.72</ele>
        <time>2026-05-02T08:31:52Z</time>
      </trkpt>
      <trkpt lat="42.26558" lon="8.86024">
        <ele>1391.65</ele>
        <time>2026-05-02T08:32:04Z</time>
      </trkpt>
      <trkpt lat="42.26557" lon="8.86031">
        <ele>1391.65</ele>
        <time>2026-05-02T08:32:30Z</time>
      </trkpt>
      <trkpt lat="42.26555" lon="8.86036">
        <ele>1393.09</ele>
        <time>2026-05-02T08:32:47Z</time>
      </trkpt>
      <trkpt lat="42.26557" lon="8.86039">
        <ele>1393.09</ele>
        <time>2026-05-02T08:33:12Z</time>
      </trkpt>
      <trkpt lat="42.26558" lon="8.86043">
        <ele>1395.01</ele>
        <time>2026-05-02T08:33:46Z</time>
      </trkpt>
      <trkpt lat="42.2656" lon="8.86042">
        <ele>1398.37</ele>
        <time>2026-05-02T08:33:59Z</time>
      </trkpt>
      <trkpt lat="42.26569" lon="8.86039">
        <ele>1397.41</ele>
        <time>2026-05-02T08:34:11Z</time>
      </trkpt>
      <trkpt lat="42.26573" lon="8.86038">
        <ele>1396.93</ele>
        <time>2026-05-02T08:34:15Z</time>
      </trkpt>
      <trkpt lat="42.26582" lon="8.86043">
        <ele>1395.49</ele>
        <time>2026-05-02T08:34:28Z</time>
      </trkpt>
      <trkpt lat="42.26585" lon="8.86046">
        <ele>1395.49</ele>
        <time>2026-05-02T08:34:32Z</time>
      </trkpt>
      <trkpt lat="42.2659" lon="8.86051">
        <ele>1394.05</ele>
        <time>2026-05-02T08:34:40Z</time>
      </trkpt>
      <trkpt lat="42.26597" lon="8.86065">
        <ele>1393.09</ele>
        <time>2026-05-02T08:34:54Z</time>
      </trkpt>
      <trkpt lat="42.26603" lon="8.86077">
        <ele>1394.53</ele>
        <time>2026-05-02T08:35:06Z</time>
      </trkpt>
      <trkpt lat="42.26608" lon="8.86076">
        <ele>1396.45</ele>
        <time>2026-05-02T08:35:24Z</time>
      </trkpt>
      <trkpt lat="42.26606" lon="8.86086">
        <ele>1395.49</ele>
        <time>2026-05-02T08:35:40Z</time>
      </trkpt>
      <trkpt lat="42.26608" lon="8.86096">
        <ele>1395.49</ele>
        <time>2026-05-02T08:35:50Z</time>
      </trkpt>
      <trkpt lat="42.26607" lon="8.86111">
        <ele>1396.93</ele>
        <time>2026-05-02T08:36:04Z</time>
      </trkpt>
      <trkpt lat="42.26607" lon="8.86122">
        <ele>1398.37</ele>
        <time>2026-05-02T08:36:17Z</time>
      </trkpt>
      <trkpt lat="42.26605" lon="8.86136">
        <ele>1402.7</ele>
        <time>2026-05-02T08:36:32Z</time>
      </trkpt>
      <trkpt lat="42.26603" lon="8.86152">
        <ele>1404.14</ele>
        <time>2026-05-02T08:36:46Z</time>
      </trkpt>
      <trkpt lat="42.26601" lon="8.86166">
        <ele>1407.03</ele>
        <time>2026-05-02T08:37:00Z</time>
      </trkpt>
      <trkpt lat="42.26598" lon="8.8618">
        <ele>1410.39</ele>
        <time>2026-05-02T08:37:14Z</time>
      </trkpt>
      <trkpt lat="42.26594" lon="8.86195">
        <ele>1412.31</ele>
        <time>2026-05-02T08:37:28Z</time>
      </trkpt>
      <trkpt lat="42.2659" lon="8.86207">
        <ele>1413.76</ele>
        <time>2026-05-02T08:37:40Z</time>
      </trkpt>
      <trkpt lat="42.26588" lon="8.86219">
        <ele>1416.16</ele>
        <time>2026-05-02T08:37:53Z</time>
      </trkpt>
      <trkpt lat="42.26581" lon="8.86232">
        <ele>1417.6</ele>
        <time>2026-05-02T08:38:04Z</time>
      </trkpt>
      <trkpt lat="42.26579" lon="8.86234">
        <ele>1417.6</ele>
        <time>2026-05-02T08:38:06Z</time>
      </trkpt>
      <trkpt lat="42.26571" lon="8.86241">
        <ele>1415.2</ele>
        <time>2026-05-02T08:38:18Z</time>
      </trkpt>
      <trkpt lat="42.26564" lon="8.86246">
        <ele>1413.28</ele>
        <time>2026-05-02T08:38:29Z</time>
      </trkpt>
      <trkpt lat="42.26556" lon="8.86253">
        <ele>1410.87</ele>
        <time>2026-05-02T08:38:41Z</time>
      </trkpt>
      <trkpt lat="42.26549" lon="8.86258">
        <ele>1409.43</ele>
        <time>2026-05-02T08:38:51Z</time>
      </trkpt>
      <trkpt lat="42.26543" lon="8.86265">
        <ele>1409.91</ele>
        <time>2026-05-02T08:39:00Z</time>
      </trkpt>
      <trkpt lat="42.26535" lon="8.86273">
        <ele>1410.39</ele>
        <time>2026-05-02T08:39:12Z</time>
      </trkpt>
      <trkpt lat="42.26526" lon="8.86282">
        <ele>1412.31</ele>
        <time>2026-05-02T08:39:26Z</time>
      </trkpt>
      <trkpt lat="42.26522" lon="8.86284">
        <ele>1411.83</ele>
        <time>2026-05-02T08:39:32Z</time>
      </trkpt>
      <trkpt lat="42.2651" lon="8.86289">
        <ele>1410.87</ele>
        <time>2026-05-02T08:39:49Z</time>
      </trkpt>
      <trkpt lat="42.26498" lon="8.86295">
        <ele>1407.99</ele>
        <time>2026-05-02T08:40:02Z</time>
      </trkpt>
      <trkpt lat="42.2649" lon="8.86302">
        <ele>1407.99</ele>
        <time>2026-05-02T08:40:15Z</time>
      </trkpt>
      <trkpt lat="42.2648" lon="8.86306">
        <ele>1408.95</ele>
        <time>2026-05-02T08:40:29Z</time>
      </trkpt>
      <trkpt lat="42.26464" lon="8.86318">
        <ele>1408.95</ele>
        <time>2026-05-02T08:40:43Z</time>
      </trkpt>
      <trkpt lat="42.26457" lon="8.8633">
        <ele>1408.47</ele>
        <time>2026-05-02T08:40:56Z</time>
      </trkpt>
      <trkpt lat="42.26453" lon="8.86354">
        <ele>1412.31</ele>
        <time>2026-05-02T08:41:12Z</time>
      </trkpt>
      <trkpt lat="42.26455" lon="8.86371">
        <ele>1415.68</ele>
        <time>2026-05-02T08:41:26Z</time>
      </trkpt>
      <trkpt lat="42.26458" lon="8.86387">
        <ele>1415.68</ele>
        <time>2026-05-02T08:41:39Z</time>
      </trkpt>
      <trkpt lat="42.26458" lon="8.86399">
        <ele>1414.24</ele>
        <time>2026-05-02T08:41:48Z</time>
      </trkpt>
      <trkpt lat="42.26466" lon="8.86415">
        <ele>1411.83</ele>
        <time>2026-05-02T08:42:01Z</time>
      </trkpt>
      <trkpt lat="42.26469" lon="8.86429">
        <ele>1408.95</ele>
        <time>2026-05-02T08:42:14Z</time>
      </trkpt>
      <trkpt lat="42.26471" lon="8.86435">
        <ele>1409.43</ele>
        <time>2026-05-02T08:42:21Z</time>
      </trkpt>
      <trkpt lat="42.26474" lon="8.86446">
        <ele>1409.91</ele>
        <time>2026-05-02T08:42:34Z</time>
      </trkpt>
      <trkpt lat="42.2648" lon="8.86466">
        <ele>1413.76</ele>
        <time>2026-05-02T08:42:51Z</time>
      </trkpt>
      <trkpt lat="42.26488" lon="8.86483">
        <ele>1413.28</ele>
        <time>2026-05-02T08:43:08Z</time>
      </trkpt>
      <trkpt lat="42.26492" lon="8.86498">
        <ele>1411.83</ele>
        <time>2026-05-02T08:43:21Z</time>
      </trkpt>
      <trkpt lat="42.26498" lon="8.86509">
        <ele>1409.91</ele>
        <time>2026-05-02T08:43:33Z</time>
      </trkpt>
      <trkpt lat="42.26504" lon="8.86519">
        <ele>1408.95</ele>
        <time>2026-05-02T08:43:45Z</time>
      </trkpt>
      <trkpt lat="42.265" lon="8.86524">
        <ele>1408.47</ele>
        <time>2026-05-02T08:43:54Z</time>
      </trkpt>
      <trkpt lat="42.26498" lon="8.86525">
        <ele>1410.39</ele>
        <time>2026-05-02T08:44:09Z</time>
      </trkpt>
      <trkpt lat="42.26498" lon="8.86527">
        <ele>1412.31</ele>
        <time>2026-05-02T08:44:42Z</time>
      </trkpt>
      <trkpt lat="42.26494" lon="8.86517">
        <ele>1409.91</ele>
        <time>2026-05-02T08:44:54Z</time>
      </trkpt>
      <trkpt lat="42.26491" lon="8.86514">
        <ele>1409.43</ele>
        <time>2026-05-02T08:44:58Z</time>
      </trkpt>
      <trkpt lat="42.26485" lon="8.86505">
        <ele>1406.07</ele>
        <time>2026-05-02T08:45:09Z</time>
      </trkpt>
      <trkpt lat="42.26478" lon="8.86497">
        <ele>1405.1</ele>
        <time>2026-05-02T08:45:21Z</time>
      </trkpt>
      <trkpt lat="42.26473" lon="8.86486">
        <ele>1405.58</ele>
        <time>2026-05-02T08:45:33Z</time>
      </trkpt>
      <trkpt lat="42.26467" lon="8.86477">
        <ele>1406.07</ele>
        <time>2026-05-02T08:45:45Z</time>
      </trkpt>
      <trkpt lat="42.26463" lon="8.86462">
        <ele>1410.39</ele>
        <time>2026-05-02T08:45:56Z</time>
      </trkpt>
      <trkpt lat="42.26452" lon="8.86446">
        <ele>1417.6</ele>
        <time>2026-05-02T08:46:09Z</time>
      </trkpt>
      <trkpt lat="42.26452" lon="8.86446">
        <ele>1418.08</ele>
        <time>2026-05-02T08:46:10Z</time>
      </trkpt>
      <trkpt lat="42.26445" lon="8.86441">
        <ele>1419.52</ele>
        <time>2026-05-02T08:46:21Z</time>
      </trkpt>
      <trkpt lat="42.26438" lon="8.86434">
        <ele>1418.08</ele>
        <time>2026-05-02T08:46:35Z</time>
      </trkpt>
      <trkpt lat="42.26433" lon="8.86424">
        <ele>1419.04</ele>
        <time>2026-05-02T08:46:49Z</time>
      </trkpt>
      <trkpt lat="42.2643" lon="8.86415">
        <ele>1419.52</ele>
        <time>2026-05-02T08:47:02Z</time>
      </trkpt>
      <trkpt lat="42.26426" lon="8.86406">
        <ele>1421.93</ele>
        <time>2026-05-02T08:47:13Z</time>
      </trkpt>
      <trkpt lat="42.26419" lon="8.86397">
        <ele>1421.93</ele>
        <time>2026-05-02T08:47:24Z</time>
      </trkpt>
      <trkpt lat="42.26411" lon="8.8639">
        <ele>1421.93</ele>
        <time>2026-05-02T08:47:35Z</time>
      </trkpt>
      <trkpt lat="42.26403" lon="8.86386">
        <ele>1422.89</ele>
        <time>2026-05-02T08:47:50Z</time>
      </trkpt>
      <trkpt lat="42.26394" lon="8.86391">
        <ele>1421.45</ele>
        <time>2026-05-02T08:48:04Z</time>
      </trkpt>
      <trkpt lat="42.26391" lon="8.86394">
        <ele>1421.93</ele>
        <time>2026-05-02T08:48:11Z</time>
      </trkpt>
      <trkpt lat="42.26385" lon="8.86395">
        <ele>1422.41</ele>
        <time>2026-05-02T08:48:24Z</time>
      </trkpt>
      <trkpt lat="42.26381" lon="8.86394">
        <ele>1425.29</ele>
        <time>2026-05-02T08:48:40Z</time>
      </trkpt>
      <trkpt lat="42.2638" lon="8.86396">
        <ele>1424.81</ele>
        <time>2026-05-02T08:49:09Z</time>
      </trkpt>
      <trkpt lat="42.26379" lon="8.86397">
        <ele>1422.41</ele>
        <time>2026-05-02T08:49:46Z</time>
      </trkpt>
      <trkpt lat="42.26379" lon="8.864">
        <ele>1422.41</ele>
        <time>2026-05-02T08:50:16Z</time>
      </trkpt>
      <trkpt lat="42.26381" lon="8.86398">
        <ele>1420.97</ele>
        <time>2026-05-02T08:50:48Z</time>
      </trkpt>
      <trkpt lat="42.26382" lon="8.86397">
        <ele>1420</ele>
        <time>2026-05-02T08:51:22Z</time>
      </trkpt>
      <trkpt lat="42.26388" lon="8.864">
        <ele>1420.49</ele>
        <time>2026-05-02T08:51:34Z</time>
      </trkpt>
      <trkpt lat="42.26396" lon="8.86403">
        <ele>1421.93</ele>
        <time>2026-05-02T08:51:49Z</time>
      </trkpt>
      <trkpt lat="42.26394" lon="8.86398">
        <ele>1423.85</ele>
        <time>2026-05-02T08:52:17Z</time>
      </trkpt>
      <trkpt lat="42.26397" lon="8.86389">
        <ele>1422.89</ele>
        <time>2026-05-02T08:52:26Z</time>
      </trkpt>
      <trkpt lat="42.26398" lon="8.8637">
        <ele>1420.49</ele>
        <time>2026-05-02T08:52:38Z</time>
      </trkpt>
      <trkpt lat="42.26399" lon="8.86353">
        <ele>1421.45</ele>
        <time>2026-05-02T08:52:50Z</time>
      </trkpt>
      <trkpt lat="42.26401" lon="8.8634">
        <ele>1419.52</ele>
        <time>2026-05-02T08:53:00Z</time>
      </trkpt>
      <trkpt lat="42.26401" lon="8.86328">
        <ele>1417.12</ele>
        <time>2026-05-02T08:53:10Z</time>
      </trkpt>
      <trkpt lat="42.264" lon="8.86316">
        <ele>1415.2</ele>
        <time>2026-05-02T08:53:21Z</time>
      </trkpt>
      <trkpt lat="42.26399" lon="8.86301">
        <ele>1417.12</ele>
        <time>2026-05-02T08:53:33Z</time>
      </trkpt>
      <trkpt lat="42.264" lon="8.86285">
        <ele>1420.49</ele>
        <time>2026-05-02T08:53:45Z</time>
      </trkpt>
      <trkpt lat="42.26397" lon="8.86277">
        <ele>1421.93</ele>
        <time>2026-05-02T08:53:56Z</time>
      </trkpt>
      <trkpt lat="42.26399" lon="8.86275">
        <ele>1422.89</ele>
        <time>2026-05-02T08:54:22Z</time>
      </trkpt>
      <trkpt lat="42.26397" lon="8.86261">
        <ele>1422.89</ele>
        <time>2026-05-02T08:54:35Z</time>
      </trkpt>
      <trkpt lat="42.26391" lon="8.86253">
        <ele>1423.37</ele>
        <time>2026-05-02T08:54:49Z</time>
      </trkpt>
      <trkpt lat="42.26386" lon="8.86245">
        <ele>1423.85</ele>
        <time>2026-05-02T08:55:10Z</time>
      </trkpt>
      <trkpt lat="42.26385" lon="8.86238">
        <ele>1424.33</ele>
        <time>2026-05-02T08:55:26Z</time>
      </trkpt>
      <trkpt lat="42.26385" lon="8.86229">
        <ele>1425.29</ele>
        <time>2026-05-02T08:55:40Z</time>
      </trkpt>
      <trkpt lat="42.26381" lon="8.86228">
        <ele>1429.14</ele>
        <time>2026-05-02T08:56:00Z</time>
      </trkpt>
      <trkpt lat="42.26381" lon="8.86236">
        <ele>1428.18</ele>
        <time>2026-05-02T08:56:15Z</time>
      </trkpt>
      <trkpt lat="42.26384" lon="8.86246">
        <ele>1425.77</ele>
        <time>2026-05-02T08:56:29Z</time>
      </trkpt>
      <trkpt lat="42.26384" lon="8.86251">
        <ele>1429.14</ele>
        <time>2026-05-02T08:57:03Z</time>
      </trkpt>
      <trkpt lat="42.26383" lon="8.86252">
        <ele>1429.14</ele>
        <time>2026-05-02T08:57:19Z</time>
      </trkpt>
      <trkpt lat="42.26386" lon="8.86256">
        <ele>1426.25</ele>
        <time>2026-05-02T08:57:31Z</time>
      </trkpt>
      <trkpt lat="42.26385" lon="8.86256">
        <ele>1425.77</ele>
        <time>2026-05-02T08:57:34Z</time>
      </trkpt>
      <trkpt lat="42.2638" lon="8.86253">
        <ele>1425.77</ele>
        <time>2026-05-02T08:57:41Z</time>
      </trkpt>
      <trkpt lat="42.26374" lon="8.86243">
        <ele>1426.73</ele>
        <time>2026-05-02T08:57:52Z</time>
      </trkpt>
      <trkpt lat="42.26372" lon="8.86239">
        <ele>1427.21</ele>
        <time>2026-05-02T08:57:56Z</time>
      </trkpt>
      <trkpt lat="42.26366" lon="8.86227">
        <ele>1428.18</ele>
        <time>2026-05-02T08:58:07Z</time>
      </trkpt>
      <trkpt lat="42.26359" lon="8.86217">
        <ele>1429.14</ele>
        <time>2026-05-02T08:58:18Z</time>
      </trkpt>
      <trkpt lat="42.26352" lon="8.86208">
        <ele>1430.1</ele>
        <time>2026-05-02T08:58:30Z</time>
      </trkpt>
      <trkpt lat="42.26348" lon="8.86201">
        <ele>1430.58</ele>
        <time>2026-05-02T08:58:53Z</time>
      </trkpt>
      <trkpt lat="42.26344" lon="8.86192">
        <ele>1429.14</ele>
        <time>2026-05-02T08:59:03Z</time>
      </trkpt>
      <trkpt lat="42.2634" lon="8.86185">
        <ele>1429.14</ele>
        <time>2026-05-02T08:59:12Z</time>
      </trkpt>
      <trkpt lat="42.26334" lon="8.86174">
        <ele>1428.66</ele>
        <time>2026-05-02T08:59:23Z</time>
      </trkpt>
      <trkpt lat="42.26328" lon="8.86163">
        <ele>1430.1</ele>
        <time>2026-05-02T08:59:34Z</time>
      </trkpt>
      <trkpt lat="42.26324" lon="8.86154">
        <ele>1430.58</ele>
        <time>2026-05-02T08:59:45Z</time>
      </trkpt>
      <trkpt lat="42.2632" lon="8.8615">
        <ele>1431.06</ele>
        <time>2026-05-02T08:59:56Z</time>
      </trkpt>
      <trkpt lat="42.26316" lon="8.86142">
        <ele>1429.62</ele>
        <time>2026-05-02T09:00:18Z</time>
      </trkpt>
      <trkpt lat="42.26311" lon="8.86133">
        <ele>1428.66</ele>
        <time>2026-05-02T09:00:29Z</time>
      </trkpt>
      <trkpt lat="42.26307" lon="8.8612">
        <ele>1428.66</ele>
        <time>2026-05-02T09:00:40Z</time>
      </trkpt>
      <trkpt lat="42.26302" lon="8.86112">
        <ele>1428.66</ele>
        <time>2026-05-02T09:00:50Z</time>
      </trkpt>
      <trkpt lat="42.26291" lon="8.86103">
        <ele>1427.7</ele>
        <time>2026-05-02T09:01:04Z</time>
      </trkpt>
      <trkpt lat="42.26281" lon="8.86093">
        <ele>1428.18</ele>
        <time>2026-05-02T09:01:18Z</time>
      </trkpt>
      <trkpt lat="42.26272" lon="8.86087">
        <ele>1427.7</ele>
        <time>2026-05-02T09:01:33Z</time>
      </trkpt>
      <trkpt lat="42.26261" lon="8.86077">
        <ele>1427.7</ele>
        <time>2026-05-02T09:01:45Z</time>
      </trkpt>
      <trkpt lat="42.2625" lon="8.86068">
        <ele>1426.73</ele>
        <time>2026-05-02T09:01:59Z</time>
      </trkpt>
      <trkpt lat="42.26241" lon="8.86056">
        <ele>1427.21</ele>
        <time>2026-05-02T09:02:13Z</time>
      </trkpt>
      <trkpt lat="42.2623" lon="8.86044">
        <ele>1428.18</ele>
        <time>2026-05-02T09:02:27Z</time>
      </trkpt>
      <trkpt lat="42.26225" lon="8.86037">
        <ele>1428.66</ele>
        <time>2026-05-02T09:02:35Z</time>
      </trkpt>
      <trkpt lat="42.26219" lon="8.86028">
        <ele>1429.62</ele>
        <time>2026-05-02T09:02:47Z</time>
      </trkpt>
      <trkpt lat="42.26211" lon="8.86019">
        <ele>1429.62</ele>
        <time>2026-05-02T09:02:58Z</time>
      </trkpt>
      <trkpt lat="42.26204" lon="8.86011">
        <ele>1433.46</ele>
        <time>2026-05-02T09:03:14Z</time>
      </trkpt>
      <trkpt lat="42.26198" lon="8.86004">
        <ele>1433.94</ele>
        <time>2026-05-02T09:03:26Z</time>
      </trkpt>
      <trkpt lat="42.2619" lon="8.85995">
        <ele>1432.98</ele>
        <time>2026-05-02T09:03:37Z</time>
      </trkpt>
      <trkpt lat="42.26185" lon="8.85987">
        <ele>1435.87</ele>
        <time>2026-05-02T09:03:50Z</time>
      </trkpt>
      <trkpt lat="42.26179" lon="8.85983">
        <ele>1435.87</ele>
        <time>2026-05-02T09:04:02Z</time>
      </trkpt>
      <trkpt lat="42.26168" lon="8.85971">
        <ele>1435.87</ele>
        <time>2026-05-02T09:04:19Z</time>
      </trkpt>
      <trkpt lat="42.26161" lon="8.85963">
        <ele>1434.42</ele>
        <time>2026-05-02T09:04:33Z</time>
      </trkpt>
      <trkpt lat="42.26153" lon="8.85955">
        <ele>1434.42</ele>
        <time>2026-05-02T09:04:44Z</time>
      </trkpt>
      <trkpt lat="42.26144" lon="8.85947">
        <ele>1436.83</ele>
        <time>2026-05-02T09:04:56Z</time>
      </trkpt>
      <trkpt lat="42.26136" lon="8.85937">
        <ele>1437.79</ele>
        <time>2026-05-02T09:05:09Z</time>
      </trkpt>
      <trkpt lat="42.2613" lon="8.85933">
        <ele>1439.23</ele>
        <time>2026-05-02T09:05:20Z</time>
      </trkpt>
      <trkpt lat="42.26125" lon="8.85933">
        <ele>1439.71</ele>
        <time>2026-05-02T09:05:33Z</time>
      </trkpt>
      <trkpt lat="42.26124" lon="8.85932">
        <ele>1439.23</ele>
        <time>2026-05-02T09:05:57Z</time>
      </trkpt>
      <trkpt lat="42.26125" lon="8.85934">
        <ele>1438.27</ele>
        <time>2026-05-02T09:06:22Z</time>
      </trkpt>
      <trkpt lat="42.26122" lon="8.85936">
        <ele>1437.79</ele>
        <time>2026-05-02T09:06:44Z</time>
      </trkpt>
      <trkpt lat="42.2611" lon="8.85936">
        <ele>1437.79</ele>
        <time>2026-05-02T09:06:58Z</time>
      </trkpt>
      <trkpt lat="42.26101" lon="8.85931">
        <ele>1438.27</ele>
        <time>2026-05-02T09:07:09Z</time>
      </trkpt>
      <trkpt lat="42.26095" lon="8.85928">
        <ele>1437.31</ele>
        <time>2026-05-02T09:07:22Z</time>
      </trkpt>
      <trkpt lat="42.26095" lon="8.85928">
        <ele>1434.91</ele>
        <time>2026-05-02T09:07:44Z</time>
      </trkpt>
      <trkpt lat="42.26093" lon="8.85924">
        <ele>1434.42</ele>
        <time>2026-05-02T09:08:00Z</time>
      </trkpt>
      <trkpt lat="42.26084" lon="8.85917">
        <ele>1432.98</ele>
        <time>2026-05-02T09:08:11Z</time>
      </trkpt>
      <trkpt lat="42.26073" lon="8.8591">
        <ele>1432.98</ele>
        <time>2026-05-02T09:08:23Z</time>
      </trkpt>
      <trkpt lat="42.26064" lon="8.85907">
        <ele>1432.02</ele>
        <time>2026-05-02T09:08:34Z</time>
      </trkpt>
      <trkpt lat="42.26056" lon="8.85905">
        <ele>1430.58</ele>
        <time>2026-05-02T09:08:43Z</time>
      </trkpt>
      <trkpt lat="42.26048" lon="8.85902">
        <ele>1431.06</ele>
        <time>2026-05-02T09:08:53Z</time>
      </trkpt>
      <trkpt lat="42.26042" lon="8.85897">
        <ele>1430.58</ele>
        <time>2026-05-02T09:09:11Z</time>
      </trkpt>
      <trkpt lat="42.26039" lon="8.85893">
        <ele>1431.06</ele>
        <time>2026-05-02T09:09:23Z</time>
      </trkpt>
      <trkpt lat="42.26037" lon="8.85896">
        <ele>1434.42</ele>
        <time>2026-05-02T09:09:38Z</time>
      </trkpt>
      <trkpt lat="42.26037" lon="8.85892">
        <ele>1432.98</ele>
        <time>2026-05-02T09:10:01Z</time>
      </trkpt>
      <trkpt lat="42.2603" lon="8.85886">
        <ele>1432.98</ele>
        <time>2026-05-02T09:10:13Z</time>
      </trkpt>
      <trkpt lat="42.26027" lon="8.85885">
        <ele>1432.98</ele>
        <time>2026-05-02T09:10:29Z</time>
      </trkpt>
      <trkpt lat="42.26026" lon="8.85882">
        <ele>1432.98</ele>
        <time>2026-05-02T09:10:50Z</time>
      </trkpt>
      <trkpt lat="42.26016" lon="8.85875">
        <ele>1432.98</ele>
        <time>2026-05-02T09:11:02Z</time>
      </trkpt>
      <trkpt lat="42.26012" lon="8.85872">
        <ele>1432.02</ele>
        <time>2026-05-02T09:11:12Z</time>
      </trkpt>
      <trkpt lat="42.26009" lon="8.85867">
        <ele>1431.06</ele>
        <time>2026-05-02T09:11:28Z</time>
      </trkpt>
      <trkpt lat="42.26008" lon="8.85867">
        <ele>1431.06</ele>
        <time>2026-05-02T09:11:29Z</time>
      </trkpt>
      <trkpt lat="42.26003" lon="8.85857">
        <ele>1432.02</ele>
        <time>2026-05-02T09:11:42Z</time>
      </trkpt>
      <trkpt lat="42.25997" lon="8.85846">
        <ele>1432.98</ele>
        <time>2026-05-02T09:11:55Z</time>
      </trkpt>
      <trkpt lat="42.25993" lon="8.85835">
        <ele>1432.02</ele>
        <time>2026-05-02T09:12:07Z</time>
      </trkpt>
      <trkpt lat="42.25987" lon="8.85827">
        <ele>1431.54</ele>
        <time>2026-05-02T09:12:17Z</time>
      </trkpt>
      <trkpt lat="42.2598" lon="8.85814">
        <ele>1431.54</ele>
        <time>2026-05-02T09:12:30Z</time>
      </trkpt>
      <trkpt lat="42.25972" lon="8.85807">
        <ele>1430.1</ele>
        <time>2026-05-02T09:12:42Z</time>
      </trkpt>
      <trkpt lat="42.25962" lon="8.85798">
        <ele>1429.14</ele>
        <time>2026-05-02T09:12:55Z</time>
      </trkpt>
      <trkpt lat="42.25955" lon="8.85793">
        <ele>1428.66</ele>
        <time>2026-05-02T09:13:05Z</time>
      </trkpt>
      <trkpt lat="42.25949" lon="8.85787">
        <ele>1428.66</ele>
        <time>2026-05-02T09:13:17Z</time>
      </trkpt>
      <trkpt lat="42.25942" lon="8.85778">
        <ele>1430.1</ele>
        <time>2026-05-02T09:13:28Z</time>
      </trkpt>
      <trkpt lat="42.25932" lon="8.85772">
        <ele>1432.5</ele>
        <time>2026-05-02T09:13:39Z</time>
      </trkpt>
      <trkpt lat="42.25922" lon="8.85763">
        <ele>1433.46</ele>
        <time>2026-05-02T09:13:52Z</time>
      </trkpt>
      <trkpt lat="42.25914" lon="8.85756">
        <ele>1435.87</ele>
        <time>2026-05-02T09:14:03Z</time>
      </trkpt>
      <trkpt lat="42.25907" lon="8.85751">
        <ele>1439.23</ele>
        <time>2026-05-02T09:14:15Z</time>
      </trkpt>
      <trkpt lat="42.25898" lon="8.85745">
        <ele>1440.19</ele>
        <time>2026-05-02T09:14:27Z</time>
      </trkpt>
      <trkpt lat="42.25894" lon="8.85741">
        <ele>1440.19</ele>
        <time>2026-05-02T09:14:40Z</time>
      </trkpt>
      <trkpt lat="42.25885" lon="8.85736">
        <ele>1444.04</ele>
        <time>2026-05-02T09:14:55Z</time>
      </trkpt>
      <trkpt lat="42.25877" lon="8.85732">
        <ele>1445</ele>
        <time>2026-05-02T09:15:07Z</time>
      </trkpt>
      <trkpt lat="42.25874" lon="8.85731">
        <ele>1444.52</ele>
        <time>2026-05-02T09:15:12Z</time>
      </trkpt>
      <trkpt lat="42.25863" lon="8.85727">
        <ele>1444.52</ele>
        <time>2026-05-02T09:15:24Z</time>
      </trkpt>
      <trkpt lat="42.2585" lon="8.85725">
        <ele>1446.92</ele>
        <time>2026-05-02T09:15:38Z</time>
      </trkpt>
      <trkpt lat="42.2584" lon="8.85725">
        <ele>1448.84</ele>
        <time>2026-05-02T09:15:50Z</time>
      </trkpt>
      <trkpt lat="42.25831" lon="8.85726">
        <ele>1449.81</ele>
        <time>2026-05-02T09:16:07Z</time>
      </trkpt>
      <trkpt lat="42.25822" lon="8.85723">
        <ele>1450.77</ele>
        <time>2026-05-02T09:16:18Z</time>
      </trkpt>
      <trkpt lat="42.25811" lon="8.85718">
        <ele>1449.81</ele>
        <time>2026-05-02T09:16:32Z</time>
      </trkpt>
      <trkpt lat="42.25801" lon="8.85713">
        <ele>1449.32</ele>
        <time>2026-05-02T09:16:44Z</time>
      </trkpt>
      <trkpt lat="42.25791" lon="8.85711">
        <ele>1450.29</ele>
        <time>2026-05-02T09:16:56Z</time>
      </trkpt>
      <trkpt lat="42.25782" lon="8.85711">
        <ele>1451.73</ele>
        <time>2026-05-02T09:17:07Z</time>
      </trkpt>
      <trkpt lat="42.25775" lon="8.85711">
        <ele>1451.73</ele>
        <time>2026-05-02T09:17:16Z</time>
      </trkpt>
      <trkpt lat="42.25772" lon="8.85712">
        <ele>1451.73</ele>
        <time>2026-05-02T09:17:30Z</time>
      </trkpt>
      <trkpt lat="42.25767" lon="8.85711">
        <ele>1451.73</ele>
        <time>2026-05-02T09:17:42Z</time>
      </trkpt>
      <trkpt lat="42.25767" lon="8.85713">
        <ele>1450.29</ele>
        <time>2026-05-02T09:18:06Z</time>
      </trkpt>
      <trkpt lat="42.25766" lon="8.85712">
        <ele>1448.36</ele>
        <time>2026-05-02T09:18:28Z</time>
      </trkpt>
      <trkpt lat="42.25767" lon="8.85714">
        <ele>1448.84</ele>
        <time>2026-05-02T09:19:00Z</time>
      </trkpt>
      <trkpt lat="42.25766" lon="8.85715">
        <ele>1448.84</ele>
        <time>2026-05-02T09:19:28Z</time>
      </trkpt>
      <trkpt lat="42.25766" lon="8.85717">
        <ele>1450.29</ele>
        <time>2026-05-02T09:20:06Z</time>
      </trkpt>
      <trkpt lat="42.25766" lon="8.85715">
        <ele>1450.77</ele>
        <time>2026-05-02T09:20:39Z</time>
      </trkpt>
      <trkpt lat="42.25764" lon="8.85713">
        <ele>1453.17</ele>
        <time>2026-05-02T09:21:13Z</time>
      </trkpt>
      <trkpt lat="42.25763" lon="8.85713">
        <ele>1453.17</ele>
        <time>2026-05-02T09:21:38Z</time>
      </trkpt>
      <trkpt lat="42.25769" lon="8.85714">
        <ele>1452.21</ele>
        <time>2026-05-02T09:22:02Z</time>
      </trkpt>
      <trkpt lat="42.25768" lon="8.85714">
        <ele>1451.73</ele>
        <time>2026-05-02T09:22:30Z</time>
      </trkpt>
      <trkpt lat="42.25767" lon="8.8571">
        <ele>1449.81</ele>
        <time>2026-05-02T09:22:52Z</time>
      </trkpt>
      <trkpt lat="42.25767" lon="8.85711">
        <ele>1451.73</ele>
        <time>2026-05-02T09:23:20Z</time>
      </trkpt>
      <trkpt lat="42.25768" lon="8.85707">
        <ele>1450.29</ele>
        <time>2026-05-02T09:23:36Z</time>
      </trkpt>
      <trkpt lat="42.25766" lon="8.85702">
        <ele>1451.25</ele>
        <time>2026-05-02T09:23:43Z</time>
      </trkpt>
      <trkpt lat="42.25761" lon="8.85693">
        <ele>1450.29</ele>
        <time>2026-05-02T09:23:55Z</time>
      </trkpt>
      <trkpt lat="42.2576" lon="8.85685">
        <ele>1452.21</ele>
        <time>2026-05-02T09:24:05Z</time>
      </trkpt>
      <trkpt lat="42.25764" lon="8.85682">
        <ele>1453.17</ele>
        <time>2026-05-02T09:24:16Z</time>
      </trkpt>
      <trkpt lat="42.25772" lon="8.85678">
        <ele>1454.61</ele>
        <time>2026-05-02T09:24:28Z</time>
      </trkpt>
      <trkpt lat="42.25781" lon="8.85677">
        <ele>1455.57</ele>
        <time>2026-05-02T09:24:41Z</time>
      </trkpt>
      <trkpt lat="42.2579" lon="8.85674">
        <ele>1457.98</ele>
        <time>2026-05-02T09:24:54Z</time>
      </trkpt>
      <trkpt lat="42.25799" lon="8.85671">
        <ele>1459.42</ele>
        <time>2026-05-02T09:25:07Z</time>
      </trkpt>
      <trkpt lat="42.25807" lon="8.85669">
        <ele>1459.42</ele>
        <time>2026-05-02T09:25:18Z</time>
      </trkpt>
      <trkpt lat="42.25814" lon="8.85663">
        <ele>1459.9</ele>
        <time>2026-05-02T09:25:30Z</time>
      </trkpt>
      <trkpt lat="42.25821" lon="8.85657">
        <ele>1460.38</ele>
        <time>2026-05-02T09:25:42Z</time>
      </trkpt>
      <trkpt lat="42.25823" lon="8.8565">
        <ele>1461.82</ele>
        <time>2026-05-02T09:25:55Z</time>
      </trkpt>
      <trkpt lat="42.25825" lon="8.85647">
        <ele>1461.82</ele>
        <time>2026-05-02T09:26:11Z</time>
      </trkpt>
      <trkpt lat="42.2583" lon="8.8564">
        <ele>1460.86</ele>
        <time>2026-05-02T09:26:23Z</time>
      </trkpt>
      <trkpt lat="42.25835" lon="8.85632">
        <ele>1459.42</ele>
        <time>2026-05-02T09:26:34Z</time>
      </trkpt>
      <trkpt lat="42.25834" lon="8.85628">
        <ele>1458.94</ele>
        <time>2026-05-02T09:26:49Z</time>
      </trkpt>
      <trkpt lat="42.25833" lon="8.85629">
        <ele>1458.94</ele>
        <time>2026-05-02T09:27:05Z</time>
      </trkpt>
      <trkpt lat="42.25833" lon="8.85628">
        <ele>1458.94</ele>
        <time>2026-05-02T09:27:31Z</time>
      </trkpt>
      <trkpt lat="42.25844" lon="8.85628">
        <ele>1460.38</ele>
        <time>2026-05-02T09:27:57Z</time>
      </trkpt>
      <trkpt lat="42.25836" lon="8.85629">
        <ele>1460.86</ele>
        <time>2026-05-02T09:28:23Z</time>
      </trkpt>
      <trkpt lat="42.25832" lon="8.85633">
        <ele>1461.34</ele>
        <time>2026-05-02T09:28:57Z</time>
      </trkpt>
      <trkpt lat="42.25831" lon="8.85641">
        <ele>1460.38</ele>
        <time>2026-05-02T09:29:10Z</time>
      </trkpt>
      <trkpt lat="42.25833" lon="8.85645">
        <ele>1459.42</ele>
        <time>2026-05-02T09:29:24Z</time>
      </trkpt>
      <trkpt lat="42.25833" lon="8.85637">
        <ele>1459.42</ele>
        <time>2026-05-02T09:29:42Z</time>
      </trkpt>
      <trkpt lat="42.25834" lon="8.8563">
        <ele>1458.46</ele>
        <time>2026-05-02T09:29:53Z</time>
      </trkpt>
      <trkpt lat="42.25838" lon="8.85622">
        <ele>1458.46</ele>
        <time>2026-05-02T09:30:05Z</time>
      </trkpt>
      <trkpt lat="42.25842" lon="8.85615">
        <ele>1457.5</ele>
        <time>2026-05-02T09:30:14Z</time>
      </trkpt>
      <trkpt lat="42.25846" lon="8.85606">
        <ele>1456.53</ele>
        <time>2026-05-02T09:30:26Z</time>
      </trkpt>
      <trkpt lat="42.25846" lon="8.85597">
        <ele>1457.5</ele>
        <time>2026-05-02T09:30:37Z</time>
      </trkpt>
      <trkpt lat="42.25848" lon="8.85589">
        <ele>1457.98</ele>
        <time>2026-05-02T09:30:47Z</time>
      </trkpt>
      <trkpt lat="42.25847" lon="8.85584">
        <ele>1459.9</ele>
        <time>2026-05-02T09:31:00Z</time>
      </trkpt>
      <trkpt lat="42.25847" lon="8.85582">
        <ele>1459.9</ele>
        <time>2026-05-02T09:31:02Z</time>
      </trkpt>
      <trkpt lat="42.25854" lon="8.85572">
        <ele>1460.38</ele>
        <time>2026-05-02T09:31:14Z</time>
      </trkpt>
      <trkpt lat="42.25858" lon="8.85563">
        <ele>1460.38</ele>
        <time>2026-05-02T09:31:25Z</time>
      </trkpt>
      <trkpt lat="42.2586" lon="8.85557">
        <ele>1460.86</ele>
        <time>2026-05-02T09:31:32Z</time>
      </trkpt>
      <trkpt lat="42.25867" lon="8.85546">
        <ele>1461.82</ele>
        <time>2026-05-02T09:31:45Z</time>
      </trkpt>
      <trkpt lat="42.2587" lon="8.85535">
        <ele>1461.82</ele>
        <time>2026-05-02T09:31:56Z</time>
      </trkpt>
      <trkpt lat="42.25873" lon="8.85525">
        <ele>1461.82</ele>
        <time>2026-05-02T09:32:07Z</time>
      </trkpt>
      <trkpt lat="42.25873" lon="8.85516">
        <ele>1460.86</ele>
        <time>2026-05-02T09:32:19Z</time>
      </trkpt>
      <trkpt lat="42.25865" lon="8.85512">
        <ele>1461.82</ele>
        <time>2026-05-02T09:32:37Z</time>
      </trkpt>
      <trkpt lat="42.25865" lon="8.85503">
        <ele>1464.23</ele>
        <time>2026-05-02T09:32:48Z</time>
      </trkpt>
      <trkpt lat="42.25866" lon="8.85495">
        <ele>1463.74</ele>
        <time>2026-05-02T09:32:59Z</time>
      </trkpt>
      <trkpt lat="42.25868" lon="8.85484">
        <ele>1463.74</ele>
        <time>2026-05-02T09:33:12Z</time>
      </trkpt>
      <trkpt lat="42.25869" lon="8.85473">
        <ele>1465.19</ele>
        <time>2026-05-02T09:33:24Z</time>
      </trkpt>
      <trkpt lat="42.25866" lon="8.85464">
        <ele>1466.15</ele>
        <time>2026-05-02T09:33:37Z</time>
      </trkpt>
      <trkpt lat="42.25862" lon="8.85454">
        <ele>1469.03</ele>
        <time>2026-05-02T09:33:49Z</time>
      </trkpt>
      <trkpt lat="42.25862" lon="8.85453">
        <ele>1469.03</ele>
        <time>2026-05-02T09:33:51Z</time>
      </trkpt>
      <trkpt lat="42.25858" lon="8.85448">
        <ele>1469.03</ele>
        <time>2026-05-02T09:34:05Z</time>
      </trkpt>
      <trkpt lat="42.25853" lon="8.85451">
        <ele>1472.4</ele>
        <time>2026-05-02T09:34:18Z</time>
      </trkpt>
      <trkpt lat="42.25853" lon="8.85455">
        <ele>1472.88</ele>
        <time>2026-05-02T09:34:22Z</time>
      </trkpt>
      <trkpt lat="42.25853" lon="8.85465">
        <ele>1473.36</ele>
        <time>2026-05-02T09:34:35Z</time>
      </trkpt>
      <trkpt lat="42.25853" lon="8.85475">
        <ele>1475.28</ele>
        <time>2026-05-02T09:34:48Z</time>
      </trkpt>
      <trkpt lat="42.25851" lon="8.85482">
        <ele>1475.76</ele>
        <time>2026-05-02T09:34:59Z</time>
      </trkpt>
      <trkpt lat="42.25848" lon="8.85489">
        <ele>1476.24</ele>
        <time>2026-05-02T09:35:11Z</time>
      </trkpt>
      <trkpt lat="42.25845" lon="8.85497">
        <ele>1476.24</ele>
        <time>2026-05-02T09:35:21Z</time>
      </trkpt>
      <trkpt lat="42.25842" lon="8.85504">
        <ele>1477.68</ele>
        <time>2026-05-02T09:35:32Z</time>
      </trkpt>
      <trkpt lat="42.2584" lon="8.85507">
        <ele>1478.16</ele>
        <time>2026-05-02T09:35:35Z</time>
      </trkpt>
      <trkpt lat="42.25836" lon="8.85514">
        <ele>1479.61</ele>
        <time>2026-05-02T09:35:46Z</time>
      </trkpt>
      <trkpt lat="42.2583" lon="8.85521">
        <ele>1480.57</ele>
        <time>2026-05-02T09:36:00Z</time>
      </trkpt>
      <trkpt lat="42.25827" lon="8.85524">
        <ele>1481.05</ele>
        <time>2026-05-02T09:36:09Z</time>
      </trkpt>
      <trkpt lat="42.25829" lon="8.8552">
        <ele>1481.53</ele>
        <time>2026-05-02T09:36:22Z</time>
      </trkpt>
      <trkpt lat="42.25833" lon="8.85517">
        <ele>1481.53</ele>
        <time>2026-05-02T09:36:32Z</time>
      </trkpt>
      <trkpt lat="42.25835" lon="8.8551">
        <ele>1481.53</ele>
        <time>2026-05-02T09:36:45Z</time>
      </trkpt>
      <trkpt lat="42.25834" lon="8.85506">
        <ele>1483.45</ele>
        <time>2026-05-02T09:36:58Z</time>
      </trkpt>
      <trkpt lat="42.25835" lon="8.85496">
        <ele>1483.93</ele>
        <time>2026-05-02T09:37:11Z</time>
      </trkpt>
      <trkpt lat="42.25835" lon="8.85489">
        <ele>1484.41</ele>
        <time>2026-05-02T09:37:22Z</time>
      </trkpt>
      <trkpt lat="42.25829" lon="8.85486">
        <ele>1486.34</ele>
        <time>2026-05-02T09:37:33Z</time>
      </trkpt>
      <trkpt lat="42.25825" lon="8.85484">
        <ele>1487.78</ele>
        <time>2026-05-02T09:37:50Z</time>
      </trkpt>
      <trkpt lat="42.25822" lon="8.85477">
        <ele>1488.74</ele>
        <time>2026-05-02T09:38:02Z</time>
      </trkpt>
      <trkpt lat="42.25817" lon="8.85477">
        <ele>1489.7</ele>
        <time>2026-05-02T09:38:13Z</time>
      </trkpt>
      <trkpt lat="42.25813" lon="8.85476">
        <ele>1491.62</ele>
        <time>2026-05-02T09:38:26Z</time>
      </trkpt>
      <trkpt lat="42.2581" lon="8.85472">
        <ele>1492.58</ele>
        <time>2026-05-02T09:38:44Z</time>
      </trkpt>
      <trkpt lat="42.25804" lon="8.85464">
        <ele>1493.55</ele>
        <time>2026-05-02T09:38:57Z</time>
      </trkpt>
      <trkpt lat="42.25802" lon="8.85459">
        <ele>1494.03</ele>
        <time>2026-05-02T09:39:10Z</time>
      </trkpt>
      <trkpt lat="42.25801" lon="8.85455">
        <ele>1495.47</ele>
        <time>2026-05-02T09:39:33Z</time>
      </trkpt>
      <trkpt lat="42.25796" lon="8.85451">
        <ele>1494.99</ele>
        <time>2026-05-02T09:39:46Z</time>
      </trkpt>
      <trkpt lat="42.25787" lon="8.85447">
        <ele>1496.43</ele>
        <time>2026-05-02T09:39:59Z</time>
      </trkpt>
      <trkpt lat="42.25782" lon="8.85448">
        <ele>1497.39</ele>
        <time>2026-05-02T09:40:10Z</time>
      </trkpt>
      <trkpt lat="42.25775" lon="8.85446">
        <ele>1499.79</ele>
        <time>2026-05-02T09:40:24Z</time>
      </trkpt>
      <trkpt lat="42.25774" lon="8.85445">
        <ele>1502.2</ele>
        <time>2026-05-02T09:40:38Z</time>
      </trkpt>
      <trkpt lat="42.2577" lon="8.85445">
        <ele>1500.76</ele>
        <time>2026-05-02T09:41:08Z</time>
      </trkpt>
      <trkpt lat="42.25765" lon="8.8544">
        <ele>1501.72</ele>
        <time>2026-05-02T09:41:20Z</time>
      </trkpt>
      <trkpt lat="42.25761" lon="8.85437">
        <ele>1504.12</ele>
        <time>2026-05-02T09:41:32Z</time>
      </trkpt>
      <trkpt lat="42.25758" lon="8.85433">
        <ele>1504.6</ele>
        <time>2026-05-02T09:41:46Z</time>
      </trkpt>
      <trkpt lat="42.25756" lon="8.8543">
        <ele>1504.6</ele>
        <time>2026-05-02T09:41:59Z</time>
      </trkpt>
      <trkpt lat="42.25755" lon="8.85429">
        <ele>1505.56</ele>
        <time>2026-05-02T09:42:15Z</time>
      </trkpt>
      <trkpt lat="42.25752" lon="8.85426">
        <ele>1505.56</ele>
        <time>2026-05-02T09:42:26Z</time>
      </trkpt>
      <trkpt lat="42.2575" lon="8.85423">
        <ele>1506.04</ele>
        <time>2026-05-02T09:42:36Z</time>
      </trkpt>
      <trkpt lat="42.25747" lon="8.85422">
        <ele>1507</ele>
        <time>2026-05-02T09:42:49Z</time>
      </trkpt>
      <trkpt lat="42.25745" lon="8.85418">
        <ele>1507.97</ele>
        <time>2026-05-02T09:43:01Z</time>
      </trkpt>
      <trkpt lat="42.25743" lon="8.85414">
        <ele>1510.37</ele>
        <time>2026-05-02T09:43:09Z</time>
      </trkpt>
      <trkpt lat="42.25745" lon="8.85415">
        <ele>1511.33</ele>
        <time>2026-05-02T09:43:32Z</time>
      </trkpt>
      <trkpt lat="42.25743" lon="8.85415">
        <ele>1509.89</ele>
        <time>2026-05-02T09:44:04Z</time>
      </trkpt>
      <trkpt lat="42.25745" lon="8.85415">
        <ele>1509.89</ele>
        <time>2026-05-02T09:44:27Z</time>
      </trkpt>
      <trkpt lat="42.25742" lon="8.85409">
        <ele>1511.33</ele>
        <time>2026-05-02T09:44:42Z</time>
      </trkpt>
      <trkpt lat="42.25741" lon="8.85405">
        <ele>1511.81</ele>
        <time>2026-05-02T09:44:52Z</time>
      </trkpt>
      <trkpt lat="42.25736" lon="8.85402">
        <ele>1512.77</ele>
        <time>2026-05-02T09:45:02Z</time>
      </trkpt>
      <trkpt lat="42.25734" lon="8.85403">
        <ele>1514.69</ele>
        <time>2026-05-02T09:45:15Z</time>
      </trkpt>
      <trkpt lat="42.25732" lon="8.85405">
        <ele>1514.21</ele>
        <time>2026-05-02T09:45:37Z</time>
      </trkpt>
      <trkpt lat="42.25731" lon="8.85404">
        <ele>1515.66</ele>
        <time>2026-05-02T09:45:52Z</time>
      </trkpt>
      <trkpt lat="42.25726" lon="8.85404">
        <ele>1517.1</ele>
        <time>2026-05-02T09:46:05Z</time>
      </trkpt>
      <trkpt lat="42.25723" lon="8.85399">
        <ele>1518.54</ele>
        <time>2026-05-02T09:46:19Z</time>
      </trkpt>
      <trkpt lat="42.25721" lon="8.85397">
        <ele>1519.5</ele>
        <time>2026-05-02T09:46:36Z</time>
      </trkpt>
      <trkpt lat="42.25719" lon="8.85396">
        <ele>1519.02</ele>
        <time>2026-05-02T09:46:53Z</time>
      </trkpt>
      <trkpt lat="42.25716" lon="8.85392">
        <ele>1519.98</ele>
        <time>2026-05-02T09:47:04Z</time>
      </trkpt>
      <trkpt lat="42.25712" lon="8.8539">
        <ele>1521.42</ele>
        <time>2026-05-02T09:47:15Z</time>
      </trkpt>
      <trkpt lat="42.25709" lon="8.8539">
        <ele>1522.39</ele>
        <time>2026-05-02T09:47:41Z</time>
      </trkpt>
      <trkpt lat="42.25707" lon="8.85387">
        <ele>1522.87</ele>
        <time>2026-05-02T09:47:52Z</time>
      </trkpt>
      <trkpt lat="42.25705" lon="8.85389">
        <ele>1523.35</ele>
        <time>2026-05-02T09:48:05Z</time>
      </trkpt>
      <trkpt lat="42.25703" lon="8.8539">
        <ele>1524.31</ele>
        <time>2026-05-02T09:48:22Z</time>
      </trkpt>
      <trkpt lat="42.25702" lon="8.85388">
        <ele>1524.31</ele>
        <time>2026-05-02T09:48:43Z</time>
      </trkpt>
      <trkpt lat="42.25701" lon="8.85388">
        <ele>1525.27</ele>
        <time>2026-05-02T09:48:58Z</time>
      </trkpt>
      <trkpt lat="42.25698" lon="8.85388">
        <ele>1525.75</ele>
        <time>2026-05-02T09:49:14Z</time>
      </trkpt>
      <trkpt lat="42.25695" lon="8.85384">
        <ele>1527.67</ele>
        <time>2026-05-02T09:49:27Z</time>
      </trkpt>
      <trkpt lat="42.25691" lon="8.85382">
        <ele>1528.15</ele>
        <time>2026-05-02T09:49:44Z</time>
      </trkpt>
      <trkpt lat="42.25688" lon="8.85382">
        <ele>1530.56</ele>
        <time>2026-05-02T09:50:00Z</time>
      </trkpt>
      <trkpt lat="42.25686" lon="8.85379">
        <ele>1531.04</ele>
        <time>2026-05-02T09:50:20Z</time>
      </trkpt>
      <trkpt lat="42.25685" lon="8.85378">
        <ele>1532</ele>
        <time>2026-05-02T09:50:38Z</time>
      </trkpt>
      <trkpt lat="42.25685" lon="8.85379">
        <ele>1532</ele>
        <time>2026-05-02T09:50:40Z</time>
      </trkpt>
      <trkpt lat="42.25682" lon="8.85378">
        <ele>1532.96</ele>
        <time>2026-05-02T09:50:53Z</time>
      </trkpt>
      <trkpt lat="42.25681" lon="8.85376">
        <ele>1532.48</ele>
        <time>2026-05-02T09:51:09Z</time>
      </trkpt>
      <trkpt lat="42.2568" lon="8.85376">
        <ele>1533.92</ele>
        <time>2026-05-02T09:51:24Z</time>
      </trkpt>
      <trkpt lat="42.25677" lon="8.85374">
        <ele>1534.4</ele>
        <time>2026-05-02T09:51:34Z</time>
      </trkpt>
      <trkpt lat="42.25676" lon="8.85373">
        <ele>1536.8</ele>
        <time>2026-05-02T09:51:55Z</time>
      </trkpt>
      <trkpt lat="42.25674" lon="8.85372">
        <ele>1537.77</ele>
        <time>2026-05-02T09:52:11Z</time>
      </trkpt>
      <trkpt lat="42.25674" lon="8.85377">
        <ele>1536.32</ele>
        <time>2026-05-02T09:52:26Z</time>
      </trkpt>
      <trkpt lat="42.25674" lon="8.85378">
        <ele>1536.8</ele>
        <time>2026-05-02T09:52:46Z</time>
      </trkpt>
      <trkpt lat="42.25673" lon="8.85379">
        <ele>1537.29</ele>
        <time>2026-05-02T09:53:06Z</time>
      </trkpt>
      <trkpt lat="42.25671" lon="8.85378">
        <ele>1538.25</ele>
        <time>2026-05-02T09:53:19Z</time>
      </trkpt>
      <trkpt lat="42.25671" lon="8.85379">
        <ele>1538.73</ele>
        <time>2026-05-02T09:53:38Z</time>
      </trkpt>
      <trkpt lat="42.25668" lon="8.85379">
        <ele>1540.17</ele>
        <time>2026-05-02T09:53:52Z</time>
      </trkpt>
      <trkpt lat="42.25666" lon="8.85381">
        <ele>1541.13</ele>
        <time>2026-05-02T09:54:07Z</time>
      </trkpt>
      <trkpt lat="42.25664" lon="8.85383">
        <ele>1542.09</ele>
        <time>2026-05-02T09:54:21Z</time>
      </trkpt>
      <trkpt lat="42.2566" lon="8.85378">
        <ele>1542.09</ele>
        <time>2026-05-02T09:54:34Z</time>
      </trkpt>
      <trkpt lat="42.25654" lon="8.85375">
        <ele>1543.05</ele>
        <time>2026-05-02T09:54:46Z</time>
      </trkpt>
      <trkpt lat="42.25651" lon="8.85373">
        <ele>1544.01</ele>
        <time>2026-05-02T09:54:52Z</time>
      </trkpt>
      <trkpt lat="42.25648" lon="8.85367">
        <ele>1544.98</ele>
        <time>2026-05-02T09:55:01Z</time>
      </trkpt>
      <trkpt lat="42.25644" lon="8.85367">
        <ele>1546.42</ele>
        <time>2026-05-02T09:55:13Z</time>
      </trkpt>
      <trkpt lat="42.2564" lon="8.85368">
        <ele>1546.42</ele>
        <time>2026-05-02T09:55:33Z</time>
      </trkpt>
      <trkpt lat="42.25637" lon="8.85372">
        <ele>1547.86</ele>
        <time>2026-05-02T09:55:44Z</time>
      </trkpt>
      <trkpt lat="42.2563" lon="8.8537">
        <ele>1549.3</ele>
        <time>2026-05-02T09:55:56Z</time>
      </trkpt>
      <trkpt lat="42.25626" lon="8.85372">
        <ele>1550.74</ele>
        <time>2026-05-02T09:56:07Z</time>
      </trkpt>
      <trkpt lat="42.25623" lon="8.85373">
        <ele>1551.22</ele>
        <time>2026-05-02T09:56:23Z</time>
      </trkpt>
      <trkpt lat="42.25616" lon="8.85375">
        <ele>1551.71</ele>
        <time>2026-05-02T09:56:36Z</time>
      </trkpt>
      <trkpt lat="42.25608" lon="8.85377">
        <ele>1552.19</ele>
        <time>2026-05-02T09:56:50Z</time>
      </trkpt>
      <trkpt lat="42.25604" lon="8.85377">
        <ele>1553.63</ele>
        <time>2026-05-02T09:57:03Z</time>
      </trkpt>
      <trkpt lat="42.25602" lon="8.85374">
        <ele>1554.59</ele>
        <time>2026-05-02T09:57:25Z</time>
      </trkpt>
      <trkpt lat="42.25601" lon="8.85373">
        <ele>1554.59</ele>
        <time>2026-05-02T09:57:45Z</time>
      </trkpt>
      <trkpt lat="42.25597" lon="8.8537">
        <ele>1555.55</ele>
        <time>2026-05-02T09:57:57Z</time>
      </trkpt>
      <trkpt lat="42.25593" lon="8.85366">
        <ele>1556.99</ele>
        <time>2026-05-02T09:58:13Z</time>
      </trkpt>
      <trkpt lat="42.25589" lon="8.85365">
        <ele>1556.51</ele>
        <time>2026-05-02T09:58:27Z</time>
      </trkpt>
      <trkpt lat="42.25583" lon="8.85362">
        <ele>1556.03</ele>
        <time>2026-05-02T09:58:42Z</time>
      </trkpt>
      <trkpt lat="42.25584" lon="8.85357">
        <ele>1555.07</ele>
        <time>2026-05-02T09:59:01Z</time>
      </trkpt>
      <trkpt lat="42.25582" lon="8.85355">
        <ele>1556.51</ele>
        <time>2026-05-02T09:59:23Z</time>
      </trkpt>
      <trkpt lat="42.25584" lon="8.85357">
        <ele>1555.07</ele>
        <time>2026-05-02T09:59:44Z</time>
      </trkpt>
      <trkpt lat="42.25583" lon="8.85359">
        <ele>1553.15</ele>
        <time>2026-05-02T10:00:04Z</time>
      </trkpt>
      <trkpt lat="42.25584" lon="8.8536">
        <ele>1551.71</ele>
        <time>2026-05-02T10:00:40Z</time>
      </trkpt>
      <trkpt lat="42.25584" lon="8.85359">
        <ele>1550.74</ele>
        <time>2026-05-02T10:01:09Z</time>
      </trkpt>
      <trkpt lat="42.25584" lon="8.85361">
        <ele>1550.74</ele>
        <time>2026-05-02T10:01:29Z</time>
      </trkpt>
      <trkpt lat="42.25586" lon="8.85365">
        <ele>1549.3</ele>
        <time>2026-05-02T10:01:45Z</time>
      </trkpt>
      <trkpt lat="42.25587" lon="8.85365">
        <ele>1550.26</ele>
        <time>2026-05-02T10:01:52Z</time>
      </trkpt>
      <trkpt lat="42.25591" lon="8.85369">
        <ele>1551.22</ele>
        <time>2026-05-02T10:02:04Z</time>
      </trkpt>
      <trkpt lat="42.25591" lon="8.85365">
        <ele>1555.07</ele>
        <time>2026-05-02T10:02:36Z</time>
      </trkpt>
      <trkpt lat="42.25591" lon="8.85364">
        <ele>1554.59</ele>
        <time>2026-05-02T10:02:59Z</time>
      </trkpt>
      <trkpt lat="42.25591" lon="8.85366">
        <ele>1554.11</ele>
        <time>2026-05-02T10:03:14Z</time>
      </trkpt>
      <trkpt lat="42.2559" lon="8.85365">
        <ele>1554.59</ele>
        <time>2026-05-02T10:03:48Z</time>
      </trkpt>
      <trkpt lat="42.2559" lon="8.85366">
        <ele>1555.55</ele>
        <time>2026-05-02T10:04:08Z</time>
      </trkpt>
      <trkpt lat="42.2559" lon="8.85367">
        <ele>1556.51</ele>
        <time>2026-05-02T10:04:24Z</time>
      </trkpt>
      <trkpt lat="42.25591" lon="8.85368">
        <ele>1555.55</ele>
        <time>2026-05-02T10:04:41Z</time>
      </trkpt>
      <trkpt lat="42.25589" lon="8.85367">
        <ele>1556.03</ele>
        <time>2026-05-02T10:05:05Z</time>
      </trkpt>
      <trkpt lat="42.2559" lon="8.85368">
        <ele>1554.59</ele>
        <time>2026-05-02T10:05:25Z</time>
      </trkpt>
      <trkpt lat="42.25588" lon="8.85367">
        <ele>1555.07</ele>
        <time>2026-05-02T10:05:45Z</time>
      </trkpt>
      <trkpt lat="42.25588" lon="8.85367">
        <ele>1555.07</ele>
        <time>2026-05-02T10:05:46Z</time>
      </trkpt>
      <trkpt lat="42.25589" lon="8.85368">
        <ele>1552.67</ele>
        <time>2026-05-02T10:06:02Z</time>
      </trkpt>
      <trkpt lat="42.25589" lon="8.85366">
        <ele>1553.63</ele>
        <time>2026-05-02T10:06:20Z</time>
      </trkpt>
      <trkpt lat="42.25589" lon="8.85369">
        <ele>1554.11</ele>
        <time>2026-05-02T10:06:37Z</time>
      </trkpt>
      <trkpt lat="42.25588" lon="8.85369">
        <ele>1551.71</ele>
        <time>2026-05-02T10:06:56Z</time>
      </trkpt>
      <trkpt lat="42.25588" lon="8.8537">
        <ele>1552.67</ele>
        <time>2026-05-02T10:07:08Z</time>
      </trkpt>
      <trkpt lat="42.25588" lon="8.8537">
        <ele>1551.71</ele>
        <time>2026-05-02T10:07:32Z</time>
      </trkpt>
      <trkpt lat="42.25588" lon="8.8537">
        <ele>1550.26</ele>
        <time>2026-05-02T10:08:08Z</time>
      </trkpt>
      <trkpt lat="42.25589" lon="8.8537">
        <ele>1551.22</ele>
        <time>2026-05-02T10:08:31Z</time>
      </trkpt>
      <trkpt lat="42.25591" lon="8.8537">
        <ele>1553.15</ele>
        <time>2026-05-02T10:09:00Z</time>
      </trkpt>
      <trkpt lat="42.25591" lon="8.8537">
        <ele>1552.19</ele>
        <time>2026-05-02T10:09:19Z</time>
      </trkpt>
      <trkpt lat="42.2559" lon="8.8537">
        <ele>1550.74</ele>
        <time>2026-05-02T10:09:40Z</time>
      </trkpt>
      <trkpt lat="42.2559" lon="8.8537">
        <ele>1550.74</ele>
        <time>2026-05-02T10:10:02Z</time>
      </trkpt>
      <trkpt lat="42.25591" lon="8.85369">
        <ele>1551.71</ele>
        <time>2026-05-02T10:10:17Z</time>
      </trkpt>
      <trkpt lat="42.25589" lon="8.85366">
        <ele>1554.11</ele>
        <time>2026-05-02T10:10:37Z</time>
      </trkpt>
      <trkpt lat="42.25589" lon="8.85364">
        <ele>1556.51</ele>
        <time>2026-05-02T10:11:02Z</time>
      </trkpt>
      <trkpt lat="42.25589" lon="8.85364">
        <ele>1555.55</ele>
        <time>2026-05-02T10:11:28Z</time>
      </trkpt>
      <trkpt lat="42.25587" lon="8.85365">
        <ele>1556.99</ele>
        <time>2026-05-02T10:11:42Z</time>
      </trkpt>
      <trkpt lat="42.25588" lon="8.85371">
        <ele>1556.99</ele>
        <time>2026-05-02T10:11:58Z</time>
      </trkpt>
      <trkpt lat="42.2558" lon="8.85371">
        <ele>1556.03</ele>
        <time>2026-05-02T10:12:17Z</time>
      </trkpt>
      <trkpt lat="42.25576" lon="8.85372">
        <ele>1555.07</ele>
        <time>2026-05-02T10:12:34Z</time>
      </trkpt>
      <trkpt lat="42.25573" lon="8.85371">
        <ele>1556.03</ele>
        <time>2026-05-02T10:12:57Z</time>
      </trkpt>
      <trkpt lat="42.25573" lon="8.85369">
        <ele>1558.43</ele>
        <time>2026-05-02T10:13:20Z</time>
      </trkpt>
      <trkpt lat="42.25576" lon="8.85373">
        <ele>1555.07</ele>
        <time>2026-05-02T10:13:39Z</time>
      </trkpt>
      <trkpt lat="42.25576" lon="8.85374">
        <ele>1552.19</ele>
        <time>2026-05-02T10:14:06Z</time>
      </trkpt>
      <trkpt lat="42.25579" lon="8.8537">
        <ele>1552.19</ele>
        <time>2026-05-02T10:14:30Z</time>
      </trkpt>
      <trkpt lat="42.2558" lon="8.85363">
        <ele>1552.67</ele>
        <time>2026-05-02T10:14:42Z</time>
      </trkpt>
      <trkpt lat="42.2558" lon="8.85362">
        <ele>1553.15</ele>
        <time>2026-05-02T10:15:04Z</time>
      </trkpt>
      <trkpt lat="42.25583" lon="8.85363">
        <ele>1554.11</ele>
        <time>2026-05-02T10:15:34Z</time>
      </trkpt>
      <trkpt lat="42.25588" lon="8.85365">
        <ele>1554.11</ele>
        <time>2026-05-02T10:15:44Z</time>
      </trkpt>
      <trkpt lat="42.2559" lon="8.85367">
        <ele>1553.15</ele>
        <time>2026-05-02T10:15:55Z</time>
      </trkpt>
      <trkpt lat="42.25588" lon="8.85371">
        <ele>1554.11</ele>
        <time>2026-05-02T10:16:09Z</time>
      </trkpt>
      <trkpt lat="42.2559" lon="8.85372">
        <ele>1555.07</ele>
        <time>2026-05-02T10:16:25Z</time>
      </trkpt>
      <trkpt lat="42.25588" lon="8.85371">
        <ele>1555.07</ele>
        <time>2026-05-02T10:16:50Z</time>
      </trkpt>
      <trkpt lat="42.25589" lon="8.85371">
        <ele>1556.51</ele>
        <time>2026-05-02T10:17:13Z</time>
      </trkpt>
      <trkpt lat="42.2559" lon="8.85371">
        <ele>1556.99</ele>
        <time>2026-05-02T10:17:33Z</time>
      </trkpt>
      <trkpt lat="42.25589" lon="8.85371">
        <ele>1557.47</ele>
        <time>2026-05-02T10:18:06Z</time>
      </trkpt>
      <trkpt lat="42.25589" lon="8.85371">
        <ele>1556.51</ele>
        <time>2026-05-02T10:18:39Z</time>
      </trkpt>
      <trkpt lat="42.25589" lon="8.85371">
        <ele>1556.51</ele>
        <time>2026-05-02T10:19:16Z</time>
      </trkpt>
      <trkpt lat="42.25589" lon="8.85371">
        <ele>1557.95</ele>
        <time>2026-05-02T10:19:53Z</time>
      </trkpt>
      <trkpt lat="42.2559" lon="8.85371">
        <ele>1558.92</ele>
        <time>2026-05-02T10:20:21Z</time>
      </trkpt>
      <trkpt lat="42.2559" lon="8.85371">
        <ele>1558.43</ele>
        <time>2026-05-02T10:20:58Z</time>
      </trkpt>
      <trkpt lat="42.2559" lon="8.8537">
        <ele>1559.4</ele>
        <time>2026-05-02T10:21:31Z</time>
      </trkpt>
      <trkpt lat="42.25589" lon="8.85371">
        <ele>1558.92</ele>
        <time>2026-05-02T10:21:52Z</time>
      </trkpt>
      <trkpt lat="42.25589" lon="8.85371">
        <ele>1557.95</ele>
        <time>2026-05-02T10:22:27Z</time>
      </trkpt>
      <trkpt lat="42.2559" lon="8.85371">
        <ele>1557.47</ele>
        <time>2026-05-02T10:22:55Z</time>
      </trkpt>
      <trkpt lat="42.25589" lon="8.85372">
        <ele>1556.99</ele>
        <time>2026-05-02T10:23:31Z</time>
      </trkpt>
      <trkpt lat="42.25589" lon="8.85371">
        <ele>1557.47</ele>
        <time>2026-05-02T10:24:03Z</time>
      </trkpt>
      <trkpt lat="42.25589" lon="8.85372">
        <ele>1556.99</ele>
        <time>2026-05-02T10:24:32Z</time>
      </trkpt>
      <trkpt lat="42.25589" lon="8.85371">
        <ele>1557.47</ele>
        <time>2026-05-02T10:25:05Z</time>
      </trkpt>
      <trkpt lat="42.2559" lon="8.85372">
        <ele>1556.99</ele>
        <time>2026-05-02T10:25:29Z</time>
      </trkpt>
      <trkpt lat="42.2559" lon="8.85371">
        <ele>1557.95</ele>
        <time>2026-05-02T10:26:02Z</time>
      </trkpt>
      <trkpt lat="42.25589" lon="8.85371">
        <ele>1557.47</ele>
        <time>2026-05-02T10:26:32Z</time>
      </trkpt>
      <trkpt lat="42.2559" lon="8.85372">
        <ele>1557.47</ele>
        <time>2026-05-02T10:27:03Z</time>
      </trkpt>
      <trkpt lat="42.25589" lon="8.85371">
        <ele>1557.95</ele>
        <time>2026-05-02T10:27:32Z</time>
      </trkpt>
      <trkpt lat="42.25589" lon="8.85371">
        <ele>1558.43</ele>
        <time>2026-05-02T10:28:03Z</time>
      </trkpt>
      <trkpt lat="42.25589" lon="8.85371">
        <ele>1557.47</ele>
        <time>2026-05-02T10:28:30Z</time>
      </trkpt>
      <trkpt lat="42.25589" lon="8.85371">
        <ele>1557.95</ele>
        <time>2026-05-02T10:28:59Z</time>
      </trkpt>
      <trkpt lat="42.25589" lon="8.85371">
        <ele>1556.99</ele>
        <time>2026-05-02T10:29:37Z</time>
      </trkpt>
      <trkpt lat="42.25589" lon="8.85371">
        <ele>1557.47</ele>
        <time>2026-05-02T10:30:07Z</time>
      </trkpt>
      <trkpt lat="42.25589" lon="8.85372">
        <ele>1556.99</ele>
        <time>2026-05-02T10:30:47Z</time>
      </trkpt>
      <trkpt lat="42.25589" lon="8.85371">
        <ele>1557.95</ele>
        <time>2026-05-02T10:31:22Z</time>
      </trkpt>
      <trkpt lat="42.25589" lon="8.85371">
        <ele>1557.95</ele>
        <time>2026-05-02T10:31:55Z</time>
      </trkpt>
      <trkpt lat="42.25589" lon="8.85372">
        <ele>1557.47</ele>
        <time>2026-05-02T10:32:22Z</time>
      </trkpt>
      <trkpt lat="42.25589" lon="8.85372">
        <ele>1556.99</ele>
        <time>2026-05-02T10:32:52Z</time>
      </trkpt>
      <trkpt lat="42.25589" lon="8.85372">
        <ele>1556.99</ele>
        <time>2026-05-02T10:33:32Z</time>
      </trkpt>
      <trkpt lat="42.25589" lon="8.85372">
        <ele>1556.99</ele>
        <time>2026-05-02T10:34:06Z</time>
      </trkpt>
      <trkpt lat="42.25589" lon="8.85372">
        <ele>1557.47</ele>
        <time>2026-05-02T10:34:35Z</time>
      </trkpt>
      <trkpt lat="42.25589" lon="8.85372">
        <ele>1556.99</ele>
        <time>2026-05-02T10:35:12Z</time>
      </trkpt>
      <trkpt lat="42.25589" lon="8.85372">
        <ele>1556.99</ele>
        <time>2026-05-02T10:35:37Z</time>
      </trkpt>
      <trkpt lat="42.25589" lon="8.85372">
        <ele>1557.95</ele>
        <time>2026-05-02T10:36:02Z</time>
      </trkpt>
      <trkpt lat="42.25589" lon="8.85372">
        <ele>1557.47</ele>
        <time>2026-05-02T10:36:28Z</time>
      </trkpt>
      <trkpt lat="42.25589" lon="8.85371">
        <ele>1557.95</ele>
        <time>2026-05-02T10:37:03Z</time>
      </trkpt>
      <trkpt lat="42.25589" lon="8.85371">
        <ele>1557.95</ele>
        <time>2026-05-02T10:37:29Z</time>
      </trkpt>
      <trkpt lat="42.25589" lon="8.85371">
        <ele>1557.47</ele>
        <time>2026-05-02T10:38:03Z</time>
      </trkpt>
      <trkpt lat="42.25589" lon="8.85372">
        <ele>1557.47</ele>
        <time>2026-05-02T10:38:37Z</time>
      </trkpt>
      <trkpt lat="42.25589" lon="8.85371">
        <ele>1558.43</ele>
        <time>2026-05-02T10:39:10Z</time>
      </trkpt>
      <trkpt lat="42.25589" lon="8.85372">
        <ele>1557.95</ele>
        <time>2026-05-02T10:39:37Z</time>
      </trkpt>
      <trkpt lat="42.25589" lon="8.85372">
        <ele>1557.95</ele>
        <time>2026-05-02T10:40:02Z</time>
      </trkpt>
      <trkpt lat="42.25589" lon="8.85372">
        <ele>1556.99</ele>
        <time>2026-05-02T10:40:33Z</time>
      </trkpt>
      <trkpt lat="42.25589" lon="8.85372">
        <ele>1557.95</ele>
        <time>2026-05-02T10:41:07Z</time>
      </trkpt>
      <trkpt lat="42.25589" lon="8.85372">
        <ele>1556.99</ele>
        <time>2026-05-02T10:41:43Z</time>
      </trkpt>
      <trkpt lat="42.25589" lon="8.85372">
        <ele>1556.99</ele>
        <time>2026-05-02T10:42:10Z</time>
      </trkpt>
      <trkpt lat="42.25589" lon="8.85372">
        <ele>1556.99</ele>
        <time>2026-05-02T10:42:35Z</time>
      </trkpt>
      <trkpt lat="42.25589" lon="8.85371">
        <ele>1557.95</ele>
        <time>2026-05-02T10:43:04Z</time>
      </trkpt>
      <trkpt lat="42.25589" lon="8.85372">
        <ele>1557.47</ele>
        <time>2026-05-02T10:43:31Z</time>
      </trkpt>
      <trkpt lat="42.25589" lon="8.85372">
        <ele>1556.99</ele>
        <time>2026-05-02T10:43:58Z</time>
      </trkpt>
      <trkpt lat="42.25589" lon="8.85372">
        <ele>1556.99</ele>
        <time>2026-05-02T10:44:24Z</time>
      </trkpt>
      <trkpt lat="42.25589" lon="8.85372">
        <ele>1556.99</ele>
        <time>2026-05-02T10:44:54Z</time>
      </trkpt>
      <trkpt lat="42.25589" lon="8.85371">
        <ele>1557.95</ele>
        <time>2026-05-02T10:45:25Z</time>
      </trkpt>
      <trkpt lat="42.25589" lon="8.85371">
        <ele>1557.95</ele>
        <time>2026-05-02T10:45:53Z</time>
      </trkpt>
      <trkpt lat="42.2559" lon="8.85371">
        <ele>1556.99</ele>
        <time>2026-05-02T10:46:15Z</time>
      </trkpt>
      <trkpt lat="42.25589" lon="8.85371">
        <ele>1557.47</ele>
        <time>2026-05-02T10:46:39Z</time>
      </trkpt>
      <trkpt lat="42.25589" lon="8.85371">
        <ele>1557.95</ele>
        <time>2026-05-02T10:47:09Z</time>
      </trkpt>
      <trkpt lat="42.25589" lon="8.85372">
        <ele>1556.99</ele>
        <time>2026-05-02T10:47:33Z</time>
      </trkpt>
      <trkpt lat="42.25589" lon="8.85372">
        <ele>1556.51</ele>
        <time>2026-05-02T10:47:58Z</time>
      </trkpt>
      <trkpt lat="42.2559" lon="8.85372">
        <ele>1556.51</ele>
        <time>2026-05-02T10:48:30Z</time>
      </trkpt>
      <trkpt lat="42.25589" lon="8.85372">
        <ele>1556.51</ele>
        <time>2026-05-02T10:49:04Z</time>
      </trkpt>
      <trkpt lat="42.25589" lon="8.85372">
        <ele>1556.51</ele>
        <time>2026-05-02T10:49:32Z</time>
      </trkpt>
      <trkpt lat="42.25589" lon="8.85372">
        <ele>1555.55</ele>
        <time>2026-05-02T10:49:58Z</time>
      </trkpt>
      <trkpt lat="42.25589" lon="8.85372">
        <ele>1555.55</ele>
        <time>2026-05-02T10:50:29Z</time>
      </trkpt>
      <trkpt lat="42.25589" lon="8.85372">
        <ele>1555.55</ele>
        <time>2026-05-02T10:50:57Z</time>
      </trkpt>
      <trkpt lat="42.25589" lon="8.85372">
        <ele>1556.03</ele>
        <time>2026-05-02T10:51:28Z</time>
      </trkpt>
      <trkpt lat="42.25589" lon="8.85372">
        <ele>1556.51</ele>
        <time>2026-05-02T10:51:57Z</time>
      </trkpt>
      <trkpt lat="42.25589" lon="8.85372">
        <ele>1556.99</ele>
        <time>2026-05-02T10:52:32Z</time>
      </trkpt>
      <trkpt lat="42.25589" lon="8.85372">
        <ele>1556.03</ele>
        <time>2026-05-02T10:53:04Z</time>
      </trkpt>
      <trkpt lat="42.25589" lon="8.85372">
        <ele>1556.51</ele>
        <time>2026-05-02T10:53:35Z</time>
      </trkpt>
      <trkpt lat="42.25589" lon="8.85372">
        <ele>1556.99</ele>
        <time>2026-05-02T10:54:04Z</time>
      </trkpt>
      <trkpt lat="42.25589" lon="8.85372">
        <ele>1556.51</ele>
        <time>2026-05-02T10:54:35Z</time>
      </trkpt>
      <trkpt lat="42.25589" lon="8.85372">
        <ele>1557.47</ele>
        <time>2026-05-02T10:55:00Z</time>
      </trkpt>
      <trkpt lat="42.25589" lon="8.85371">
        <ele>1557.47</ele>
        <time>2026-05-02T10:55:22Z</time>
      </trkpt>
      <trkpt lat="42.25589" lon="8.85372">
        <ele>1556.99</ele>
        <time>2026-05-02T10:55:48Z</time>
      </trkpt>
      <trkpt lat="42.25588" lon="8.85373">
        <ele>1556.99</ele>
        <time>2026-05-02T10:56:15Z</time>
      </trkpt>
      <trkpt lat="42.25589" lon="8.85372">
        <ele>1555.07</ele>
        <time>2026-05-02T10:56:38Z</time>
      </trkpt>
      <trkpt lat="42.25588" lon="8.85367">
        <ele>1555.55</ele>
        <time>2026-05-02T10:56:52Z</time>
      </trkpt>
      <trkpt lat="42.25588" lon="8.85366">
        <ele>1555.55</ele>
        <time>2026-05-02T10:56:53Z</time>
      </trkpt>
      <trkpt lat="42.25588" lon="8.85364">
        <ele>1555.07</ele>
        <time>2026-05-02T10:57:08Z</time>
      </trkpt>
      <trkpt lat="42.25589" lon="8.85364">
        <ele>1554.59</ele>
        <time>2026-05-02T10:57:37Z</time>
      </trkpt>
      <trkpt lat="42.25589" lon="8.85365">
        <ele>1554.59</ele>
        <time>2026-05-02T10:58:04Z</time>
      </trkpt>
      <trkpt lat="42.25589" lon="8.85367">
        <ele>1555.55</ele>
        <time>2026-05-02T10:58:24Z</time>
      </trkpt>
      <trkpt lat="42.25589" lon="8.85367">
        <ele>1556.51</ele>
        <time>2026-05-02T10:58:47Z</time>
      </trkpt>
      <trkpt lat="42.25589" lon="8.85366">
        <ele>1556.51</ele>
        <time>2026-05-02T10:59:10Z</time>
      </trkpt>
      <trkpt lat="42.25589" lon="8.85367">
        <ele>1556.03</ele>
        <time>2026-05-02T10:59:37Z</time>
      </trkpt>
      <trkpt lat="42.25589" lon="8.85367">
        <ele>1556.99</ele>
        <time>2026-05-02T11:00:01Z</time>
      </trkpt>
      <trkpt lat="42.2559" lon="8.85367">
        <ele>1556.99</ele>
        <time>2026-05-02T11:00:17Z</time>
      </trkpt>
      <trkpt lat="42.25591" lon="8.85367">
        <ele>1558.43</ele>
        <time>2026-05-02T11:00:50Z</time>
      </trkpt>
      <trkpt lat="42.25591" lon="8.85363">
        <ele>1557.47</ele>
        <time>2026-05-02T11:01:16Z</time>
      </trkpt>
      <trkpt lat="42.2559" lon="8.85355">
        <ele>1556.51</ele>
        <time>2026-05-02T11:01:26Z</time>
      </trkpt>
      <trkpt lat="42.25591" lon="8.85353">
        <ele>1556.03</ele>
        <time>2026-05-02T11:01:33Z</time>
      </trkpt>
      <trkpt lat="42.25593" lon="8.85347">
        <ele>1555.55</ele>
        <time>2026-05-02T11:01:46Z</time>
      </trkpt>
      <trkpt lat="42.25594" lon="8.85342">
        <ele>1554.11</ele>
        <time>2026-05-02T11:02:01Z</time>
      </trkpt>
      <trkpt lat="42.25591" lon="8.8534">
        <ele>1553.63</ele>
        <time>2026-05-02T11:02:30Z</time>
      </trkpt>
      <trkpt lat="42.25591" lon="8.8534">
        <ele>1553.15</ele>
        <time>2026-05-02T11:03:01Z</time>
      </trkpt>
      <trkpt lat="42.25591" lon="8.85341">
        <ele>1552.19</ele>
        <time>2026-05-02T11:03:17Z</time>
      </trkpt>
      <trkpt lat="42.2559" lon="8.8535">
        <ele>1555.07</ele>
        <time>2026-05-02T11:03:30Z</time>
      </trkpt>
      <trkpt lat="42.25588" lon="8.8536">
        <ele>1555.55</ele>
        <time>2026-05-02T11:03:44Z</time>
      </trkpt>
      <trkpt lat="42.25589" lon="8.85368">
        <ele>1556.51</ele>
        <time>2026-05-02T11:03:55Z</time>
      </trkpt>
      <trkpt lat="42.2559" lon="8.85367">
        <ele>1557.47</ele>
        <time>2026-05-02T11:04:12Z</time>
      </trkpt>
      <trkpt lat="42.25591" lon="8.85367">
        <ele>1557.95</ele>
        <time>2026-05-02T11:04:44Z</time>
      </trkpt>
      <trkpt lat="42.2559" lon="8.85366">
        <ele>1557.47</ele>
        <time>2026-05-02T11:05:03Z</time>
      </trkpt>
      <trkpt lat="42.25589" lon="8.85367">
        <ele>1555.55</ele>
        <time>2026-05-02T11:05:30Z</time>
      </trkpt>
      <trkpt lat="42.25589" lon="8.85367">
        <ele>1555.55</ele>
        <time>2026-05-02T11:06:00Z</time>
      </trkpt>
      <trkpt lat="42.25588" lon="8.85371">
        <ele>1556.51</ele>
        <time>2026-05-02T11:06:17Z</time>
      </trkpt>
      <trkpt lat="42.25589" lon="8.85373">
        <ele>1556.51</ele>
        <time>2026-05-02T11:06:29Z</time>
      </trkpt>
      <trkpt lat="42.25589" lon="8.85371">
        <ele>1555.55</ele>
        <time>2026-05-02T11:06:51Z</time>
      </trkpt>
      <trkpt lat="42.2559" lon="8.85371">
        <ele>1556.03</ele>
        <time>2026-05-02T11:07:08Z</time>
      </trkpt>
      <trkpt lat="42.25589" lon="8.85373">
        <ele>1556.99</ele>
        <time>2026-05-02T11:07:32Z</time>
      </trkpt>
      <trkpt lat="42.25589" lon="8.85372">
        <ele>1556.99</ele>
        <time>2026-05-02T11:07:55Z</time>
      </trkpt>
      <trkpt lat="42.25589" lon="8.85373">
        <ele>1556.03</ele>
        <time>2026-05-02T11:08:19Z</time>
      </trkpt>
      <trkpt lat="42.25589" lon="8.85372">
        <ele>1556.03</ele>
        <time>2026-05-02T11:08:38Z</time>
      </trkpt>
      <trkpt lat="42.25589" lon="8.85373">
        <ele>1556.51</ele>
        <time>2026-05-02T11:08:52Z</time>
      </trkpt>
      <trkpt lat="42.25588" lon="8.85372">
        <ele>1556.03</ele>
        <time>2026-05-02T11:09:14Z</time>
      </trkpt>
      <trkpt lat="42.25588" lon="8.85373">
        <ele>1556.03</ele>
        <time>2026-05-02T11:09:55Z</time>
      </trkpt>
      <trkpt lat="42.25589" lon="8.85371">
        <ele>1555.55</ele>
        <time>2026-05-02T11:10:22Z</time>
      </trkpt>
      <trkpt lat="42.25591" lon="8.85369">
        <ele>1555.07</ele>
        <time>2026-05-02T11:10:34Z</time>
      </trkpt>
      <trkpt lat="42.25592" lon="8.85369">
        <ele>1555.55</ele>
        <time>2026-05-02T11:10:38Z</time>
      </trkpt>
      <trkpt lat="42.25595" lon="8.85369">
        <ele>1555.07</ele>
        <time>2026-05-02T11:10:50Z</time>
      </trkpt>
      <trkpt lat="42.25601" lon="8.85372">
        <ele>1555.07</ele>
        <time>2026-05-02T11:11:01Z</time>
      </trkpt>
      <trkpt lat="42.25605" lon="8.85379">
        <ele>1554.59</ele>
        <time>2026-05-02T11:11:11Z</time>
      </trkpt>
      <trkpt lat="42.25611" lon="8.85384">
        <ele>1554.11</ele>
        <time>2026-05-02T11:11:22Z</time>
      </trkpt>
      <trkpt lat="42.25617" lon="8.8539">
        <ele>1553.15</ele>
        <time>2026-05-02T11:11:34Z</time>
      </trkpt>
      <trkpt lat="42.25623" lon="8.85394">
        <ele>1552.67</ele>
        <time>2026-05-02T11:11:47Z</time>
      </trkpt>
      <trkpt lat="42.25629" lon="8.85389">
        <ele>1552.19</ele>
        <time>2026-05-02T11:11:59Z</time>
      </trkpt>
      <trkpt lat="42.25633" lon="8.85383">
        <ele>1551.71</ele>
        <time>2026-05-02T11:12:13Z</time>
      </trkpt>
      <trkpt lat="42.25638" lon="8.85378">
        <ele>1551.22</ele>
        <time>2026-05-02T11:12:28Z</time>
      </trkpt>
      <trkpt lat="42.25643" lon="8.85375">
        <ele>1549.3</ele>
        <time>2026-05-02T11:12:42Z</time>
      </trkpt>
      <trkpt lat="42.25647" lon="8.85373">
        <ele>1548.34</ele>
        <time>2026-05-02T11:12:53Z</time>
      </trkpt>
      <trkpt lat="42.25651" lon="8.85373">
        <ele>1544.98</ele>
        <time>2026-05-02T11:13:08Z</time>
      </trkpt>
      <trkpt lat="42.25653" lon="8.85373">
        <ele>1544.01</ele>
        <time>2026-05-02T11:13:19Z</time>
      </trkpt>
      <trkpt lat="42.2566" lon="8.85377">
        <ele>1543.53</ele>
        <time>2026-05-02T11:13:32Z</time>
      </trkpt>
      <trkpt lat="42.25663" lon="8.85381">
        <ele>1543.05</ele>
        <time>2026-05-02T11:13:47Z</time>
      </trkpt>
      <trkpt lat="42.25666" lon="8.85385">
        <ele>1542.57</ele>
        <time>2026-05-02T11:13:59Z</time>
      </trkpt>
      <trkpt lat="42.2567" lon="8.85385">
        <ele>1541.13</ele>
        <time>2026-05-02T11:14:11Z</time>
      </trkpt>
      <trkpt lat="42.25671" lon="8.85387">
        <ele>1541.13</ele>
        <time>2026-05-02T11:14:21Z</time>
      </trkpt>
      <trkpt lat="42.25675" lon="8.85396">
        <ele>1539.69</ele>
        <time>2026-05-02T11:14:34Z</time>
      </trkpt>
      <trkpt lat="42.25676" lon="8.85396">
        <ele>1538.25</ele>
        <time>2026-05-02T11:14:46Z</time>
      </trkpt>
      <trkpt lat="42.25679" lon="8.85397">
        <ele>1537.29</ele>
        <time>2026-05-02T11:14:59Z</time>
      </trkpt>
      <trkpt lat="42.25682" lon="8.85398">
        <ele>1535.84</ele>
        <time>2026-05-02T11:15:12Z</time>
      </trkpt>
      <trkpt lat="42.25684" lon="8.854">
        <ele>1533.92</ele>
        <time>2026-05-02T11:15:25Z</time>
      </trkpt>
      <trkpt lat="42.25685" lon="8.85401">
        <ele>1532.96</ele>
        <time>2026-05-02T11:15:41Z</time>
      </trkpt>
      <trkpt lat="42.2569" lon="8.85397">
        <ele>1532.96</ele>
        <time>2026-05-02T11:15:55Z</time>
      </trkpt>
      <trkpt lat="42.2569" lon="8.85398">
        <ele>1531.52</ele>
        <time>2026-05-02T11:16:19Z</time>
      </trkpt>
      <trkpt lat="42.25693" lon="8.85396">
        <ele>1531.52</ele>
        <time>2026-05-02T11:16:39Z</time>
      </trkpt>
      <trkpt lat="42.25693" lon="8.85399">
        <ele>1531.04</ele>
        <time>2026-05-02T11:16:52Z</time>
      </trkpt>
      <trkpt lat="42.25696" lon="8.85405">
        <ele>1530.56</ele>
        <time>2026-05-02T11:17:04Z</time>
      </trkpt>
      <trkpt lat="42.25698" lon="8.85411">
        <ele>1530.08</ele>
        <time>2026-05-02T11:17:14Z</time>
      </trkpt>
      <trkpt lat="42.257" lon="8.85416">
        <ele>1528.15</ele>
        <time>2026-05-02T11:17:27Z</time>
      </trkpt>
      <trkpt lat="42.25704" lon="8.85419">
        <ele>1527.19</ele>
        <time>2026-05-02T11:17:42Z</time>
      </trkpt>
      <trkpt lat="42.25706" lon="8.85422">
        <ele>1526.71</ele>
        <time>2026-05-02T11:17:54Z</time>
      </trkpt>
      <trkpt lat="42.25709" lon="8.85421">
        <ele>1525.27</ele>
        <time>2026-05-02T11:18:05Z</time>
      </trkpt>
      <trkpt lat="42.25711" lon="8.85422">
        <ele>1523.83</ele>
        <time>2026-05-02T11:18:19Z</time>
      </trkpt>
      <trkpt lat="42.25713" lon="8.85429">
        <ele>1522.39</ele>
        <time>2026-05-02T11:18:29Z</time>
      </trkpt>
      <trkpt lat="42.25716" lon="8.85434">
        <ele>1521.42</ele>
        <time>2026-05-02T11:18:41Z</time>
      </trkpt>
      <trkpt lat="42.25719" lon="8.85438">
        <ele>1519.98</ele>
        <time>2026-05-02T11:18:54Z</time>
      </trkpt>
      <trkpt lat="42.2572" lon="8.85436">
        <ele>1519.5</ele>
        <time>2026-05-02T11:19:08Z</time>
      </trkpt>
      <trkpt lat="42.2572" lon="8.85439">
        <ele>1519.98</ele>
        <time>2026-05-02T11:19:29Z</time>
      </trkpt>
      <trkpt lat="42.25723" lon="8.85444">
        <ele>1519.5</ele>
        <time>2026-05-02T11:19:42Z</time>
      </trkpt>
      <trkpt lat="42.25724" lon="8.8545">
        <ele>1518.06</ele>
        <time>2026-05-02T11:19:54Z</time>
      </trkpt>
      <trkpt lat="42.25724" lon="8.85451">
        <ele>1518.06</ele>
        <time>2026-05-02T11:19:56Z</time>
      </trkpt>
      <trkpt lat="42.25728" lon="8.85455">
        <ele>1516.62</ele>
        <time>2026-05-02T11:20:10Z</time>
      </trkpt>
      <trkpt lat="42.25729" lon="8.8546">
        <ele>1514.69</ele>
        <time>2026-05-02T11:20:22Z</time>
      </trkpt>
      <trkpt lat="42.25731" lon="8.85466">
        <ele>1513.25</ele>
        <time>2026-05-02T11:20:36Z</time>
      </trkpt>
      <trkpt lat="42.25733" lon="8.85471">
        <ele>1512.77</ele>
        <time>2026-05-02T11:20:48Z</time>
      </trkpt>
      <trkpt lat="42.25736" lon="8.85472">
        <ele>1510.85</ele>
        <time>2026-05-02T11:21:02Z</time>
      </trkpt>
      <trkpt lat="42.25742" lon="8.85469">
        <ele>1509.89</ele>
        <time>2026-05-02T11:21:16Z</time>
      </trkpt>
      <trkpt lat="42.25746" lon="8.8547">
        <ele>1508.93</ele>
        <time>2026-05-02T11:21:26Z</time>
      </trkpt>
      <trkpt lat="42.25749" lon="8.85473">
        <ele>1507.48</ele>
        <time>2026-05-02T11:21:39Z</time>
      </trkpt>
      <trkpt lat="42.25752" lon="8.85478">
        <ele>1505.56</ele>
        <time>2026-05-02T11:21:53Z</time>
      </trkpt>
      <trkpt lat="42.25756" lon="8.85479">
        <ele>1505.08</ele>
        <time>2026-05-02T11:22:03Z</time>
      </trkpt>
      <trkpt lat="42.25762" lon="8.85483">
        <ele>1503.64</ele>
        <time>2026-05-02T11:22:17Z</time>
      </trkpt>
      <trkpt lat="42.25765" lon="8.85488">
        <ele>1504.12</ele>
        <time>2026-05-02T11:22:31Z</time>
      </trkpt>
      <trkpt lat="42.25766" lon="8.8549">
        <ele>1503.64</ele>
        <time>2026-05-02T11:22:33Z</time>
      </trkpt>
      <trkpt lat="42.25769" lon="8.85497">
        <ele>1503.16</ele>
        <time>2026-05-02T11:22:46Z</time>
      </trkpt>
      <trkpt lat="42.25768" lon="8.85503">
        <ele>1500.27</ele>
        <time>2026-05-02T11:23:01Z</time>
      </trkpt>
      <trkpt lat="42.2577" lon="8.85508">
        <ele>1500.27</ele>
        <time>2026-05-02T11:23:16Z</time>
      </trkpt>
      <trkpt lat="42.2577" lon="8.85514">
        <ele>1497.87</ele>
        <time>2026-05-02T11:23:29Z</time>
      </trkpt>
      <trkpt lat="42.25773" lon="8.8552">
        <ele>1495.47</ele>
        <time>2026-05-02T11:23:42Z</time>
      </trkpt>
      <trkpt lat="42.25771" lon="8.85522">
        <ele>1494.03</ele>
        <time>2026-05-02T11:23:59Z</time>
      </trkpt>
      <trkpt lat="42.25768" lon="8.85526">
        <ele>1492.58</ele>
        <time>2026-05-02T11:24:10Z</time>
      </trkpt>
      <trkpt lat="42.25767" lon="8.85531">
        <ele>1490.18</ele>
        <time>2026-05-02T11:24:24Z</time>
      </trkpt>
      <trkpt lat="42.25766" lon="8.85533">
        <ele>1489.7</ele>
        <time>2026-05-02T11:24:40Z</time>
      </trkpt>
      <trkpt lat="42.25767" lon="8.85538">
        <ele>1488.74</ele>
        <time>2026-05-02T11:24:52Z</time>
      </trkpt>
      <trkpt lat="42.25771" lon="8.85541">
        <ele>1487.3</ele>
        <time>2026-05-02T11:25:07Z</time>
      </trkpt>
      <trkpt lat="42.25773" lon="8.85545">
        <ele>1486.82</ele>
        <time>2026-05-02T11:25:28Z</time>
      </trkpt>
      <trkpt lat="42.25775" lon="8.85548">
        <ele>1486.82</ele>
        <time>2026-05-02T11:25:33Z</time>
      </trkpt>
      <trkpt lat="42.2578" lon="8.85549">
        <ele>1484.89</ele>
        <time>2026-05-02T11:25:46Z</time>
      </trkpt>
      <trkpt lat="42.25781" lon="8.85549">
        <ele>1487.78</ele>
        <time>2026-05-02T11:26:21Z</time>
      </trkpt>
      <trkpt lat="42.25785" lon="8.8555">
        <ele>1484.89</ele>
        <time>2026-05-02T11:26:38Z</time>
      </trkpt>
      <trkpt lat="42.25789" lon="8.85548">
        <ele>1482.97</ele>
        <time>2026-05-02T11:26:58Z</time>
      </trkpt>
      <trkpt lat="42.25797" lon="8.85547">
        <ele>1482.49</ele>
        <time>2026-05-02T11:27:11Z</time>
      </trkpt>
      <trkpt lat="42.25802" lon="8.85546">
        <ele>1481.53</ele>
        <time>2026-05-02T11:27:22Z</time>
      </trkpt>
      <trkpt lat="42.25809" lon="8.85543">
        <ele>1481.05</ele>
        <time>2026-05-02T11:27:33Z</time>
      </trkpt>
      <trkpt lat="42.25809" lon="8.85543">
        <ele>1481.05</ele>
        <time>2026-05-02T11:28:01Z</time>
      </trkpt>
      <trkpt lat="42.25817" lon="8.85537">
        <ele>1480.09</ele>
        <time>2026-05-02T11:28:14Z</time>
      </trkpt>
      <trkpt lat="42.25826" lon="8.85529">
        <ele>1479.13</ele>
        <time>2026-05-02T11:28:27Z</time>
      </trkpt>
      <trkpt lat="42.25833" lon="8.85522">
        <ele>1477.2</ele>
        <time>2026-05-02T11:28:42Z</time>
      </trkpt>
      <trkpt lat="42.25839" lon="8.85513">
        <ele>1475.76</ele>
        <time>2026-05-02T11:28:54Z</time>
      </trkpt>
      <trkpt lat="42.25844" lon="8.85507">
        <ele>1474.8</ele>
        <time>2026-05-02T11:29:05Z</time>
      </trkpt>
      <trkpt lat="42.25848" lon="8.85499">
        <ele>1473.84</ele>
        <time>2026-05-02T11:29:17Z</time>
      </trkpt>
      <trkpt lat="42.25853" lon="8.85487">
        <ele>1473.36</ele>
        <time>2026-05-02T11:29:30Z</time>
      </trkpt>
      <trkpt lat="42.25857" lon="8.85478">
        <ele>1472.4</ele>
        <time>2026-05-02T11:29:40Z</time>
      </trkpt>
      <trkpt lat="42.25857" lon="8.85468">
        <ele>1471.44</ele>
        <time>2026-05-02T11:29:52Z</time>
      </trkpt>
      <trkpt lat="42.25856" lon="8.8546">
        <ele>1468.55</ele>
        <time>2026-05-02T11:30:03Z</time>
      </trkpt>
      <trkpt lat="42.25856" lon="8.8545">
        <ele>1467.11</ele>
        <time>2026-05-02T11:30:15Z</time>
      </trkpt>
      <trkpt lat="42.25858" lon="8.85453">
        <ele>1468.07</ele>
        <time>2026-05-02T11:30:28Z</time>
      </trkpt>
      <trkpt lat="42.2586" lon="8.85461">
        <ele>1468.07</ele>
        <time>2026-05-02T11:30:39Z</time>
      </trkpt>
      <trkpt lat="42.25863" lon="8.85469">
        <ele>1466.63</ele>
        <time>2026-05-02T11:30:52Z</time>
      </trkpt>
      <trkpt lat="42.25863" lon="8.85477">
        <ele>1466.63</ele>
        <time>2026-05-02T11:31:03Z</time>
      </trkpt>
      <trkpt lat="42.25864" lon="8.85487">
        <ele>1466.15</ele>
        <time>2026-05-02T11:31:17Z</time>
      </trkpt>
      <trkpt lat="42.25863" lon="8.85494">
        <ele>1466.63</ele>
        <time>2026-05-02T11:31:27Z</time>
      </trkpt>
      <trkpt lat="42.25862" lon="8.85504">
        <ele>1466.63</ele>
        <time>2026-05-02T11:31:40Z</time>
      </trkpt>
      <trkpt lat="42.25862" lon="8.85513">
        <ele>1465.19</ele>
        <time>2026-05-02T11:31:54Z</time>
      </trkpt>
      <trkpt lat="42.25862" lon="8.85514">
        <ele>1465.19</ele>
        <time>2026-05-02T11:31:55Z</time>
      </trkpt>
      <trkpt lat="42.25861" lon="8.85519">
        <ele>1464.23</ele>
        <time>2026-05-02T11:32:08Z</time>
      </trkpt>
      <trkpt lat="42.2586" lon="8.8553">
        <ele>1463.74</ele>
        <time>2026-05-02T11:32:21Z</time>
      </trkpt>
      <trkpt lat="42.25859" lon="8.85542">
        <ele>1463.74</ele>
        <time>2026-05-02T11:32:33Z</time>
      </trkpt>
      <trkpt lat="42.25856" lon="8.85552">
        <ele>1464.23</ele>
        <time>2026-05-02T11:32:45Z</time>
      </trkpt>
      <trkpt lat="42.25854" lon="8.85564">
        <ele>1463.74</ele>
        <time>2026-05-02T11:32:58Z</time>
      </trkpt>
      <trkpt lat="42.25851" lon="8.85571">
        <ele>1462.78</ele>
        <time>2026-05-02T11:33:09Z</time>
      </trkpt>
      <trkpt lat="42.25851" lon="8.85575">
        <ele>1461.34</ele>
        <time>2026-05-02T11:33:44Z</time>
      </trkpt>
      <trkpt lat="42.25848" lon="8.85578">
        <ele>1461.34</ele>
        <time>2026-05-02T11:33:51Z</time>
      </trkpt>
      <trkpt lat="42.25843" lon="8.85588">
        <ele>1461.82</ele>
        <time>2026-05-02T11:34:03Z</time>
      </trkpt>
      <trkpt lat="42.25842" lon="8.85592">
        <ele>1460.86</ele>
        <time>2026-05-02T11:34:10Z</time>
      </trkpt>
      <trkpt lat="42.2584" lon="8.85604">
        <ele>1459.9</ele>
        <time>2026-05-02T11:34:23Z</time>
      </trkpt>
      <trkpt lat="42.25837" lon="8.85619">
        <ele>1458.94</ele>
        <time>2026-05-02T11:34:38Z</time>
      </trkpt>
      <trkpt lat="42.25834" lon="8.8563">
        <ele>1457.5</ele>
        <time>2026-05-02T11:34:49Z</time>
      </trkpt>
      <trkpt lat="42.25831" lon="8.8564">
        <ele>1457.98</ele>
        <time>2026-05-02T11:35:00Z</time>
      </trkpt>
      <trkpt lat="42.25826" lon="8.85649">
        <ele>1457.5</ele>
        <time>2026-05-02T11:35:13Z</time>
      </trkpt>
      <trkpt lat="42.2582" lon="8.85656">
        <ele>1456.05</ele>
        <time>2026-05-02T11:35:25Z</time>
      </trkpt>
      <trkpt lat="42.25817" lon="8.8566">
        <ele>1455.09</ele>
        <time>2026-05-02T11:35:31Z</time>
      </trkpt>
      <trkpt lat="42.25811" lon="8.85664">
        <ele>1454.61</ele>
        <time>2026-05-02T11:35:46Z</time>
      </trkpt>
      <trkpt lat="42.25805" lon="8.85668">
        <ele>1454.13</ele>
        <time>2026-05-02T11:35:58Z</time>
      </trkpt>
      <trkpt lat="42.25801" lon="8.8567">
        <ele>1453.65</ele>
        <time>2026-05-02T11:36:08Z</time>
      </trkpt>
      <trkpt lat="42.25792" lon="8.85673">
        <ele>1454.13</ele>
        <time>2026-05-02T11:36:20Z</time>
      </trkpt>
      <trkpt lat="42.25782" lon="8.85675">
        <ele>1452.69</ele>
        <time>2026-05-02T11:36:32Z</time>
      </trkpt>
      <trkpt lat="42.25775" lon="8.85678">
        <ele>1451.73</ele>
        <time>2026-05-02T11:36:42Z</time>
      </trkpt>
      <trkpt lat="42.25767" lon="8.85681">
        <ele>1451.73</ele>
        <time>2026-05-02T11:36:53Z</time>
      </trkpt>
      <trkpt lat="42.2576" lon="8.85683">
        <ele>1450.77</ele>
        <time>2026-05-02T11:37:04Z</time>
      </trkpt>
      <trkpt lat="42.25759" lon="8.85683">
        <ele>1450.77</ele>
        <time>2026-05-02T11:37:07Z</time>
      </trkpt>
      <trkpt lat="42.25756" lon="8.85688">
        <ele>1451.25</ele>
        <time>2026-05-02T11:37:20Z</time>
      </trkpt>
      <trkpt lat="42.25759" lon="8.85696">
        <ele>1452.21</ele>
        <time>2026-05-02T11:37:32Z</time>
      </trkpt>
      <trkpt lat="42.25762" lon="8.85707">
        <ele>1450.77</ele>
        <time>2026-05-02T11:37:45Z</time>
      </trkpt>
      <trkpt lat="42.25767" lon="8.85715">
        <ele>1450.29</ele>
        <time>2026-05-02T11:37:57Z</time>
      </trkpt>
      <trkpt lat="42.25771" lon="8.85719">
        <ele>1449.81</ele>
        <time>2026-05-02T11:38:08Z</time>
      </trkpt>
      <trkpt lat="42.25777" lon="8.85718">
        <ele>1449.81</ele>
        <time>2026-05-02T11:38:20Z</time>
      </trkpt>
      <trkpt lat="42.25785" lon="8.85718">
        <ele>1448.84</ele>
        <time>2026-05-02T11:38:33Z</time>
      </trkpt>
      <trkpt lat="42.25794" lon="8.85716">
        <ele>1446.44</ele>
        <time>2026-05-02T11:38:46Z</time>
      </trkpt>
      <trkpt lat="42.25802" lon="8.85719">
        <ele>1445</ele>
        <time>2026-05-02T11:38:58Z</time>
      </trkpt>
      <trkpt lat="42.2581" lon="8.85723">
        <ele>1445</ele>
        <time>2026-05-02T11:39:10Z</time>
      </trkpt>
      <trkpt lat="42.25818" lon="8.85727">
        <ele>1444.52</ele>
        <time>2026-05-02T11:39:22Z</time>
      </trkpt>
      <trkpt lat="42.25826" lon="8.85731">
        <ele>1444.04</ele>
        <time>2026-05-02T11:39:32Z</time>
      </trkpt>
      <trkpt lat="42.25834" lon="8.85734">
        <ele>1444.52</ele>
        <time>2026-05-02T11:39:43Z</time>
      </trkpt>
      <trkpt lat="42.25842" lon="8.85735">
        <ele>1445.48</ele>
        <time>2026-05-02T11:39:54Z</time>
      </trkpt>
      <trkpt lat="42.25853" lon="8.85734">
        <ele>1444.52</ele>
        <time>2026-05-02T11:40:07Z</time>
      </trkpt>
      <trkpt lat="42.2586" lon="8.85734">
        <ele>1445</ele>
        <time>2026-05-02T11:40:18Z</time>
      </trkpt>
      <trkpt lat="42.25868" lon="8.85737">
        <ele>1444.04</ele>
        <time>2026-05-02T11:40:30Z</time>
      </trkpt>
      <trkpt lat="42.25876" lon="8.85739">
        <ele>1442.11</ele>
        <time>2026-05-02T11:40:42Z</time>
      </trkpt>
      <trkpt lat="42.25884" lon="8.85746">
        <ele>1440.67</ele>
        <time>2026-05-02T11:40:54Z</time>
      </trkpt>
      <trkpt lat="42.25891" lon="8.85751">
        <ele>1439.71</ele>
        <time>2026-05-02T11:41:08Z</time>
      </trkpt>
      <trkpt lat="42.259" lon="8.85756">
        <ele>1438.75</ele>
        <time>2026-05-02T11:41:21Z</time>
      </trkpt>
      <trkpt lat="42.25906" lon="8.8576">
        <ele>1438.27</ele>
        <time>2026-05-02T11:41:30Z</time>
      </trkpt>
      <trkpt lat="42.25912" lon="8.85764">
        <ele>1436.83</ele>
        <time>2026-05-02T11:41:40Z</time>
      </trkpt>
      <trkpt lat="42.2592" lon="8.85769">
        <ele>1435.87</ele>
        <time>2026-05-02T11:41:52Z</time>
      </trkpt>
      <trkpt lat="42.25928" lon="8.85774">
        <ele>1435.87</ele>
        <time>2026-05-02T11:42:03Z</time>
      </trkpt>
      <trkpt lat="42.25934" lon="8.85781">
        <ele>1437.31</ele>
        <time>2026-05-02T11:42:14Z</time>
      </trkpt>
      <trkpt lat="42.25941" lon="8.85787">
        <ele>1438.27</ele>
        <time>2026-05-02T11:42:25Z</time>
      </trkpt>
      <trkpt lat="42.25949" lon="8.85793">
        <ele>1437.79</ele>
        <time>2026-05-02T11:42:37Z</time>
      </trkpt>
      <trkpt lat="42.25955" lon="8.858">
        <ele>1436.83</ele>
        <time>2026-05-02T11:42:49Z</time>
      </trkpt>
      <trkpt lat="42.25961" lon="8.85807">
        <ele>1436.83</ele>
        <time>2026-05-02T11:43:00Z</time>
      </trkpt>
      <trkpt lat="42.25969" lon="8.85813">
        <ele>1435.87</ele>
        <time>2026-05-02T11:43:09Z</time>
      </trkpt>
      <trkpt lat="42.25974" lon="8.85818">
        <ele>1434.91</ele>
        <time>2026-05-02T11:43:18Z</time>
      </trkpt>
      <trkpt lat="42.25979" lon="8.85823">
        <ele>1433.94</ele>
        <time>2026-05-02T11:43:28Z</time>
      </trkpt>
      <trkpt lat="42.25985" lon="8.8583">
        <ele>1433.46</ele>
        <time>2026-05-02T11:43:39Z</time>
      </trkpt>
      <trkpt lat="42.2599" lon="8.85842">
        <ele>1432.98</ele>
        <time>2026-05-02T11:43:52Z</time>
      </trkpt>
      <trkpt lat="42.25993" lon="8.85849">
        <ele>1432.02</ele>
        <time>2026-05-02T11:44:01Z</time>
      </trkpt>
      <trkpt lat="42.25999" lon="8.85855">
        <ele>1430.58</ele>
        <time>2026-05-02T11:44:12Z</time>
      </trkpt>
      <trkpt lat="42.26004" lon="8.85861">
        <ele>1429.62</ele>
        <time>2026-05-02T11:44:23Z</time>
      </trkpt>
      <trkpt lat="42.26008" lon="8.85866">
        <ele>1430.1</ele>
        <time>2026-05-02T11:44:29Z</time>
      </trkpt>
      <trkpt lat="42.26015" lon="8.85872">
        <ele>1429.62</ele>
        <time>2026-05-02T11:44:40Z</time>
      </trkpt>
      <trkpt lat="42.26019" lon="8.85876">
        <ele>1430.58</ele>
        <time>2026-05-02T11:44:51Z</time>
      </trkpt>
      <trkpt lat="42.26027" lon="8.85885">
        <ele>1432.5</ele>
        <time>2026-05-02T11:45:02Z</time>
      </trkpt>
      <trkpt lat="42.26034" lon="8.85892">
        <ele>1433.46</ele>
        <time>2026-05-02T11:45:15Z</time>
      </trkpt>
      <trkpt lat="42.26037" lon="8.85896">
        <ele>1433.46</ele>
        <time>2026-05-02T11:45:25Z</time>
      </trkpt>
      <trkpt lat="42.26041" lon="8.859">
        <ele>1433.46</ele>
        <time>2026-05-02T11:45:41Z</time>
      </trkpt>
      <trkpt lat="42.26047" lon="8.85904">
        <ele>1434.42</ele>
        <time>2026-05-02T11:45:52Z</time>
      </trkpt>
      <trkpt lat="42.26048" lon="8.85905">
        <ele>1434.42</ele>
        <time>2026-05-02T11:45:54Z</time>
      </trkpt>
      <trkpt lat="42.26057" lon="8.85906">
        <ele>1434.42</ele>
        <time>2026-05-02T11:46:05Z</time>
      </trkpt>
      <trkpt lat="42.26062" lon="8.85908">
        <ele>1433.94</ele>
        <time>2026-05-02T11:46:16Z</time>
      </trkpt>
      <trkpt lat="42.26068" lon="8.8591">
        <ele>1433.94</ele>
        <time>2026-05-02T11:46:29Z</time>
      </trkpt>
      <trkpt lat="42.26074" lon="8.85913">
        <ele>1435.39</ele>
        <time>2026-05-02T11:46:38Z</time>
      </trkpt>
      <trkpt lat="42.2608" lon="8.85916">
        <ele>1435.39</ele>
        <time>2026-05-02T11:46:52Z</time>
      </trkpt>
      <trkpt lat="42.26082" lon="8.85917">
        <ele>1435.39</ele>
        <time>2026-05-02T11:47:14Z</time>
      </trkpt>
      <trkpt lat="42.2609" lon="8.85921">
        <ele>1433.94</ele>
        <time>2026-05-02T11:47:24Z</time>
      </trkpt>
      <trkpt lat="42.26093" lon="8.85925">
        <ele>1434.91</ele>
        <time>2026-05-02T11:47:40Z</time>
      </trkpt>
      <trkpt lat="42.26098" lon="8.85928">
        <ele>1433.94</ele>
        <time>2026-05-02T11:47:52Z</time>
      </trkpt>
      <trkpt lat="42.26104" lon="8.85932">
        <ele>1434.91</ele>
        <time>2026-05-02T11:48:06Z</time>
      </trkpt>
      <trkpt lat="42.26111" lon="8.85936">
        <ele>1435.39</ele>
        <time>2026-05-02T11:48:17Z</time>
      </trkpt>
      <trkpt lat="42.26117" lon="8.85939">
        <ele>1436.83</ele>
        <time>2026-05-02T11:48:25Z</time>
      </trkpt>
      <trkpt lat="42.26127" lon="8.85941">
        <ele>1438.75</ele>
        <time>2026-05-02T11:48:39Z</time>
      </trkpt>
      <trkpt lat="42.26135" lon="8.85943">
        <ele>1438.27</ele>
        <time>2026-05-02T11:48:50Z</time>
      </trkpt>
      <trkpt lat="42.26141" lon="8.85948">
        <ele>1437.31</ele>
        <time>2026-05-02T11:49:01Z</time>
      </trkpt>
      <trkpt lat="42.2615" lon="8.85952">
        <ele>1435.39</ele>
        <time>2026-05-02T11:49:13Z</time>
      </trkpt>
      <trkpt lat="42.26153" lon="8.85956">
        <ele>1434.42</ele>
        <time>2026-05-02T11:49:24Z</time>
      </trkpt>
      <trkpt lat="42.26158" lon="8.85964">
        <ele>1434.91</ele>
        <time>2026-05-02T11:49:39Z</time>
      </trkpt>
      <trkpt lat="42.26161" lon="8.85968">
        <ele>1435.87</ele>
        <time>2026-05-02T11:49:51Z</time>
      </trkpt>
      <trkpt lat="42.26165" lon="8.85974">
        <ele>1434.91</ele>
        <time>2026-05-02T11:50:04Z</time>
      </trkpt>
      <trkpt lat="42.26171" lon="8.8598">
        <ele>1433.46</ele>
        <time>2026-05-02T11:50:13Z</time>
      </trkpt>
      <trkpt lat="42.26179" lon="8.85986">
        <ele>1432.02</ele>
        <time>2026-05-02T11:50:25Z</time>
      </trkpt>
      <trkpt lat="42.26185" lon="8.85994">
        <ele>1431.06</ele>
        <time>2026-05-02T11:50:35Z</time>
      </trkpt>
      <trkpt lat="42.2619" lon="8.86003">
        <ele>1430.1</ele>
        <time>2026-05-02T11:50:45Z</time>
      </trkpt>
      <trkpt lat="42.26193" lon="8.86006">
        <ele>1430.1</ele>
        <time>2026-05-02T11:50:49Z</time>
      </trkpt>
      <trkpt lat="42.26197" lon="8.86009">
        <ele>1428.66</ele>
        <time>2026-05-02T11:50:56Z</time>
      </trkpt>
      <trkpt lat="42.26204" lon="8.8602">
        <ele>1428.66</ele>
        <time>2026-05-02T11:51:07Z</time>
      </trkpt>
      <trkpt lat="42.26211" lon="8.86027">
        <ele>1428.18</ele>
        <time>2026-05-02T11:51:18Z</time>
      </trkpt>
      <trkpt lat="42.26219" lon="8.86033">
        <ele>1425.29</ele>
        <time>2026-05-02T11:51:29Z</time>
      </trkpt>
      <trkpt lat="42.26226" lon="8.86039">
        <ele>1420.97</ele>
        <time>2026-05-02T11:51:41Z</time>
      </trkpt>
      <trkpt lat="42.26226" lon="8.8604">
        <ele>1420.97</ele>
        <time>2026-05-02T11:51:42Z</time>
      </trkpt>
      <trkpt lat="42.26232" lon="8.86053">
        <ele>1422.89</ele>
        <time>2026-05-02T11:51:52Z</time>
      </trkpt>
      <trkpt lat="42.2624" lon="8.86061">
        <ele>1424.33</ele>
        <time>2026-05-02T11:52:02Z</time>
      </trkpt>
      <trkpt lat="42.2624" lon="8.86062">
        <ele>1423.85</ele>
        <time>2026-05-02T11:52:03Z</time>
      </trkpt>
      <trkpt lat="42.26246" lon="8.86068">
        <ele>1423.37</ele>
        <time>2026-05-02T11:52:11Z</time>
      </trkpt>
      <trkpt lat="42.26255" lon="8.86077">
        <ele>1423.85</ele>
        <time>2026-05-02T11:52:22Z</time>
      </trkpt>
      <trkpt lat="42.26263" lon="8.86085">
        <ele>1425.77</ele>
        <time>2026-05-02T11:52:33Z</time>
      </trkpt>
      <trkpt lat="42.2627" lon="8.86093">
        <ele>1427.7</ele>
        <time>2026-05-02T11:52:44Z</time>
      </trkpt>
      <trkpt lat="42.26278" lon="8.86099">
        <ele>1426.73</ele>
        <time>2026-05-02T11:52:56Z</time>
      </trkpt>
      <trkpt lat="42.26287" lon="8.86104">
        <ele>1425.77</ele>
        <time>2026-05-02T11:53:07Z</time>
      </trkpt>
      <trkpt lat="42.26292" lon="8.86108">
        <ele>1425.77</ele>
        <time>2026-05-02T11:53:14Z</time>
      </trkpt>
      <trkpt lat="42.26301" lon="8.86116">
        <ele>1425.29</ele>
        <time>2026-05-02T11:53:25Z</time>
      </trkpt>
      <trkpt lat="42.26307" lon="8.86126">
        <ele>1425.77</ele>
        <time>2026-05-02T11:53:36Z</time>
      </trkpt>
      <trkpt lat="42.26312" lon="8.86138">
        <ele>1425.77</ele>
        <time>2026-05-02T11:53:48Z</time>
      </trkpt>
      <trkpt lat="42.26317" lon="8.86148">
        <ele>1424.33</ele>
        <time>2026-05-02T11:53:58Z</time>
      </trkpt>
      <trkpt lat="42.26324" lon="8.8616">
        <ele>1424.81</ele>
        <time>2026-05-02T11:54:09Z</time>
      </trkpt>
      <trkpt lat="42.26329" lon="8.86171">
        <ele>1425.29</ele>
        <time>2026-05-02T11:54:20Z</time>
      </trkpt>
      <trkpt lat="42.26335" lon="8.86182">
        <ele>1425.77</ele>
        <time>2026-05-02T11:54:31Z</time>
      </trkpt>
      <trkpt lat="42.26339" lon="8.8619">
        <ele>1426.25</ele>
        <time>2026-05-02T11:54:44Z</time>
      </trkpt>
      <trkpt lat="42.26344" lon="8.86198">
        <ele>1426.25</ele>
        <time>2026-05-02T11:54:55Z</time>
      </trkpt>
      <trkpt lat="42.2635" lon="8.86207">
        <ele>1425.77</ele>
        <time>2026-05-02T11:55:07Z</time>
      </trkpt>
      <trkpt lat="42.26351" lon="8.8621">
        <ele>1425.29</ele>
        <time>2026-05-02T11:55:21Z</time>
      </trkpt>
      <trkpt lat="42.26356" lon="8.86219">
        <ele>1427.21</ele>
        <time>2026-05-02T11:55:42Z</time>
      </trkpt>
      <trkpt lat="42.26359" lon="8.86224">
        <ele>1427.7</ele>
        <time>2026-05-02T11:55:56Z</time>
      </trkpt>
      <trkpt lat="42.26362" lon="8.86227">
        <ele>1427.21</ele>
        <time>2026-05-02T11:55:59Z</time>
      </trkpt>
      <trkpt lat="42.26366" lon="8.86233">
        <ele>1426.73</ele>
        <time>2026-05-02T11:56:06Z</time>
      </trkpt>
      <trkpt lat="42.26371" lon="8.86241">
        <ele>1425.77</ele>
        <time>2026-05-02T11:56:17Z</time>
      </trkpt>
      <trkpt lat="42.26372" lon="8.86244">
        <ele>1426.73</ele>
        <time>2026-05-02T11:56:31Z</time>
      </trkpt>
      <trkpt lat="42.26378" lon="8.86252">
        <ele>1425.29</ele>
        <time>2026-05-02T11:56:42Z</time>
      </trkpt>
      <trkpt lat="42.26384" lon="8.8626">
        <ele>1424.33</ele>
        <time>2026-05-02T11:56:54Z</time>
      </trkpt>
      <trkpt lat="42.26387" lon="8.86262">
        <ele>1425.77</ele>
        <time>2026-05-02T11:57:19Z</time>
      </trkpt>
      <trkpt lat="42.26391" lon="8.86271">
        <ele>1425.29</ele>
        <time>2026-05-02T11:57:31Z</time>
      </trkpt>
      <trkpt lat="42.26391" lon="8.86272">
        <ele>1425.29</ele>
        <time>2026-05-02T11:57:48Z</time>
      </trkpt>
      <trkpt lat="42.26392" lon="8.86282">
        <ele>1423.85</ele>
        <time>2026-05-02T11:58:03Z</time>
      </trkpt>
      <trkpt lat="42.26392" lon="8.86294">
        <ele>1423.37</ele>
        <time>2026-05-02T11:58:16Z</time>
      </trkpt>
      <trkpt lat="42.26391" lon="8.863">
        <ele>1422.89</ele>
        <time>2026-05-02T11:58:33Z</time>
      </trkpt>
      <trkpt lat="42.26391" lon="8.86301">
        <ele>1422.89</ele>
        <time>2026-05-02T11:58:34Z</time>
      </trkpt>
      <trkpt lat="42.26391" lon="8.86311">
        <ele>1421.93</ele>
        <time>2026-05-02T11:58:46Z</time>
      </trkpt>
      <trkpt lat="42.2639" lon="8.8632">
        <ele>1420</ele>
        <time>2026-05-02T11:59:02Z</time>
      </trkpt>
      <trkpt lat="42.26392" lon="8.86331">
        <ele>1419.52</ele>
        <time>2026-05-02T11:59:15Z</time>
      </trkpt>
      <trkpt lat="42.26392" lon="8.86341">
        <ele>1420.97</ele>
        <time>2026-05-02T11:59:26Z</time>
      </trkpt>
      <trkpt lat="42.26393" lon="8.86352">
        <ele>1421.45</ele>
        <time>2026-05-02T11:59:37Z</time>
      </trkpt>
      <trkpt lat="42.26392" lon="8.86364">
        <ele>1422.41</ele>
        <time>2026-05-02T11:59:50Z</time>
      </trkpt>
      <trkpt lat="42.26393" lon="8.86375">
        <ele>1423.85</ele>
        <time>2026-05-02T12:00:01Z</time>
      </trkpt>
      <trkpt lat="42.26394" lon="8.86386">
        <ele>1422.89</ele>
        <time>2026-05-02T12:00:11Z</time>
      </trkpt>
      <trkpt lat="42.2639" lon="8.86395">
        <ele>1422.89</ele>
        <time>2026-05-02T12:00:24Z</time>
      </trkpt>
      <trkpt lat="42.26389" lon="8.86395">
        <ele>1422.89</ele>
        <time>2026-05-02T12:00:26Z</time>
      </trkpt>
      <trkpt lat="42.26383" lon="8.86394">
        <ele>1421.93</ele>
        <time>2026-05-02T12:00:38Z</time>
      </trkpt>
      <trkpt lat="42.26381" lon="8.86394">
        <ele>1419.52</ele>
        <time>2026-05-02T12:01:04Z</time>
      </trkpt>
      <trkpt lat="42.26382" lon="8.86395">
        <ele>1422.41</ele>
        <time>2026-05-02T12:01:22Z</time>
      </trkpt>
      <trkpt lat="42.26378" lon="8.8639">
        <ele>1420.49</ele>
        <time>2026-05-02T12:01:36Z</time>
      </trkpt>
      <trkpt lat="42.26377" lon="8.86387">
        <ele>1420.97</ele>
        <time>2026-05-02T12:01:49Z</time>
      </trkpt>
      <trkpt lat="42.26377" lon="8.86386">
        <ele>1419.04</ele>
        <time>2026-05-02T12:02:10Z</time>
      </trkpt>
      <trkpt lat="42.26374" lon="8.86386">
        <ele>1418.56</ele>
        <time>2026-05-02T12:02:30Z</time>
      </trkpt>
      <trkpt lat="42.26373" lon="8.86382">
        <ele>1417.12</ele>
        <time>2026-05-02T12:02:45Z</time>
      </trkpt>
      <trkpt lat="42.26375" lon="8.86386">
        <ele>1418.08</ele>
        <time>2026-05-02T12:03:00Z</time>
      </trkpt>
      <trkpt lat="42.26378" lon="8.86391">
        <ele>1418.08</ele>
        <time>2026-05-02T12:03:17Z</time>
      </trkpt>
      <trkpt lat="42.2638" lon="8.86393">
        <ele>1418.56</ele>
        <time>2026-05-02T12:03:22Z</time>
      </trkpt>
      <trkpt lat="42.26386" lon="8.86397">
        <ele>1420.49</ele>
        <time>2026-05-02T12:03:32Z</time>
      </trkpt>
      <trkpt lat="42.26389" lon="8.86399">
        <ele>1422.89</ele>
        <time>2026-05-02T12:03:43Z</time>
      </trkpt>
      <trkpt lat="42.26389" lon="8.864">
        <ele>1422.89</ele>
        <time>2026-05-02T12:04:03Z</time>
      </trkpt>
      <trkpt lat="42.26389" lon="8.86397">
        <ele>1420.97</ele>
        <time>2026-05-02T12:04:44Z</time>
      </trkpt>
      <trkpt lat="42.26391" lon="8.86399">
        <ele>1419.04</ele>
        <time>2026-05-02T12:05:13Z</time>
      </trkpt>
      <trkpt lat="42.26399" lon="8.86396">
        <ele>1421.45</ele>
        <time>2026-05-02T12:05:26Z</time>
      </trkpt>
      <trkpt lat="42.26406" lon="8.86393">
        <ele>1423.37</ele>
        <time>2026-05-02T12:05:37Z</time>
      </trkpt>
      <trkpt lat="42.26409" lon="8.86393">
        <ele>1422.89</ele>
        <time>2026-05-02T12:05:40Z</time>
      </trkpt>
      <trkpt lat="42.26416" lon="8.86395">
        <ele>1422.89</ele>
        <time>2026-05-02T12:05:52Z</time>
      </trkpt>
      <trkpt lat="42.26418" lon="8.86397">
        <ele>1422.89</ele>
        <time>2026-05-02T12:05:59Z</time>
      </trkpt>
      <trkpt lat="42.26423" lon="8.86405">
        <ele>1422.41</ele>
        <time>2026-05-02T12:06:11Z</time>
      </trkpt>
      <trkpt lat="42.26426" lon="8.86418">
        <ele>1421.93</ele>
        <time>2026-05-02T12:06:23Z</time>
      </trkpt>
      <trkpt lat="42.26431" lon="8.8643">
        <ele>1419.52</ele>
        <time>2026-05-02T12:06:38Z</time>
      </trkpt>
      <trkpt lat="42.26434" lon="8.86439">
        <ele>1419.04</ele>
        <time>2026-05-02T12:06:49Z</time>
      </trkpt>
      <trkpt lat="42.26437" lon="8.86447">
        <ele>1418.08</ele>
        <time>2026-05-02T12:06:57Z</time>
      </trkpt>
      <trkpt lat="42.26444" lon="8.86453">
        <ele>1418.08</ele>
        <time>2026-05-02T12:07:07Z</time>
      </trkpt>
      <trkpt lat="42.26452" lon="8.86457">
        <ele>1416.16</ele>
        <time>2026-05-02T12:07:18Z</time>
      </trkpt>
      <trkpt lat="42.26455" lon="8.86459">
        <ele>1415.68</ele>
        <time>2026-05-02T12:07:22Z</time>
      </trkpt>
      <trkpt lat="42.26463" lon="8.86465">
        <ele>1414.72</ele>
        <time>2026-05-02T12:07:33Z</time>
      </trkpt>
      <trkpt lat="42.26465" lon="8.86469">
        <ele>1414.72</ele>
        <time>2026-05-02T12:07:37Z</time>
      </trkpt>
      <trkpt lat="42.2647" lon="8.86479">
        <ele>1414.72</ele>
        <time>2026-05-02T12:07:49Z</time>
      </trkpt>
      <trkpt lat="42.26477" lon="8.86488">
        <ele>1414.24</ele>
        <time>2026-05-02T12:08:01Z</time>
      </trkpt>
      <trkpt lat="42.26483" lon="8.86497">
        <ele>1413.28</ele>
        <time>2026-05-02T12:08:11Z</time>
      </trkpt>
      <trkpt lat="42.2649" lon="8.86504">
        <ele>1410.87</ele>
        <time>2026-05-02T12:08:23Z</time>
      </trkpt>
      <trkpt lat="42.26491" lon="8.86505">
        <ele>1409.91</ele>
        <time>2026-05-02T12:08:25Z</time>
      </trkpt>
      <trkpt lat="42.26495" lon="8.86511">
        <ele>1406.07</ele>
        <time>2026-05-02T12:08:34Z</time>
      </trkpt>
      <trkpt lat="42.26498" lon="8.86518">
        <ele>1407.51</ele>
        <time>2026-05-02T12:08:39Z</time>
      </trkpt>
      <trkpt lat="42.26502" lon="8.86531">
        <ele>1407.51</ele>
        <time>2026-05-02T12:08:50Z</time>
      </trkpt>
      <trkpt lat="42.26501" lon="8.86523">
        <ele>1407.03</ele>
        <time>2026-05-02T12:09:00Z</time>
      </trkpt>
      <trkpt lat="42.265" lon="8.86512">
        <ele>1406.55</ele>
        <time>2026-05-02T12:09:09Z</time>
      </trkpt>
      <trkpt lat="42.26497" lon="8.86504">
        <ele>1406.55</ele>
        <time>2026-05-02T12:09:17Z</time>
      </trkpt>
      <trkpt lat="42.26494" lon="8.86494">
        <ele>1405.58</ele>
        <time>2026-05-02T12:09:28Z</time>
      </trkpt>
      <trkpt lat="42.26493" lon="8.86483">
        <ele>1405.58</ele>
        <time>2026-05-02T12:09:36Z</time>
      </trkpt>
      <trkpt lat="42.26491" lon="8.86474">
        <ele>1406.07</ele>
        <time>2026-05-02T12:09:43Z</time>
      </trkpt>
      <trkpt lat="42.2649" lon="8.8647">
        <ele>1406.07</ele>
        <time>2026-05-02T12:09:47Z</time>
      </trkpt>
      <trkpt lat="42.26488" lon="8.86467">
        <ele>1405.58</ele>
        <time>2026-05-02T12:09:51Z</time>
      </trkpt>
      <trkpt lat="42.26485" lon="8.86463">
        <ele>1405.58</ele>
        <time>2026-05-02T12:09:55Z</time>
      </trkpt>
      <trkpt lat="42.26482" lon="8.86458">
        <ele>1405.58</ele>
        <time>2026-05-02T12:09:59Z</time>
      </trkpt>
      <trkpt lat="42.2648" lon="8.86448">
        <ele>1405.1</ele>
        <time>2026-05-02T12:10:08Z</time>
      </trkpt>
      <trkpt lat="42.26476" lon="8.86435">
        <ele>1404.14</ele>
        <time>2026-05-02T12:10:22Z</time>
      </trkpt>
      <trkpt lat="42.26472" lon="8.8642">
        <ele>1405.58</ele>
        <time>2026-05-02T12:10:33Z</time>
      </trkpt>
      <trkpt lat="42.26468" lon="8.86407">
        <ele>1403.66</ele>
        <time>2026-05-02T12:10:45Z</time>
      </trkpt>
      <trkpt lat="42.26463" lon="8.86395">
        <ele>1403.66</ele>
        <time>2026-05-02T12:10:56Z</time>
      </trkpt>
      <trkpt lat="42.26462" lon="8.86382">
        <ele>1403.66</ele>
        <time>2026-05-02T12:11:07Z</time>
      </trkpt>
      <trkpt lat="42.26461" lon="8.86376">
        <ele>1403.66</ele>
        <time>2026-05-02T12:11:16Z</time>
      </trkpt>
      <trkpt lat="42.26462" lon="8.86364">
        <ele>1404.14</ele>
        <time>2026-05-02T12:11:26Z</time>
      </trkpt>
      <trkpt lat="42.26464" lon="8.86352">
        <ele>1401.26</ele>
        <time>2026-05-02T12:11:36Z</time>
      </trkpt>
      <trkpt lat="42.26461" lon="8.8634">
        <ele>1401.74</ele>
        <time>2026-05-02T12:11:46Z</time>
      </trkpt>
      <trkpt lat="42.26465" lon="8.8633">
        <ele>1403.66</ele>
        <time>2026-05-02T12:11:56Z</time>
      </trkpt>
      <trkpt lat="42.26472" lon="8.86322">
        <ele>1404.14</ele>
        <time>2026-05-02T12:12:09Z</time>
      </trkpt>
      <trkpt lat="42.26474" lon="8.86321">
        <ele>1404.14</ele>
        <time>2026-05-02T12:12:13Z</time>
      </trkpt>
      <trkpt lat="42.26485" lon="8.86316">
        <ele>1403.18</ele>
        <time>2026-05-02T12:12:23Z</time>
      </trkpt>
      <trkpt lat="42.26495" lon="8.86307">
        <ele>1403.66</ele>
        <time>2026-05-02T12:12:37Z</time>
      </trkpt>
      <trkpt lat="42.26504" lon="8.86299">
        <ele>1402.22</ele>
        <time>2026-05-02T12:12:49Z</time>
      </trkpt>
      <trkpt lat="42.26516" lon="8.86297">
        <ele>1404.14</ele>
        <time>2026-05-02T12:13:02Z</time>
      </trkpt>
      <trkpt lat="42.26527" lon="8.8629">
        <ele>1404.62</ele>
        <time>2026-05-02T12:13:15Z</time>
      </trkpt>
      <trkpt lat="42.26536" lon="8.86283">
        <ele>1404.62</ele>
        <time>2026-05-02T12:13:27Z</time>
      </trkpt>
      <trkpt lat="42.26544" lon="8.86272">
        <ele>1404.14</ele>
        <time>2026-05-02T12:13:39Z</time>
      </trkpt>
      <trkpt lat="42.26555" lon="8.86264">
        <ele>1402.7</ele>
        <time>2026-05-02T12:13:50Z</time>
      </trkpt>
      <trkpt lat="42.26563" lon="8.86254">
        <ele>1399.82</ele>
        <time>2026-05-02T12:14:05Z</time>
      </trkpt>
      <trkpt lat="42.26569" lon="8.8625">
        <ele>1397.89</ele>
        <time>2026-05-02T12:14:17Z</time>
      </trkpt>
      <trkpt lat="42.26575" lon="8.86243">
        <ele>1396.93</ele>
        <time>2026-05-02T12:14:28Z</time>
      </trkpt>
      <trkpt lat="42.26585" lon="8.86231">
        <ele>1395.97</ele>
        <time>2026-05-02T12:14:40Z</time>
      </trkpt>
      <trkpt lat="42.26591" lon="8.86222">
        <ele>1397.89</ele>
        <time>2026-05-02T12:14:47Z</time>
      </trkpt>
      <trkpt lat="42.26596" lon="8.86211">
        <ele>1399.82</ele>
        <time>2026-05-02T12:14:57Z</time>
      </trkpt>
      <trkpt lat="42.26598" lon="8.86209">
        <ele>1400.3</ele>
        <time>2026-05-02T12:15:00Z</time>
      </trkpt>
      <trkpt lat="42.26601" lon="8.86197">
        <ele>1401.26</ele>
        <time>2026-05-02T12:15:12Z</time>
      </trkpt>
      <trkpt lat="42.26603" lon="8.86184">
        <ele>1401.74</ele>
        <time>2026-05-02T12:15:23Z</time>
      </trkpt>
      <trkpt lat="42.26603" lon="8.86183">
        <ele>1401.74</ele>
        <time>2026-05-02T12:15:25Z</time>
      </trkpt>
      <trkpt lat="42.26604" lon="8.86173">
        <ele>1402.7</ele>
        <time>2026-05-02T12:15:33Z</time>
      </trkpt>
      <trkpt lat="42.26603" lon="8.86168">
        <ele>1401.74</ele>
        <time>2026-05-02T12:15:37Z</time>
      </trkpt>
      <trkpt lat="42.26604" lon="8.8616">
        <ele>1400.3</ele>
        <time>2026-05-02T12:15:44Z</time>
      </trkpt>
      <trkpt lat="42.26607" lon="8.86147">
        <ele>1396.93</ele>
        <time>2026-05-02T12:15:54Z</time>
      </trkpt>
      <trkpt lat="42.26609" lon="8.86135">
        <ele>1394.53</ele>
        <time>2026-05-02T12:16:04Z</time>
      </trkpt>
      <trkpt lat="42.26611" lon="8.86122">
        <ele>1393.57</ele>
        <time>2026-05-02T12:16:15Z</time>
      </trkpt>
      <trkpt lat="42.26611" lon="8.86115">
        <ele>1393.09</ele>
        <time>2026-05-02T12:16:21Z</time>
      </trkpt>
      <trkpt lat="42.26612" lon="8.86113">
        <ele>1392.61</ele>
        <time>2026-05-02T12:16:23Z</time>
      </trkpt>
      <trkpt lat="42.26611" lon="8.86106">
        <ele>1391.65</ele>
        <time>2026-05-02T12:16:29Z</time>
      </trkpt>
      <trkpt lat="42.26609" lon="8.86099">
        <ele>1391.17</ele>
        <time>2026-05-02T12:16:35Z</time>
      </trkpt>
      <trkpt lat="42.26606" lon="8.86092">
        <ele>1390.68</ele>
        <time>2026-05-02T12:16:41Z</time>
      </trkpt>
      <trkpt lat="42.26606" lon="8.86088">
        <ele>1390.68</ele>
        <time>2026-05-02T12:16:44Z</time>
      </trkpt>
      <trkpt lat="42.26605" lon="8.86084">
        <ele>1390.68</ele>
        <time>2026-05-02T12:16:48Z</time>
      </trkpt>
      <trkpt lat="42.26604" lon="8.86079">
        <ele>1390.68</ele>
        <time>2026-05-02T12:16:52Z</time>
      </trkpt>
      <trkpt lat="42.26602" lon="8.86075">
        <ele>1390.2</ele>
        <time>2026-05-02T12:16:55Z</time>
      </trkpt>
      <trkpt lat="42.266" lon="8.86073">
        <ele>1389.72</ele>
        <time>2026-05-02T12:16:58Z</time>
      </trkpt>
      <trkpt lat="42.26595" lon="8.86062">
        <ele>1389.24</ele>
        <time>2026-05-02T12:17:09Z</time>
      </trkpt>
      <trkpt lat="42.26593" lon="8.86058">
        <ele>1389.72</ele>
        <time>2026-05-02T12:17:14Z</time>
      </trkpt>
      <trkpt lat="42.2659" lon="8.86044">
        <ele>1392.13</ele>
        <time>2026-05-02T12:17:27Z</time>
      </trkpt>
      <trkpt lat="42.26587" lon="8.86039">
        <ele>1392.13</ele>
        <time>2026-05-02T12:17:32Z</time>
      </trkpt>
      <trkpt lat="42.26585" lon="8.86035">
        <ele>1392.13</ele>
        <time>2026-05-02T12:17:36Z</time>
      </trkpt>
      <trkpt lat="42.26574" lon="8.86027">
        <ele>1392.13</ele>
        <time>2026-05-02T12:17:47Z</time>
      </trkpt>
      <trkpt lat="42.26571" lon="8.86027">
        <ele>1393.09</ele>
        <time>2026-05-02T12:17:51Z</time>
      </trkpt>
      <trkpt lat="42.26561" lon="8.86031">
        <ele>1392.13</ele>
        <time>2026-05-02T12:18:04Z</time>
      </trkpt>
      <trkpt lat="42.26556" lon="8.86029">
        <ele>1391.17</ele>
        <time>2026-05-02T12:18:16Z</time>
      </trkpt>
      <trkpt lat="42.26562" lon="8.86024">
        <ele>1387.8</ele>
        <time>2026-05-02T12:18:28Z</time>
      </trkpt>
      <trkpt lat="42.26562" lon="8.86024">
        <ele>1387.8</ele>
        <time>2026-05-02T12:18:33Z</time>
      </trkpt>
      <trkpt lat="42.26571" lon="8.8602">
        <ele>1385.4</ele>
        <time>2026-05-02T12:18:44Z</time>
      </trkpt>
      <trkpt lat="42.26574" lon="8.86019">
        <ele>1383.96</ele>
        <time>2026-05-02T12:18:48Z</time>
      </trkpt>
      <trkpt lat="42.26583" lon="8.8602">
        <ele>1382.99</ele>
        <time>2026-05-02T12:18:59Z</time>
      </trkpt>
      <trkpt lat="42.26592" lon="8.8603">
        <ele>1383.47</ele>
        <time>2026-05-02T12:19:12Z</time>
      </trkpt>
      <trkpt lat="42.26594" lon="8.86036">
        <ele>1384.92</ele>
        <time>2026-05-02T12:19:27Z</time>
      </trkpt>
      <trkpt lat="42.26603" lon="8.86039">
        <ele>1385.88</ele>
        <time>2026-05-02T12:19:39Z</time>
      </trkpt>
      <trkpt lat="42.26611" lon="8.86046">
        <ele>1386.36</ele>
        <time>2026-05-02T12:19:51Z</time>
      </trkpt>
      <trkpt lat="42.26617" lon="8.86053">
        <ele>1387.32</ele>
        <time>2026-05-02T12:20:03Z</time>
      </trkpt>
      <trkpt lat="42.2662" lon="8.86054">
        <ele>1386.84</ele>
        <time>2026-05-02T12:20:16Z</time>
      </trkpt>
      <trkpt lat="42.26626" lon="8.86061">
        <ele>1389.24</ele>
        <time>2026-05-02T12:20:46Z</time>
      </trkpt>
      <trkpt lat="42.26632" lon="8.86067">
        <ele>1387.8</ele>
        <time>2026-05-02T12:20:56Z</time>
      </trkpt>
      <trkpt lat="42.26635" lon="8.86072">
        <ele>1388.28</ele>
        <time>2026-05-02T12:21:05Z</time>
      </trkpt>
      <trkpt lat="42.26644" lon="8.86078">
        <ele>1385.88</ele>
        <time>2026-05-02T12:21:18Z</time>
      </trkpt>
      <trkpt lat="42.26643" lon="8.86082">
        <ele>1384.44</ele>
        <time>2026-05-02T12:21:34Z</time>
      </trkpt>
      <trkpt lat="42.26648" lon="8.86089">
        <ele>1387.32</ele>
        <time>2026-05-02T12:21:46Z</time>
      </trkpt>
      <trkpt lat="42.2665" lon="8.86087">
        <ele>1386.84</ele>
        <time>2026-05-02T12:22:02Z</time>
      </trkpt>
      <trkpt lat="42.26647" lon="8.86085">
        <ele>1386.36</ele>
        <time>2026-05-02T12:22:15Z</time>
      </trkpt>
      <trkpt lat="42.26643" lon="8.86087">
        <ele>1388.28</ele>
        <time>2026-05-02T12:22:30Z</time>
      </trkpt>
      <trkpt lat="42.26649" lon="8.8609">
        <ele>1386.36</ele>
        <time>2026-05-02T12:22:40Z</time>
      </trkpt>
      <trkpt lat="42.26653" lon="8.86094">
        <ele>1384.92</ele>
        <time>2026-05-02T12:22:45Z</time>
      </trkpt>
      <trkpt lat="42.26657" lon="8.86101">
        <ele>1384.44</ele>
        <time>2026-05-02T12:22:53Z</time>
      </trkpt>
      <trkpt lat="42.26662" lon="8.86113">
        <ele>1384.44</ele>
        <time>2026-05-02T12:23:06Z</time>
      </trkpt>
      <trkpt lat="42.26665" lon="8.86122">
        <ele>1383.47</ele>
        <time>2026-05-02T12:23:17Z</time>
      </trkpt>
      <trkpt lat="42.26669" lon="8.86136">
        <ele>1384.92</ele>
        <time>2026-05-02T12:23:29Z</time>
      </trkpt>
      <trkpt lat="42.2667" lon="8.86151">
        <ele>1385.88</ele>
        <time>2026-05-02T12:23:41Z</time>
      </trkpt>
      <trkpt lat="42.26667" lon="8.86161">
        <ele>1385.88</ele>
        <time>2026-05-02T12:23:52Z</time>
      </trkpt>
      <trkpt lat="42.2666" lon="8.86167">
        <ele>1386.36</ele>
        <time>2026-05-02T12:24:04Z</time>
      </trkpt>
      <trkpt lat="42.26659" lon="8.86168">
        <ele>1386.36</ele>
        <time>2026-05-02T12:24:05Z</time>
      </trkpt>
      <trkpt lat="42.26645" lon="8.86175">
        <ele>1386.36</ele>
        <time>2026-05-02T12:24:17Z</time>
      </trkpt>
      <trkpt lat="42.26639" lon="8.86184">
        <ele>1384.92</ele>
        <time>2026-05-02T12:24:28Z</time>
      </trkpt>
      <trkpt lat="42.2664" lon="8.86182">
        <ele>1380.59</ele>
        <time>2026-05-02T12:24:49Z</time>
      </trkpt>
      <trkpt lat="42.26638" lon="8.8618">
        <ele>1378.19</ele>
        <time>2026-05-02T12:25:16Z</time>
      </trkpt>
      <trkpt lat="42.26634" lon="8.86187">
        <ele>1380.11</ele>
        <time>2026-05-02T12:25:30Z</time>
      </trkpt>
      <trkpt lat="42.26631" lon="8.8619">
        <ele>1377.23</ele>
        <time>2026-05-02T12:25:35Z</time>
      </trkpt>
      <trkpt lat="42.26629" lon="8.86194">
        <ele>1377.23</ele>
        <time>2026-05-02T12:25:38Z</time>
      </trkpt>
      <trkpt lat="42.26626" lon="8.86208">
        <ele>1375.78</ele>
        <time>2026-05-02T12:25:48Z</time>
      </trkpt>
      <trkpt lat="42.26625" lon="8.86221">
        <ele>1374.34</ele>
        <time>2026-05-02T12:25:59Z</time>
      </trkpt>
      <trkpt lat="42.26622" lon="8.86235">
        <ele>1373.38</ele>
        <time>2026-05-02T12:26:10Z</time>
      </trkpt>
      <trkpt lat="42.26619" lon="8.86247">
        <ele>1372.42</ele>
        <time>2026-05-02T12:26:21Z</time>
      </trkpt>
      <trkpt lat="42.26615" lon="8.86259">
        <ele>1371.46</ele>
        <time>2026-05-02T12:26:32Z</time>
      </trkpt>
      <trkpt lat="42.26611" lon="8.86273">
        <ele>1370.5</ele>
        <time>2026-05-02T12:26:44Z</time>
      </trkpt>
      <trkpt lat="42.26607" lon="8.86279">
        <ele>1369.54</ele>
        <time>2026-05-02T12:26:51Z</time>
      </trkpt>
      <trkpt lat="42.26603" lon="8.8629">
        <ele>1370.02</ele>
        <time>2026-05-02T12:27:02Z</time>
      </trkpt>
      <trkpt lat="42.26601" lon="8.86298">
        <ele>1370.5</ele>
        <time>2026-05-02T12:27:10Z</time>
      </trkpt>
      <trkpt lat="42.26598" lon="8.8631">
        <ele>1369.54</ele>
        <time>2026-05-02T12:27:22Z</time>
      </trkpt>
      <trkpt lat="42.26592" lon="8.86318">
        <ele>1364.73</ele>
        <time>2026-05-02T12:27:34Z</time>
      </trkpt>
      <trkpt lat="42.26587" lon="8.8633">
        <ele>1362.33</ele>
        <time>2026-05-02T12:27:45Z</time>
      </trkpt>
      <trkpt lat="42.26586" lon="8.8633">
        <ele>1361.84</ele>
        <time>2026-05-02T12:27:47Z</time>
      </trkpt>
      <trkpt lat="42.26584" lon="8.86331">
        <ele>1361.84</ele>
        <time>2026-05-02T12:27:50Z</time>
      </trkpt>
      <trkpt lat="42.26579" lon="8.86339">
        <ele>1359.44</ele>
        <time>2026-05-02T12:28:00Z</time>
      </trkpt>
      <trkpt lat="42.26578" lon="8.8634">
        <ele>1359.44</ele>
        <time>2026-05-02T12:28:02Z</time>
      </trkpt>
      <trkpt lat="42.26575" lon="8.86346">
        <ele>1359.44</ele>
        <time>2026-05-02T12:28:09Z</time>
      </trkpt>
      <trkpt lat="42.26567" lon="8.86354">
        <ele>1359.92</ele>
        <time>2026-05-02T12:28:20Z</time>
      </trkpt>
      <trkpt lat="42.26564" lon="8.86365">
        <ele>1359.44</ele>
        <time>2026-05-02T12:28:32Z</time>
      </trkpt>
      <trkpt lat="42.26568" lon="8.8638">
        <ele>1360.88</ele>
        <time>2026-05-02T12:28:43Z</time>
      </trkpt>
      <trkpt lat="42.26575" lon="8.86392">
        <ele>1360.88</ele>
        <time>2026-05-02T12:28:53Z</time>
      </trkpt>
      <trkpt lat="42.26579" lon="8.86409">
        <ele>1362.33</ele>
        <time>2026-05-02T12:29:05Z</time>
      </trkpt>
      <trkpt lat="42.2658" lon="8.8641">
        <ele>1361.84</ele>
        <time>2026-05-02T12:29:07Z</time>
      </trkpt>
      <trkpt lat="42.26585" lon="8.86417">
        <ele>1361.36</ele>
        <time>2026-05-02T12:29:16Z</time>
      </trkpt>
      <trkpt lat="42.26586" lon="8.86421">
        <ele>1362.33</ele>
        <time>2026-05-02T12:29:18Z</time>
      </trkpt>
      <trkpt lat="42.26593" lon="8.86429">
        <ele>1362.33</ele>
        <time>2026-05-02T12:29:28Z</time>
      </trkpt>
      <trkpt lat="42.26599" lon="8.8644">
        <ele>1362.81</ele>
        <time>2026-05-02T12:29:39Z</time>
      </trkpt>
      <trkpt lat="42.26607" lon="8.8645">
        <ele>1362.81</ele>
        <time>2026-05-02T12:29:50Z</time>
      </trkpt>
      <trkpt lat="42.26609" lon="8.8646">
        <ele>1362.81</ele>
        <time>2026-05-02T12:30:01Z</time>
      </trkpt>
      <trkpt lat="42.26612" lon="8.86464">
        <ele>1361.84</ele>
        <time>2026-05-02T12:30:08Z</time>
      </trkpt>
      <trkpt lat="42.26615" lon="8.86475">
        <ele>1360.88</ele>
        <time>2026-05-02T12:30:20Z</time>
      </trkpt>
      <trkpt lat="42.26615" lon="8.8648">
        <ele>1360.4</ele>
        <time>2026-05-02T12:30:25Z</time>
      </trkpt>
      <trkpt lat="42.26614" lon="8.86491">
        <ele>1359.44</ele>
        <time>2026-05-02T12:30:37Z</time>
      </trkpt>
      <trkpt lat="42.2661" lon="8.86504">
        <ele>1359.92</ele>
        <time>2026-05-02T12:30:48Z</time>
      </trkpt>
      <trkpt lat="42.26608" lon="8.86515">
        <ele>1358.48</ele>
        <time>2026-05-02T12:31:00Z</time>
      </trkpt>
      <trkpt lat="42.26606" lon="8.86525">
        <ele>1358</ele>
        <time>2026-05-02T12:31:09Z</time>
      </trkpt>
      <trkpt lat="42.26609" lon="8.86537">
        <ele>1358.48</ele>
        <time>2026-05-02T12:31:21Z</time>
      </trkpt>
      <trkpt lat="42.26609" lon="8.8655">
        <ele>1359.44</ele>
        <time>2026-05-02T12:31:34Z</time>
      </trkpt>
      <trkpt lat="42.26608" lon="8.8655">
        <ele>1369.05</ele>
        <time>2026-05-02T12:32:06Z</time>
      </trkpt>
      <trkpt lat="42.26612" lon="8.8655">
        <ele>1370.02</ele>
        <time>2026-05-02T12:32:28Z</time>
      </trkpt>
      <trkpt lat="42.26618" lon="8.86558">
        <ele>1367.61</ele>
        <time>2026-05-02T12:32:38Z</time>
      </trkpt>
      <trkpt lat="42.26618" lon="8.86561">
        <ele>1366.65</ele>
        <time>2026-05-02T12:32:46Z</time>
      </trkpt>
      <trkpt lat="42.26622" lon="8.86564">
        <ele>1366.17</ele>
        <time>2026-05-02T12:32:53Z</time>
      </trkpt>
      <trkpt lat="42.2663" lon="8.86575">
        <ele>1365.69</ele>
        <time>2026-05-02T12:33:05Z</time>
      </trkpt>
      <trkpt lat="42.26638" lon="8.8658">
        <ele>1367.13</ele>
        <time>2026-05-02T12:33:19Z</time>
      </trkpt>
      <trkpt lat="42.26647" lon="8.86587">
        <ele>1370.98</ele>
        <time>2026-05-02T12:33:31Z</time>
      </trkpt>
      <trkpt lat="42.26654" lon="8.8659">
        <ele>1371.46</ele>
        <time>2026-05-02T12:33:39Z</time>
      </trkpt>
      <trkpt lat="42.26667" lon="8.86593">
        <ele>1372.9</ele>
        <time>2026-05-02T12:33:52Z</time>
      </trkpt>
      <trkpt lat="42.26674" lon="8.86592">
        <ele>1369.05</ele>
        <time>2026-05-02T12:34:04Z</time>
      </trkpt>
      <trkpt lat="42.2668" lon="8.86594">
        <ele>1366.17</ele>
        <time>2026-05-02T12:34:22Z</time>
      </trkpt>
      <trkpt lat="42.26684" lon="8.86602">
        <ele>1365.69</ele>
        <time>2026-05-02T12:34:34Z</time>
      </trkpt>
      <trkpt lat="42.26684" lon="8.86604">
        <ele>1365.21</ele>
        <time>2026-05-02T12:34:36Z</time>
      </trkpt>
      <trkpt lat="42.26687" lon="8.86618">
        <ele>1360.88</ele>
        <time>2026-05-02T12:34:47Z</time>
      </trkpt>
      <trkpt lat="42.26692" lon="8.86624">
        <ele>1360.4</ele>
        <time>2026-05-02T12:34:55Z</time>
      </trkpt>
      <trkpt lat="42.26696" lon="8.86625">
        <ele>1361.36</ele>
        <time>2026-05-02T12:34:59Z</time>
      </trkpt>
      <trkpt lat="42.26704" lon="8.86629">
        <ele>1360.88</ele>
        <time>2026-05-02T12:35:10Z</time>
      </trkpt>
      <trkpt lat="42.26714" lon="8.86629">
        <ele>1364.25</ele>
        <time>2026-05-02T12:35:23Z</time>
      </trkpt>
      <trkpt lat="42.26724" lon="8.8663">
        <ele>1364.25</ele>
        <time>2026-05-02T12:35:35Z</time>
      </trkpt>
      <trkpt lat="42.26737" lon="8.86629">
        <ele>1362.33</ele>
        <time>2026-05-02T12:35:49Z</time>
      </trkpt>
      <trkpt lat="42.26739" lon="8.86628">
        <ele>1363.29</ele>
        <time>2026-05-02T12:35:51Z</time>
      </trkpt>
      <trkpt lat="42.26752" lon="8.86625">
        <ele>1365.69</ele>
        <time>2026-05-02T12:36:04Z</time>
      </trkpt>
      <trkpt lat="42.26761" lon="8.86626">
        <ele>1364.73</ele>
        <time>2026-05-02T12:36:15Z</time>
      </trkpt>
      <trkpt lat="42.26772" lon="8.86627">
        <ele>1363.29</ele>
        <time>2026-05-02T12:36:27Z</time>
      </trkpt>
      <trkpt lat="42.26779" lon="8.86633">
        <ele>1361.36</ele>
        <time>2026-05-02T12:36:37Z</time>
      </trkpt>
      <trkpt lat="42.26785" lon="8.86633">
        <ele>1358.96</ele>
        <time>2026-05-02T12:36:49Z</time>
      </trkpt>
      <trkpt lat="42.26791" lon="8.86627">
        <ele>1358.48</ele>
        <time>2026-05-02T12:37:03Z</time>
      </trkpt>
      <trkpt lat="42.26799" lon="8.86629">
        <ele>1359.92</ele>
        <time>2026-05-02T12:37:13Z</time>
      </trkpt>
      <trkpt lat="42.26811" lon="8.86638">
        <ele>1355.6</ele>
        <time>2026-05-02T12:37:29Z</time>
      </trkpt>
      <trkpt lat="42.26822" lon="8.86653">
        <ele>1352.71</ele>
        <time>2026-05-02T12:37:47Z</time>
      </trkpt>
      <trkpt lat="42.26822" lon="8.86655">
        <ele>1352.23</ele>
        <time>2026-05-02T12:38:04Z</time>
      </trkpt>
      <trkpt lat="42.26828" lon="8.86665">
        <ele>1354.15</ele>
        <time>2026-05-02T12:38:15Z</time>
      </trkpt>
      <trkpt lat="42.26835" lon="8.86673">
        <ele>1358</ele>
        <time>2026-05-02T12:38:29Z</time>
      </trkpt>
      <trkpt lat="42.26838" lon="8.86681">
        <ele>1358</ele>
        <time>2026-05-02T12:38:40Z</time>
      </trkpt>
      <trkpt lat="42.2684" lon="8.8669">
        <ele>1355.12</ele>
        <time>2026-05-02T12:38:52Z</time>
      </trkpt>
      <trkpt lat="42.2684" lon="8.867">
        <ele>1354.63</ele>
        <time>2026-05-02T12:39:04Z</time>
      </trkpt>
      <trkpt lat="42.2684" lon="8.86708">
        <ele>1356.08</ele>
        <time>2026-05-02T12:39:14Z</time>
      </trkpt>
      <trkpt lat="42.26842" lon="8.86718">
        <ele>1355.12</ele>
        <time>2026-05-02T12:39:26Z</time>
      </trkpt>
      <trkpt lat="42.26843" lon="8.86724">
        <ele>1354.15</ele>
        <time>2026-05-02T12:39:48Z</time>
      </trkpt>
      <trkpt lat="42.26845" lon="8.8673">
        <ele>1361.36</ele>
        <time>2026-05-02T12:40:21Z</time>
      </trkpt>
      <trkpt lat="42.26842" lon="8.86734">
        <ele>1360.88</ele>
        <time>2026-05-02T12:40:30Z</time>
      </trkpt>
      <trkpt lat="42.2684" lon="8.8674">
        <ele>1361.84</ele>
        <time>2026-05-02T12:40:38Z</time>
      </trkpt>
      <trkpt lat="42.26841" lon="8.86752">
        <ele>1361.36</ele>
        <time>2026-05-02T12:40:51Z</time>
      </trkpt>
      <trkpt lat="42.26841" lon="8.8676">
        <ele>1362.33</ele>
        <time>2026-05-02T12:41:01Z</time>
      </trkpt>
      <trkpt lat="42.26844" lon="8.86769">
        <ele>1361.84</ele>
        <time>2026-05-02T12:41:12Z</time>
      </trkpt>
      <trkpt lat="42.2685" lon="8.86779">
        <ele>1361.84</ele>
        <time>2026-05-02T12:41:23Z</time>
      </trkpt>
      <trkpt lat="42.26854" lon="8.86794">
        <ele>1363.29</ele>
        <time>2026-05-02T12:41:45Z</time>
      </trkpt>
      <trkpt lat="42.26856" lon="8.86781">
        <ele>1356.56</ele>
        <time>2026-05-02T12:42:12Z</time>
      </trkpt>
      <trkpt lat="42.26854" lon="8.86786">
        <ele>1358.96</ele>
        <time>2026-05-02T12:42:43Z</time>
      </trkpt>
      <trkpt lat="42.26862" lon="8.86788">
        <ele>1365.69</ele>
        <time>2026-05-02T12:42:57Z</time>
      </trkpt>
      <trkpt lat="42.26871" lon="8.86787">
        <ele>1370.98</ele>
        <time>2026-05-02T12:43:08Z</time>
      </trkpt>
      <trkpt lat="42.26881" lon="8.86786">
        <ele>1370.5</ele>
        <time>2026-05-02T12:43:19Z</time>
      </trkpt>
      <trkpt lat="42.26889" lon="8.86781">
        <ele>1370.5</ele>
        <time>2026-05-02T12:43:29Z</time>
      </trkpt>
      <trkpt lat="42.26899" lon="8.86779">
        <ele>1369.05</ele>
        <time>2026-05-02T12:43:41Z</time>
      </trkpt>
      <trkpt lat="42.26907" lon="8.86775">
        <ele>1372.42</ele>
        <time>2026-05-02T12:43:55Z</time>
      </trkpt>
      <trkpt lat="42.26914" lon="8.86773">
        <ele>1373.38</ele>
        <time>2026-05-02T12:44:08Z</time>
      </trkpt>
      <trkpt lat="42.26919" lon="8.86774">
        <ele>1371.94</ele>
        <time>2026-05-02T12:44:28Z</time>
      </trkpt>
      <trkpt lat="42.2693" lon="8.86784">
        <ele>1370.02</ele>
        <time>2026-05-02T12:44:41Z</time>
      </trkpt>
      <trkpt lat="42.26942" lon="8.86795">
        <ele>1369.05</ele>
        <time>2026-05-02T12:44:53Z</time>
      </trkpt>
      <trkpt lat="42.26952" lon="8.86804">
        <ele>1368.09</ele>
        <time>2026-05-02T12:45:06Z</time>
      </trkpt>
      <trkpt lat="42.26958" lon="8.86805">
        <ele>1367.13</ele>
        <time>2026-05-02T12:45:20Z</time>
      </trkpt>
      <trkpt lat="42.26963" lon="8.86811">
        <ele>1370.02</ele>
        <time>2026-05-02T12:45:42Z</time>
      </trkpt>
      <trkpt lat="42.26968" lon="8.8682">
        <ele>1370.02</ele>
        <time>2026-05-02T12:45:54Z</time>
      </trkpt>
      <trkpt lat="42.26969" lon="8.86825">
        <ele>1369.54</ele>
        <time>2026-05-02T12:45:59Z</time>
      </trkpt>
      <trkpt lat="42.26965" lon="8.86839">
        <ele>1366.65</ele>
        <time>2026-05-02T12:46:12Z</time>
      </trkpt>
      <trkpt lat="42.26965" lon="8.86853">
        <ele>1366.17</ele>
        <time>2026-05-02T12:46:24Z</time>
      </trkpt>
      <trkpt lat="42.26969" lon="8.86865">
        <ele>1366.17</ele>
        <time>2026-05-02T12:46:34Z</time>
      </trkpt>
      <trkpt lat="42.26973" lon="8.86875">
        <ele>1366.17</ele>
        <time>2026-05-02T12:46:43Z</time>
      </trkpt>
      <trkpt lat="42.2698" lon="8.86884">
        <ele>1365.69</ele>
        <time>2026-05-02T12:46:53Z</time>
      </trkpt>
      <trkpt lat="42.2698" lon="8.86886">
        <ele>1365.69</ele>
        <time>2026-05-02T12:46:55Z</time>
      </trkpt>
      <trkpt lat="42.26991" lon="8.869">
        <ele>1365.69</ele>
        <time>2026-05-02T12:47:08Z</time>
      </trkpt>
      <trkpt lat="42.27" lon="8.86908">
        <ele>1366.65</ele>
        <time>2026-05-02T12:47:21Z</time>
      </trkpt>
      <trkpt lat="42.27008" lon="8.86917">
        <ele>1366.17</ele>
        <time>2026-05-02T12:47:34Z</time>
      </trkpt>
      <trkpt lat="42.27016" lon="8.86925">
        <ele>1364.73</ele>
        <time>2026-05-02T12:47:45Z</time>
      </trkpt>
      <trkpt lat="42.2702" lon="8.8693">
        <ele>1363.29</ele>
        <time>2026-05-02T12:47:52Z</time>
      </trkpt>
      <trkpt lat="42.27027" lon="8.86941">
        <ele>1364.73</ele>
        <time>2026-05-02T12:48:04Z</time>
      </trkpt>
      <trkpt lat="42.27033" lon="8.86949">
        <ele>1363.77</ele>
        <time>2026-05-02T12:48:13Z</time>
      </trkpt>
      <trkpt lat="42.27042" lon="8.86958">
        <ele>1364.73</ele>
        <time>2026-05-02T12:48:27Z</time>
      </trkpt>
      <trkpt lat="42.27051" lon="8.86967">
        <ele>1365.69</ele>
        <time>2026-05-02T12:48:40Z</time>
      </trkpt>
      <trkpt lat="42.27058" lon="8.86977">
        <ele>1365.69</ele>
        <time>2026-05-02T12:48:51Z</time>
      </trkpt>
      <trkpt lat="42.27065" lon="8.86987">
        <ele>1364.73</ele>
        <time>2026-05-02T12:49:02Z</time>
      </trkpt>
      <trkpt lat="42.27071" lon="8.86996">
        <ele>1363.29</ele>
        <time>2026-05-02T12:49:13Z</time>
      </trkpt>
      <trkpt lat="42.27077" lon="8.87005">
        <ele>1360.4</ele>
        <time>2026-05-02T12:49:24Z</time>
      </trkpt>
      <trkpt lat="42.27083" lon="8.87017">
        <ele>1359.44</ele>
        <time>2026-05-02T12:49:36Z</time>
      </trkpt>
      <trkpt lat="42.27089" lon="8.87029">
        <ele>1359.92</ele>
        <time>2026-05-02T12:49:49Z</time>
      </trkpt>
      <trkpt lat="42.27098" lon="8.87037">
        <ele>1358.96</ele>
        <time>2026-05-02T12:50:01Z</time>
      </trkpt>
      <trkpt lat="42.27104" lon="8.87044">
        <ele>1357.04</ele>
        <time>2026-05-02T12:50:12Z</time>
      </trkpt>
      <trkpt lat="42.27105" lon="8.87045">
        <ele>1356.56</ele>
        <time>2026-05-02T12:50:14Z</time>
      </trkpt>
      <trkpt lat="42.27112" lon="8.87049">
        <ele>1357.04</ele>
        <time>2026-05-02T12:50:22Z</time>
      </trkpt>
      <trkpt lat="42.27118" lon="8.87062">
        <ele>1356.08</ele>
        <time>2026-05-02T12:50:36Z</time>
      </trkpt>
      <trkpt lat="42.27121" lon="8.87075">
        <ele>1355.6</ele>
        <time>2026-05-02T12:50:48Z</time>
      </trkpt>
      <trkpt lat="42.27121" lon="8.87076">
        <ele>1355.6</ele>
        <time>2026-05-02T12:50:49Z</time>
      </trkpt>
      <trkpt lat="42.27119" lon="8.87091">
        <ele>1355.6</ele>
        <time>2026-05-02T12:51:01Z</time>
      </trkpt>
      <trkpt lat="42.27117" lon="8.87098">
        <ele>1351.75</ele>
        <time>2026-05-02T12:51:12Z</time>
      </trkpt>
      <trkpt lat="42.27114" lon="8.87107">
        <ele>1348.39</ele>
        <time>2026-05-02T12:51:23Z</time>
      </trkpt>
      <trkpt lat="42.27112" lon="8.87118">
        <ele>1346.46</ele>
        <time>2026-05-02T12:51:34Z</time>
      </trkpt>
      <trkpt lat="42.27109" lon="8.8713">
        <ele>1344.54</ele>
        <time>2026-05-02T12:51:46Z</time>
      </trkpt>
      <trkpt lat="42.27114" lon="8.87142">
        <ele>1344.06</ele>
        <time>2026-05-02T12:51:58Z</time>
      </trkpt>
      <trkpt lat="42.27122" lon="8.87149">
        <ele>1344.54</ele>
        <time>2026-05-02T12:52:10Z</time>
      </trkpt>
      <trkpt lat="42.27129" lon="8.87148">
        <ele>1345.02</ele>
        <time>2026-05-02T12:52:20Z</time>
      </trkpt>
      <trkpt lat="42.27137" lon="8.8715">
        <ele>1344.54</ele>
        <time>2026-05-02T12:52:30Z</time>
      </trkpt>
      <trkpt lat="42.27144" lon="8.87151">
        <ele>1344.06</ele>
        <time>2026-05-02T12:52:40Z</time>
      </trkpt>
      <trkpt lat="42.27155" lon="8.87151">
        <ele>1343.58</ele>
        <time>2026-05-02T12:52:54Z</time>
      </trkpt>
      <trkpt lat="42.27165" lon="8.87151">
        <ele>1342.14</ele>
        <time>2026-05-02T12:53:05Z</time>
      </trkpt>
      <trkpt lat="42.27176" lon="8.87153">
        <ele>1341.66</ele>
        <time>2026-05-02T12:53:18Z</time>
      </trkpt>
      <trkpt lat="42.27188" lon="8.87153">
        <ele>1340.22</ele>
        <time>2026-05-02T12:53:30Z</time>
      </trkpt>
      <trkpt lat="42.27197" lon="8.87155">
        <ele>1337.81</ele>
        <time>2026-05-02T12:53:42Z</time>
      </trkpt>
      <trkpt lat="42.27203" lon="8.8716">
        <ele>1335.89</ele>
        <time>2026-05-02T12:53:52Z</time>
      </trkpt>
      <trkpt lat="42.2721" lon="8.87166">
        <ele>1334.45</ele>
        <time>2026-05-02T12:54:03Z</time>
      </trkpt>
      <trkpt lat="42.27211" lon="8.87166">
        <ele>1333.97</ele>
        <time>2026-05-02T12:54:04Z</time>
      </trkpt>
      <trkpt lat="42.27216" lon="8.87177">
        <ele>1331.56</ele>
        <time>2026-05-02T12:54:15Z</time>
      </trkpt>
      <trkpt lat="42.27221" lon="8.87187">
        <ele>1332.52</ele>
        <time>2026-05-02T12:54:25Z</time>
      </trkpt>
      <trkpt lat="42.27219" lon="8.87199">
        <ele>1330.12</ele>
        <time>2026-05-02T12:54:36Z</time>
      </trkpt>
      <trkpt lat="42.27218" lon="8.87211">
        <ele>1329.64</ele>
        <time>2026-05-02T12:54:46Z</time>
      </trkpt>
      <trkpt lat="42.27217" lon="8.87222">
        <ele>1328.68</ele>
        <time>2026-05-02T12:54:56Z</time>
      </trkpt>
      <trkpt lat="42.27217" lon="8.87235">
        <ele>1327.24</ele>
        <time>2026-05-02T12:55:07Z</time>
      </trkpt>
      <trkpt lat="42.27218" lon="8.87247">
        <ele>1325.8</ele>
        <time>2026-05-02T12:55:19Z</time>
      </trkpt>
      <trkpt lat="42.27218" lon="8.87262">
        <ele>1326.28</ele>
        <time>2026-05-02T12:55:32Z</time>
      </trkpt>
      <trkpt lat="42.27219" lon="8.87279">
        <ele>1326.28</ele>
        <time>2026-05-02T12:55:44Z</time>
      </trkpt>
      <trkpt lat="42.27223" lon="8.87285">
        <ele>1325.31</ele>
        <time>2026-05-02T12:55:51Z</time>
      </trkpt>
      <trkpt lat="42.27227" lon="8.87292">
        <ele>1324.35</ele>
        <time>2026-05-02T12:55:58Z</time>
      </trkpt>
      <trkpt lat="42.27234" lon="8.87301">
        <ele>1323.39</ele>
        <time>2026-05-02T12:56:10Z</time>
      </trkpt>
      <trkpt lat="42.27235" lon="8.87303">
        <ele>1324.35</ele>
        <time>2026-05-02T12:56:13Z</time>
      </trkpt>
      <trkpt lat="42.27242" lon="8.8731">
        <ele>1325.31</ele>
        <time>2026-05-02T12:56:23Z</time>
      </trkpt>
      <trkpt lat="42.27253" lon="8.87313">
        <ele>1326.28</ele>
        <time>2026-05-02T12:56:36Z</time>
      </trkpt>
      <trkpt lat="42.27262" lon="8.87314">
        <ele>1327.72</ele>
        <time>2026-05-02T12:56:46Z</time>
      </trkpt>
      <trkpt lat="42.27271" lon="8.87315">
        <ele>1327.24</ele>
        <time>2026-05-02T12:56:58Z</time>
      </trkpt>
      <trkpt lat="42.27271" lon="8.87316">
        <ele>1326.76</ele>
        <time>2026-05-02T12:56:59Z</time>
      </trkpt>
      <trkpt lat="42.27273" lon="8.87319">
        <ele>1327.72</ele>
        <time>2026-05-02T12:57:14Z</time>
      </trkpt>
      <trkpt lat="42.27279" lon="8.87321">
        <ele>1327.72</ele>
        <time>2026-05-02T12:57:30Z</time>
      </trkpt>
      <trkpt lat="42.27289" lon="8.87323">
        <ele>1326.76</ele>
        <time>2026-05-02T12:57:41Z</time>
      </trkpt>
      <trkpt lat="42.27298" lon="8.87322">
        <ele>1325.31</ele>
        <time>2026-05-02T12:57:56Z</time>
      </trkpt>
      <trkpt lat="42.27307" lon="8.87324">
        <ele>1326.76</ele>
        <time>2026-05-02T12:58:09Z</time>
      </trkpt>
      <trkpt lat="42.27313" lon="8.87323">
        <ele>1327.72</ele>
        <time>2026-05-02T12:58:20Z</time>
      </trkpt>
      <trkpt lat="42.27314" lon="8.8732">
        <ele>1321.95</ele>
        <time>2026-05-02T12:58:40Z</time>
      </trkpt>
      <trkpt lat="42.27321" lon="8.87315">
        <ele>1322.43</ele>
        <time>2026-05-02T12:58:53Z</time>
      </trkpt>
      <trkpt lat="42.27325" lon="8.87309">
        <ele>1321.47</ele>
        <time>2026-05-02T12:59:07Z</time>
      </trkpt>
      <trkpt lat="42.27325" lon="8.87311">
        <ele>1318.59</ele>
        <time>2026-05-02T12:59:22Z</time>
      </trkpt>
      <trkpt lat="42.27331" lon="8.87308">
        <ele>1319.55</ele>
        <time>2026-05-02T12:59:32Z</time>
      </trkpt>
      <trkpt lat="42.27337" lon="8.87316">
        <ele>1317.14</ele>
        <time>2026-05-02T12:59:48Z</time>
      </trkpt>
      <trkpt lat="42.27341" lon="8.87319">
        <ele>1317.14</ele>
        <time>2026-05-02T13:00:02Z</time>
      </trkpt>
      <trkpt lat="42.27345" lon="8.87321">
        <ele>1320.51</ele>
        <time>2026-05-02T13:00:14Z</time>
      </trkpt>
      <trkpt lat="42.2735" lon="8.87314">
        <ele>1320.51</ele>
        <time>2026-05-02T13:00:25Z</time>
      </trkpt>
      <trkpt lat="42.27355" lon="8.87308">
        <ele>1318.1</ele>
        <time>2026-05-02T13:00:34Z</time>
      </trkpt>
      <trkpt lat="42.27353" lon="8.87295">
        <ele>1318.59</ele>
        <time>2026-05-02T13:00:49Z</time>
      </trkpt>
      <trkpt lat="42.27341" lon="8.87281">
        <ele>1314.74</ele>
        <time>2026-05-02T13:01:01Z</time>
      </trkpt>
      <trkpt lat="42.27334" lon="8.87272">
        <ele>1312.34</ele>
        <time>2026-05-02T13:01:15Z</time>
      </trkpt>
      <trkpt lat="42.2733" lon="8.87267">
        <ele>1310.9</ele>
        <time>2026-05-02T13:01:28Z</time>
      </trkpt>
      <trkpt lat="42.27325" lon="8.87265">
        <ele>1308.97</ele>
        <time>2026-05-02T13:01:41Z</time>
      </trkpt>
      <trkpt lat="42.27319" lon="8.87263">
        <ele>1307.05</ele>
        <time>2026-05-02T13:02:03Z</time>
      </trkpt>
      <trkpt lat="42.27322" lon="8.87267">
        <ele>1307.53</ele>
        <time>2026-05-02T13:02:21Z</time>
      </trkpt>
      <trkpt lat="42.27322" lon="8.87266">
        <ele>1306.57</ele>
        <time>2026-05-02T13:02:43Z</time>
      </trkpt>
      <trkpt lat="42.27322" lon="8.87276">
        <ele>1307.53</ele>
        <time>2026-05-02T13:03:09Z</time>
      </trkpt>
      <trkpt lat="42.27324" lon="8.87269">
        <ele>1311.86</ele>
        <time>2026-05-02T13:03:27Z</time>
      </trkpt>
      <trkpt lat="42.27329" lon="8.8727">
        <ele>1312.82</ele>
        <time>2026-05-02T13:03:38Z</time>
      </trkpt>
      <trkpt lat="42.27328" lon="8.87272">
        <ele>1315.7</ele>
        <time>2026-05-02T13:03:53Z</time>
      </trkpt>
      <trkpt lat="42.27326" lon="8.87271">
        <ele>1311.38</ele>
        <time>2026-05-02T13:04:22Z</time>
      </trkpt>
      <trkpt lat="42.27324" lon="8.87272">
        <ele>1311.38</ele>
        <time>2026-05-02T13:04:44Z</time>
      </trkpt>
      <trkpt lat="42.2732" lon="8.8727">
        <ele>1313.78</ele>
        <time>2026-05-02T13:04:55Z</time>
      </trkpt>
      <trkpt lat="42.2732" lon="8.8727">
        <ele>1310.9</ele>
        <time>2026-05-02T13:05:12Z</time>
      </trkpt>
      <trkpt lat="42.27319" lon="8.87272">
        <ele>1308.49</ele>
        <time>2026-05-02T13:05:38Z</time>
      </trkpt>
      <trkpt lat="42.27317" lon="8.87278">
        <ele>1313.3</ele>
        <time>2026-05-02T13:06:06Z</time>
      </trkpt>
      <trkpt lat="42.27319" lon="8.87276">
        <ele>1313.3</ele>
        <time>2026-05-02T13:06:30Z</time>
      </trkpt>
      <trkpt lat="42.27315" lon="8.87264">
        <ele>1315.7</ele>
        <time>2026-05-02T13:06:57Z</time>
      </trkpt>
      <trkpt lat="42.27317" lon="8.87265">
        <ele>1317.14</ele>
        <time>2026-05-02T13:07:22Z</time>
      </trkpt>
      <trkpt lat="42.2732" lon="8.8727">
        <ele>1315.7</ele>
        <time>2026-05-02T13:07:44Z</time>
      </trkpt>
      <trkpt lat="42.2732" lon="8.87266">
        <ele>1315.7</ele>
        <time>2026-05-02T13:08:10Z</time>
      </trkpt>
      <trkpt lat="42.2732" lon="8.87269">
        <ele>1315.7</ele>
        <time>2026-05-02T13:08:22Z</time>
      </trkpt>
    </trkseg>
  </trk>
</gpx>